<?xml version="1.0" encoding="UTF-8" standalone="no" ?>
<gpx xmlns="http://www.topografix.com/GPX/1/1" xmlns:xsi="http://www.w3.org/2001/XMLSchema-instance" xsi:schemaLocation="http://www.topografix.com/GPX/1/1 http://www.topografix.com/GPX/1/1/gpx.xsd" version="1.1" creator="VisuGPX - https://www.visugpx.com">
  <metadata>
    <name>La Forêt des Flambertins et l'Etang d'Abbecourt</name>
    <desc><![CDATA[Randonnée de 17 km en boucle à partir de l'église de Crespières.]]></desc>
  </metadata>
  <trk>
    <name><![CDATA[La Forêt des Flambertins et l'Etang d'Abbecourt_R]]></name>
    <trkseg>
      <trkpt lat="48.88177" lon="1.92392">
        <ele>109.33</ele>
        <time>2021-12-12T08:17:44Z</time>
      </trkpt>
      <trkpt lat="48.88184" lon="1.92404">
        <ele>109.68</ele>
        <time>2021-12-12T08:18:10Z</time>
      </trkpt>
      <trkpt lat="48.88183" lon="1.92416">
        <ele>106.46</ele>
        <time>2021-12-12T08:24:50Z</time>
      </trkpt>
      <trkpt lat="48.88184" lon="1.9242">
        <ele>107.36</ele>
        <time>2021-12-12T08:25:01Z</time>
      </trkpt>
      <trkpt lat="48.8818" lon="1.92424">
        <ele>107.29</ele>
        <time>2021-12-12T08:25:17Z</time>
      </trkpt>
      <trkpt lat="48.88181" lon="1.92429">
        <ele>106.27</ele>
        <time>2021-12-12T08:25:21Z</time>
      </trkpt>
      <trkpt lat="48.88183" lon="1.92448">
        <ele>106.08</ele>
        <time>2021-12-12T08:25:34Z</time>
      </trkpt>
      <trkpt lat="48.88183" lon="1.92469">
        <ele>104.35</ele>
        <time>2021-12-12T08:25:46Z</time>
      </trkpt>
      <trkpt lat="48.88183" lon="1.92485">
        <ele>103.57</ele>
        <time>2021-12-12T08:25:55Z</time>
      </trkpt>
      <trkpt lat="48.88183" lon="1.92492">
        <ele>103.35</ele>
        <time>2021-12-12T08:25:59Z</time>
      </trkpt>
      <trkpt lat="48.88187" lon="1.92509">
        <ele>102.69</ele>
        <time>2021-12-12T08:26:10Z</time>
      </trkpt>
      <trkpt lat="48.88187" lon="1.92515">
        <ele>102.53</ele>
        <time>2021-12-12T08:26:24Z</time>
      </trkpt>
      <trkpt lat="48.88189" lon="1.92524">
        <ele>102.41</ele>
        <time>2021-12-12T08:26:38Z</time>
      </trkpt>
      <trkpt lat="48.88199" lon="1.92541">
        <ele>101.7</ele>
        <time>2021-12-12T08:26:53Z</time>
      </trkpt>
      <trkpt lat="48.88204" lon="1.92559">
        <ele>101.62</ele>
        <time>2021-12-12T08:27:08Z</time>
      </trkpt>
      <trkpt lat="48.88205" lon="1.92577">
        <ele>100.9</ele>
        <time>2021-12-12T08:27:21Z</time>
      </trkpt>
      <trkpt lat="48.88204" lon="1.92582">
        <ele>101.48</ele>
        <time>2021-12-12T08:27:24Z</time>
      </trkpt>
      <trkpt lat="48.88206" lon="1.92599">
        <ele>101</ele>
        <time>2021-12-12T08:27:35Z</time>
      </trkpt>
      <trkpt lat="48.88211" lon="1.92618">
        <ele>100.4</ele>
        <time>2021-12-12T08:27:49Z</time>
      </trkpt>
      <trkpt lat="48.88215" lon="1.92638">
        <ele>100.15</ele>
        <time>2021-12-12T08:28:04Z</time>
      </trkpt>
      <trkpt lat="48.88219" lon="1.92661">
        <ele>100.52</ele>
        <time>2021-12-12T08:28:20Z</time>
      </trkpt>
      <trkpt lat="48.88224" lon="1.92682">
        <ele>100.99</ele>
        <time>2021-12-12T08:28:34Z</time>
      </trkpt>
      <trkpt lat="48.8823" lon="1.92703">
        <ele>101.77</ele>
        <time>2021-12-12T08:28:49Z</time>
      </trkpt>
      <trkpt lat="48.88238" lon="1.92722">
        <ele>103.03</ele>
        <time>2021-12-12T08:29:06Z</time>
      </trkpt>
      <trkpt lat="48.88246" lon="1.92737">
        <ele>103.61</ele>
        <time>2021-12-12T08:29:19Z</time>
      </trkpt>
      <trkpt lat="48.88258" lon="1.92753">
        <ele>104.52</ele>
        <time>2021-12-12T08:29:37Z</time>
      </trkpt>
      <trkpt lat="48.88268" lon="1.92766">
        <ele>105.62</ele>
        <time>2021-12-12T08:29:52Z</time>
      </trkpt>
      <trkpt lat="48.88281" lon="1.92779">
        <ele>107.22</ele>
        <time>2021-12-12T08:30:07Z</time>
      </trkpt>
      <trkpt lat="48.88291" lon="1.928">
        <ele>107.19</ele>
        <time>2021-12-12T08:30:22Z</time>
      </trkpt>
      <trkpt lat="48.88295" lon="1.92814">
        <ele>108.48</ele>
        <time>2021-12-12T08:30:35Z</time>
      </trkpt>
      <trkpt lat="48.883" lon="1.92836">
        <ele>110.51</ele>
        <time>2021-12-12T08:30:52Z</time>
      </trkpt>
      <trkpt lat="48.88301" lon="1.92859">
        <ele>110.82</ele>
        <time>2021-12-12T08:31:08Z</time>
      </trkpt>
      <trkpt lat="48.88305" lon="1.92881">
        <ele>111.06</ele>
        <time>2021-12-12T08:31:23Z</time>
      </trkpt>
      <trkpt lat="48.8831" lon="1.92903">
        <ele>111.86</ele>
        <time>2021-12-12T08:31:39Z</time>
      </trkpt>
      <trkpt lat="48.88314" lon="1.9293">
        <ele>112.23</ele>
        <time>2021-12-12T08:31:54Z</time>
      </trkpt>
      <trkpt lat="48.88319" lon="1.92959">
        <ele>113.1</ele>
        <time>2021-12-12T08:32:12Z</time>
      </trkpt>
      <trkpt lat="48.88326" lon="1.92989">
        <ele>113.33</ele>
        <time>2021-12-12T08:32:30Z</time>
      </trkpt>
      <trkpt lat="48.88333" lon="1.93014">
        <ele>114.29</ele>
        <time>2021-12-12T08:32:47Z</time>
      </trkpt>
      <trkpt lat="48.88338" lon="1.93039">
        <ele>114.16</ele>
        <time>2021-12-12T08:33:02Z</time>
      </trkpt>
      <trkpt lat="48.88346" lon="1.93059">
        <ele>114.54</ele>
        <time>2021-12-12T08:33:17Z</time>
      </trkpt>
      <trkpt lat="48.88352" lon="1.93084">
        <ele>114.15</ele>
        <time>2021-12-12T08:33:33Z</time>
      </trkpt>
      <trkpt lat="48.88361" lon="1.93103">
        <ele>114.26</ele>
        <time>2021-12-12T08:33:48Z</time>
      </trkpt>
      <trkpt lat="48.88368" lon="1.93113">
        <ele>115.2</ele>
        <time>2021-12-12T08:34:01Z</time>
      </trkpt>
      <trkpt lat="48.88372" lon="1.93115">
        <ele>115.81</ele>
        <time>2021-12-12T08:34:14Z</time>
      </trkpt>
      <trkpt lat="48.8838" lon="1.93101">
        <ele>115.9</ele>
        <time>2021-12-12T08:34:29Z</time>
      </trkpt>
      <trkpt lat="48.88386" lon="1.93088">
        <ele>116.11</ele>
        <time>2021-12-12T08:34:40Z</time>
      </trkpt>
      <trkpt lat="48.88388" lon="1.93079">
        <ele>115.99</ele>
        <time>2021-12-12T08:34:48Z</time>
      </trkpt>
      <trkpt lat="48.88392" lon="1.93075">
        <ele>115.91</ele>
        <time>2021-12-12T08:35:00Z</time>
      </trkpt>
      <trkpt lat="48.88401" lon="1.93078">
        <ele>116.44</ele>
        <time>2021-12-12T08:35:13Z</time>
      </trkpt>
      <trkpt lat="48.88411" lon="1.93081">
        <ele>116.28</ele>
        <time>2021-12-12T08:35:27Z</time>
      </trkpt>
      <trkpt lat="48.88416" lon="1.93089">
        <ele>116.19</ele>
        <time>2021-12-12T08:35:39Z</time>
      </trkpt>
      <trkpt lat="48.88421" lon="1.93095">
        <ele>116.28</ele>
        <time>2021-12-12T08:35:52Z</time>
      </trkpt>
      <trkpt lat="48.88428" lon="1.93099">
        <ele>116.94</ele>
        <time>2021-12-12T08:36:03Z</time>
      </trkpt>
      <trkpt lat="48.88437" lon="1.93103">
        <ele>116.7</ele>
        <time>2021-12-12T08:36:14Z</time>
      </trkpt>
      <trkpt lat="48.88446" lon="1.93109">
        <ele>117.11</ele>
        <time>2021-12-12T08:36:25Z</time>
      </trkpt>
      <trkpt lat="48.88449" lon="1.93112">
        <ele>117.22</ele>
        <time>2021-12-12T08:36:28Z</time>
      </trkpt>
      <trkpt lat="48.88458" lon="1.93119">
        <ele>116.76</ele>
        <time>2021-12-12T08:36:40Z</time>
      </trkpt>
      <trkpt lat="48.8846" lon="1.9312">
        <ele>116.66</ele>
        <time>2021-12-12T08:36:42Z</time>
      </trkpt>
      <trkpt lat="48.88472" lon="1.93127">
        <ele>116.85</ele>
        <time>2021-12-12T08:36:54Z</time>
      </trkpt>
      <trkpt lat="48.88478" lon="1.9313">
        <ele>117.17</ele>
        <time>2021-12-12T08:37:02Z</time>
      </trkpt>
      <trkpt lat="48.88486" lon="1.93135">
        <ele>117.46</ele>
        <time>2021-12-12T08:37:11Z</time>
      </trkpt>
      <trkpt lat="48.88494" lon="1.9314">
        <ele>117.27</ele>
        <time>2021-12-12T08:37:22Z</time>
      </trkpt>
      <trkpt lat="48.88497" lon="1.93141">
        <ele>117.61</ele>
        <time>2021-12-12T08:37:25Z</time>
      </trkpt>
      <trkpt lat="48.88504" lon="1.93145">
        <ele>117.19</ele>
        <time>2021-12-12T08:37:33Z</time>
      </trkpt>
      <trkpt lat="48.88515" lon="1.93152">
        <ele>117.12</ele>
        <time>2021-12-12T08:37:46Z</time>
      </trkpt>
      <trkpt lat="48.88525" lon="1.93158">
        <ele>117.21</ele>
        <time>2021-12-12T08:37:58Z</time>
      </trkpt>
      <trkpt lat="48.88528" lon="1.93161">
        <ele>117.47</ele>
        <time>2021-12-12T08:38:02Z</time>
      </trkpt>
      <trkpt lat="48.88531" lon="1.93163">
        <ele>117.1</ele>
        <time>2021-12-12T08:38:05Z</time>
      </trkpt>
      <trkpt lat="48.88537" lon="1.93169">
        <ele>116.78</ele>
        <time>2021-12-12T08:38:11Z</time>
      </trkpt>
      <trkpt lat="48.88544" lon="1.93175">
        <ele>117.39</ele>
        <time>2021-12-12T08:38:20Z</time>
      </trkpt>
      <trkpt lat="48.88549" lon="1.93177">
        <ele>117.71</ele>
        <time>2021-12-12T08:38:29Z</time>
      </trkpt>
      <trkpt lat="48.88557" lon="1.93178">
        <ele>117.19</ele>
        <time>2021-12-12T08:38:40Z</time>
      </trkpt>
      <trkpt lat="48.88564" lon="1.93185">
        <ele>116.62</ele>
        <time>2021-12-12T08:38:49Z</time>
      </trkpt>
      <trkpt lat="48.88569" lon="1.93191">
        <ele>117</ele>
        <time>2021-12-12T08:38:56Z</time>
      </trkpt>
      <trkpt lat="48.88577" lon="1.93202">
        <ele>117.79</ele>
        <time>2021-12-12T08:39:07Z</time>
      </trkpt>
      <trkpt lat="48.88583" lon="1.93213">
        <ele>117.31</ele>
        <time>2021-12-12T08:39:18Z</time>
      </trkpt>
      <trkpt lat="48.8859" lon="1.93222">
        <ele>118.03</ele>
        <time>2021-12-12T08:39:28Z</time>
      </trkpt>
      <trkpt lat="48.88597" lon="1.93233">
        <ele>117.64</ele>
        <time>2021-12-12T08:39:40Z</time>
      </trkpt>
      <trkpt lat="48.88603" lon="1.93243">
        <ele>117.97</ele>
        <time>2021-12-12T08:39:50Z</time>
      </trkpt>
      <trkpt lat="48.88608" lon="1.93253">
        <ele>118.27</ele>
        <time>2021-12-12T08:40:00Z</time>
      </trkpt>
      <trkpt lat="48.88614" lon="1.93263">
        <ele>118.51</ele>
        <time>2021-12-12T08:40:12Z</time>
      </trkpt>
      <trkpt lat="48.88621" lon="1.93271">
        <ele>119.05</ele>
        <time>2021-12-12T08:40:21Z</time>
      </trkpt>
      <trkpt lat="48.88626" lon="1.9328">
        <ele>119.44</ele>
        <time>2021-12-12T08:40:31Z</time>
      </trkpt>
      <trkpt lat="48.88631" lon="1.93287">
        <ele>119.51</ele>
        <time>2021-12-12T08:40:39Z</time>
      </trkpt>
      <trkpt lat="48.88632" lon="1.93289">
        <ele>119.86</ele>
        <time>2021-12-12T08:40:41Z</time>
      </trkpt>
      <trkpt lat="48.88638" lon="1.93298">
        <ele>119.98</ele>
        <time>2021-12-12T08:40:50Z</time>
      </trkpt>
      <trkpt lat="48.88644" lon="1.93308">
        <ele>120.28</ele>
        <time>2021-12-12T08:41:00Z</time>
      </trkpt>
      <trkpt lat="48.88649" lon="1.93317">
        <ele>120.7</ele>
        <time>2021-12-12T08:41:10Z</time>
      </trkpt>
      <trkpt lat="48.88653" lon="1.93324">
        <ele>120.57</ele>
        <time>2021-12-12T08:41:20Z</time>
      </trkpt>
      <trkpt lat="48.88658" lon="1.93334">
        <ele>120.5</ele>
        <time>2021-12-12T08:41:31Z</time>
      </trkpt>
      <trkpt lat="48.88664" lon="1.93342">
        <ele>121.82</ele>
        <time>2021-12-12T08:41:40Z</time>
      </trkpt>
      <trkpt lat="48.88668" lon="1.93352">
        <ele>121.5</ele>
        <time>2021-12-12T08:41:51Z</time>
      </trkpt>
      <trkpt lat="48.88674" lon="1.93363">
        <ele>121.73</ele>
        <time>2021-12-12T08:42:03Z</time>
      </trkpt>
      <trkpt lat="48.8868" lon="1.93372">
        <ele>121.64</ele>
        <time>2021-12-12T08:42:17Z</time>
      </trkpt>
      <trkpt lat="48.88686" lon="1.93381">
        <ele>122.84</ele>
        <time>2021-12-12T08:42:30Z</time>
      </trkpt>
      <trkpt lat="48.88695" lon="1.93394">
        <ele>122.85</ele>
        <time>2021-12-12T08:42:43Z</time>
      </trkpt>
      <trkpt lat="48.88704" lon="1.93409">
        <ele>122.97</ele>
        <time>2021-12-12T08:42:56Z</time>
      </trkpt>
      <trkpt lat="48.88716" lon="1.93428">
        <ele>123.77</ele>
        <time>2021-12-12T08:43:14Z</time>
      </trkpt>
      <trkpt lat="48.88727" lon="1.93441">
        <ele>124.41</ele>
        <time>2021-12-12T08:43:27Z</time>
      </trkpt>
      <trkpt lat="48.88734" lon="1.93455">
        <ele>125.39</ele>
        <time>2021-12-12T08:43:38Z</time>
      </trkpt>
      <trkpt lat="48.88744" lon="1.93468">
        <ele>125.31</ele>
        <time>2021-12-12T08:43:52Z</time>
      </trkpt>
      <trkpt lat="48.88748" lon="1.93482">
        <ele>125.76</ele>
        <time>2021-12-12T08:44:04Z</time>
      </trkpt>
      <trkpt lat="48.88755" lon="1.93494">
        <ele>126.18</ele>
        <time>2021-12-12T08:44:16Z</time>
      </trkpt>
      <trkpt lat="48.88765" lon="1.93507">
        <ele>126.91</ele>
        <time>2021-12-12T08:44:30Z</time>
      </trkpt>
      <trkpt lat="48.88772" lon="1.9352">
        <ele>126.37</ele>
        <time>2021-12-12T08:44:42Z</time>
      </trkpt>
      <trkpt lat="48.88782" lon="1.93533">
        <ele>127.65</ele>
        <time>2021-12-12T08:44:57Z</time>
      </trkpt>
      <trkpt lat="48.88792" lon="1.93545">
        <ele>128.04</ele>
        <time>2021-12-12T08:45:11Z</time>
      </trkpt>
      <trkpt lat="48.88803" lon="1.93559">
        <ele>128.92</ele>
        <time>2021-12-12T08:45:25Z</time>
      </trkpt>
      <trkpt lat="48.8881" lon="1.93574">
        <ele>128.81</ele>
        <time>2021-12-12T08:45:39Z</time>
      </trkpt>
      <trkpt lat="48.88818" lon="1.93586">
        <ele>129.96</ele>
        <time>2021-12-12T08:45:52Z</time>
      </trkpt>
      <trkpt lat="48.88827" lon="1.93605">
        <ele>130.81</ele>
        <time>2021-12-12T08:46:07Z</time>
      </trkpt>
      <trkpt lat="48.88837" lon="1.93622">
        <ele>131.96</ele>
        <time>2021-12-12T08:46:23Z</time>
      </trkpt>
      <trkpt lat="48.88847" lon="1.93638">
        <ele>132.41</ele>
        <time>2021-12-12T08:46:40Z</time>
      </trkpt>
      <trkpt lat="48.88856" lon="1.93653">
        <ele>134</ele>
        <time>2021-12-12T08:46:56Z</time>
      </trkpt>
      <trkpt lat="48.88863" lon="1.9367">
        <ele>134.37</ele>
        <time>2021-12-12T08:47:11Z</time>
      </trkpt>
      <trkpt lat="48.8887" lon="1.93689">
        <ele>134.57</ele>
        <time>2021-12-12T08:47:24Z</time>
      </trkpt>
      <trkpt lat="48.88876" lon="1.93703">
        <ele>135.4</ele>
        <time>2021-12-12T08:47:37Z</time>
      </trkpt>
      <trkpt lat="48.88886" lon="1.93725">
        <ele>137.81</ele>
        <time>2021-12-12T08:47:55Z</time>
      </trkpt>
      <trkpt lat="48.88893" lon="1.93737">
        <ele>139.37</ele>
        <time>2021-12-12T08:48:08Z</time>
      </trkpt>
      <trkpt lat="48.88902" lon="1.93753">
        <ele>139.37</ele>
        <time>2021-12-12T08:48:23Z</time>
      </trkpt>
      <trkpt lat="48.88908" lon="1.93768">
        <ele>141.41</ele>
        <time>2021-12-12T08:48:39Z</time>
      </trkpt>
      <trkpt lat="48.88913" lon="1.93781">
        <ele>142.78</ele>
        <time>2021-12-12T08:48:56Z</time>
      </trkpt>
      <trkpt lat="48.88918" lon="1.93795">
        <ele>144.16</ele>
        <time>2021-12-12T08:49:11Z</time>
      </trkpt>
      <trkpt lat="48.88921" lon="1.93811">
        <ele>145.06</ele>
        <time>2021-12-12T08:49:23Z</time>
      </trkpt>
      <trkpt lat="48.88925" lon="1.93826">
        <ele>145.87</ele>
        <time>2021-12-12T08:49:37Z</time>
      </trkpt>
      <trkpt lat="48.8893" lon="1.93841">
        <ele>146.56</ele>
        <time>2021-12-12T08:49:48Z</time>
      </trkpt>
      <trkpt lat="48.8893" lon="1.93852">
        <ele>147.18</ele>
        <time>2021-12-12T08:50:04Z</time>
      </trkpt>
      <trkpt lat="48.88929" lon="1.93858">
        <ele>147.73</ele>
        <time>2021-12-12T08:50:22Z</time>
      </trkpt>
      <trkpt lat="48.88933" lon="1.93866">
        <ele>148.45</ele>
        <time>2021-12-12T08:50:45Z</time>
      </trkpt>
      <trkpt lat="48.88931" lon="1.9387">
        <ele>148.37</ele>
        <time>2021-12-12T08:50:58Z</time>
      </trkpt>
      <trkpt lat="48.88931" lon="1.93872">
        <ele>148.14</ele>
        <time>2021-12-12T08:51:18Z</time>
      </trkpt>
      <trkpt lat="48.8893" lon="1.93874">
        <ele>147.67</ele>
        <time>2021-12-12T08:51:43Z</time>
      </trkpt>
      <trkpt lat="48.8893" lon="1.93873">
        <ele>148.39</ele>
        <time>2021-12-12T08:52:02Z</time>
      </trkpt>
      <trkpt lat="48.8893" lon="1.93884">
        <ele>149.11</ele>
        <time>2021-12-12T08:52:19Z</time>
      </trkpt>
      <trkpt lat="48.88933" lon="1.93899">
        <ele>150.91</ele>
        <time>2021-12-12T08:52:34Z</time>
      </trkpt>
      <trkpt lat="48.88938" lon="1.93911">
        <ele>151.65</ele>
        <time>2021-12-12T08:52:47Z</time>
      </trkpt>
      <trkpt lat="48.88943" lon="1.93925">
        <ele>152.74</ele>
        <time>2021-12-12T08:53:00Z</time>
      </trkpt>
      <trkpt lat="48.88946" lon="1.93939">
        <ele>154.07</ele>
        <time>2021-12-12T08:53:11Z</time>
      </trkpt>
      <trkpt lat="48.8895" lon="1.93954">
        <ele>155.66</ele>
        <time>2021-12-12T08:53:24Z</time>
      </trkpt>
      <trkpt lat="48.88955" lon="1.93969">
        <ele>157.17</ele>
        <time>2021-12-12T08:53:36Z</time>
      </trkpt>
      <trkpt lat="48.88958" lon="1.93986">
        <ele>158.39</ele>
        <time>2021-12-12T08:53:51Z</time>
      </trkpt>
      <trkpt lat="48.88965" lon="1.94003">
        <ele>159.68</ele>
        <time>2021-12-12T08:54:06Z</time>
      </trkpt>
      <trkpt lat="48.88971" lon="1.94021">
        <ele>160.65</ele>
        <time>2021-12-12T08:54:20Z</time>
      </trkpt>
      <trkpt lat="48.88977" lon="1.9404">
        <ele>161.41</ele>
        <time>2021-12-12T08:54:36Z</time>
      </trkpt>
      <trkpt lat="48.88988" lon="1.94052">
        <ele>162.99</ele>
        <time>2021-12-12T08:54:53Z</time>
      </trkpt>
      <trkpt lat="48.88997" lon="1.94073">
        <ele>163.17</ele>
        <time>2021-12-12T08:55:08Z</time>
      </trkpt>
      <trkpt lat="48.89008" lon="1.94087">
        <ele>164.39</ele>
        <time>2021-12-12T08:55:25Z</time>
      </trkpt>
      <trkpt lat="48.89016" lon="1.94104">
        <ele>165.82</ele>
        <time>2021-12-12T08:55:40Z</time>
      </trkpt>
      <trkpt lat="48.89025" lon="1.9412">
        <ele>167.88</ele>
        <time>2021-12-12T08:55:53Z</time>
      </trkpt>
      <trkpt lat="48.89036" lon="1.94136">
        <ele>168.64</ele>
        <time>2021-12-12T08:56:09Z</time>
      </trkpt>
      <trkpt lat="48.89046" lon="1.94146">
        <ele>169.77</ele>
        <time>2021-12-12T08:56:25Z</time>
      </trkpt>
      <trkpt lat="48.89063" lon="1.94155">
        <ele>169.81</ele>
        <time>2021-12-12T08:56:41Z</time>
      </trkpt>
      <trkpt lat="48.89075" lon="1.94167">
        <ele>171.66</ele>
        <time>2021-12-12T08:56:56Z</time>
      </trkpt>
      <trkpt lat="48.89087" lon="1.9418">
        <ele>171.35</ele>
        <time>2021-12-12T08:57:12Z</time>
      </trkpt>
      <trkpt lat="48.89093" lon="1.94188">
        <ele>171.51</ele>
        <time>2021-12-12T08:57:25Z</time>
      </trkpt>
      <trkpt lat="48.89097" lon="1.942">
        <ele>171.44</ele>
        <time>2021-12-12T08:57:39Z</time>
      </trkpt>
      <trkpt lat="48.891" lon="1.94214">
        <ele>171.75</ele>
        <time>2021-12-12T08:57:54Z</time>
      </trkpt>
      <trkpt lat="48.89104" lon="1.94227">
        <ele>172</ele>
        <time>2021-12-12T08:58:06Z</time>
      </trkpt>
      <trkpt lat="48.89107" lon="1.94226">
        <ele>171.19</ele>
        <time>2021-12-12T08:58:18Z</time>
      </trkpt>
      <trkpt lat="48.89106" lon="1.94218">
        <ele>171.26</ele>
        <time>2021-12-12T08:58:34Z</time>
      </trkpt>
      <trkpt lat="48.89103" lon="1.94203">
        <ele>171.58</ele>
        <time>2021-12-12T08:58:52Z</time>
      </trkpt>
      <trkpt lat="48.89099" lon="1.94191">
        <ele>171.57</ele>
        <time>2021-12-12T08:59:08Z</time>
      </trkpt>
      <trkpt lat="48.891" lon="1.94184">
        <ele>171.73</ele>
        <time>2021-12-12T08:59:24Z</time>
      </trkpt>
      <trkpt lat="48.89099" lon="1.94173">
        <ele>172.25</ele>
        <time>2021-12-12T08:59:41Z</time>
      </trkpt>
      <trkpt lat="48.89096" lon="1.94156">
        <ele>172.16</ele>
        <time>2021-12-12T08:59:57Z</time>
      </trkpt>
      <trkpt lat="48.891" lon="1.94137">
        <ele>172.67</ele>
        <time>2021-12-12T09:00:14Z</time>
      </trkpt>
      <trkpt lat="48.89103" lon="1.94119">
        <ele>172.24</ele>
        <time>2021-12-12T09:00:31Z</time>
      </trkpt>
      <trkpt lat="48.8911" lon="1.94102">
        <ele>172.93</ele>
        <time>2021-12-12T09:00:45Z</time>
      </trkpt>
      <trkpt lat="48.89117" lon="1.94089">
        <ele>172.89</ele>
        <time>2021-12-12T09:00:59Z</time>
      </trkpt>
      <trkpt lat="48.89122" lon="1.94079">
        <ele>172.7</ele>
        <time>2021-12-12T09:01:12Z</time>
      </trkpt>
      <trkpt lat="48.89133" lon="1.94064">
        <ele>172.84</ele>
        <time>2021-12-12T09:01:27Z</time>
      </trkpt>
      <trkpt lat="48.89141" lon="1.94052">
        <ele>173.24</ele>
        <time>2021-12-12T09:01:40Z</time>
      </trkpt>
      <trkpt lat="48.89142" lon="1.94048">
        <ele>173.18</ele>
        <time>2021-12-12T09:01:44Z</time>
      </trkpt>
      <trkpt lat="48.89149" lon="1.94032">
        <ele>172.83</ele>
        <time>2021-12-12T09:02:02Z</time>
      </trkpt>
      <trkpt lat="48.89154" lon="1.94014">
        <ele>172.08</ele>
        <time>2021-12-12T09:02:17Z</time>
      </trkpt>
      <trkpt lat="48.89155" lon="1.94002">
        <ele>172.58</ele>
        <time>2021-12-12T09:02:31Z</time>
      </trkpt>
      <trkpt lat="48.89164" lon="1.93988">
        <ele>172.44</ele>
        <time>2021-12-12T09:02:46Z</time>
      </trkpt>
      <trkpt lat="48.89169" lon="1.93977">
        <ele>172.32</ele>
        <time>2021-12-12T09:03:00Z</time>
      </trkpt>
      <trkpt lat="48.89176" lon="1.93965">
        <ele>171.49</ele>
        <time>2021-12-12T09:03:15Z</time>
      </trkpt>
      <trkpt lat="48.89187" lon="1.93952">
        <ele>172.27</ele>
        <time>2021-12-12T09:03:29Z</time>
      </trkpt>
      <trkpt lat="48.89198" lon="1.93941">
        <ele>171.94</ele>
        <time>2021-12-12T09:03:45Z</time>
      </trkpt>
      <trkpt lat="48.89216" lon="1.93932">
        <ele>171.36</ele>
        <time>2021-12-12T09:04:03Z</time>
      </trkpt>
      <trkpt lat="48.89225" lon="1.93919">
        <ele>171.16</ele>
        <time>2021-12-12T09:04:17Z</time>
      </trkpt>
      <trkpt lat="48.89236" lon="1.93907">
        <ele>171.83</ele>
        <time>2021-12-12T09:04:32Z</time>
      </trkpt>
      <trkpt lat="48.8925" lon="1.939">
        <ele>171.73</ele>
        <time>2021-12-12T09:04:47Z</time>
      </trkpt>
      <trkpt lat="48.89262" lon="1.93888">
        <ele>171.17</ele>
        <time>2021-12-12T09:05:03Z</time>
      </trkpt>
      <trkpt lat="48.89272" lon="1.93877">
        <ele>170.52</ele>
        <time>2021-12-12T09:05:17Z</time>
      </trkpt>
      <trkpt lat="48.89285" lon="1.9386">
        <ele>170.66</ele>
        <time>2021-12-12T09:05:34Z</time>
      </trkpt>
      <trkpt lat="48.89294" lon="1.93852">
        <ele>170.98</ele>
        <time>2021-12-12T09:05:48Z</time>
      </trkpt>
      <trkpt lat="48.89306" lon="1.9384">
        <ele>169.97</ele>
        <time>2021-12-12T09:06:03Z</time>
      </trkpt>
      <trkpt lat="48.89319" lon="1.93825">
        <ele>169.68</ele>
        <time>2021-12-12T09:06:19Z</time>
      </trkpt>
      <trkpt lat="48.89332" lon="1.93813">
        <ele>169.62</ele>
        <time>2021-12-12T09:06:33Z</time>
      </trkpt>
      <trkpt lat="48.89343" lon="1.93804">
        <ele>169.6</ele>
        <time>2021-12-12T09:06:48Z</time>
      </trkpt>
      <trkpt lat="48.89357" lon="1.93801">
        <ele>169.52</ele>
        <time>2021-12-12T09:07:03Z</time>
      </trkpt>
      <trkpt lat="48.89372" lon="1.93795">
        <ele>170.33</ele>
        <time>2021-12-12T09:07:19Z</time>
      </trkpt>
      <trkpt lat="48.89388" lon="1.93789">
        <ele>170.48</ele>
        <time>2021-12-12T09:07:33Z</time>
      </trkpt>
      <trkpt lat="48.89397" lon="1.93787">
        <ele>170.62</ele>
        <time>2021-12-12T09:07:51Z</time>
      </trkpt>
      <trkpt lat="48.89404" lon="1.93786">
        <ele>170.1</ele>
        <time>2021-12-12T09:07:57Z</time>
      </trkpt>
      <trkpt lat="48.89407" lon="1.93787">
        <ele>170.72</ele>
        <time>2021-12-12T09:08:01Z</time>
      </trkpt>
      <trkpt lat="48.89411" lon="1.93788">
        <ele>170.7</ele>
        <time>2021-12-12T09:08:20Z</time>
      </trkpt>
      <trkpt lat="48.8941" lon="1.93791">
        <ele>170.99</ele>
        <time>2021-12-12T09:08:41Z</time>
      </trkpt>
      <trkpt lat="48.89415" lon="1.9378">
        <ele>170.65</ele>
        <time>2021-12-12T09:08:59Z</time>
      </trkpt>
      <trkpt lat="48.89421" lon="1.93762">
        <ele>169.92</ele>
        <time>2021-12-12T09:09:14Z</time>
      </trkpt>
      <trkpt lat="48.89429" lon="1.93738">
        <ele>169.93</ele>
        <time>2021-12-12T09:09:31Z</time>
      </trkpt>
      <trkpt lat="48.89435" lon="1.93724">
        <ele>169.96</ele>
        <time>2021-12-12T09:09:42Z</time>
      </trkpt>
      <trkpt lat="48.8944" lon="1.93713">
        <ele>169.9</ele>
        <time>2021-12-12T09:09:50Z</time>
      </trkpt>
      <trkpt lat="48.89445" lon="1.93698">
        <ele>170.08</ele>
        <time>2021-12-12T09:10:01Z</time>
      </trkpt>
      <trkpt lat="48.89452" lon="1.9368">
        <ele>169.81</ele>
        <time>2021-12-12T09:10:15Z</time>
      </trkpt>
      <trkpt lat="48.89458" lon="1.93666">
        <ele>169.78</ele>
        <time>2021-12-12T09:10:26Z</time>
      </trkpt>
      <trkpt lat="48.89461" lon="1.93656">
        <ele>170.1</ele>
        <time>2021-12-12T09:10:41Z</time>
      </trkpt>
      <trkpt lat="48.89463" lon="1.93643">
        <ele>170.79</ele>
        <time>2021-12-12T09:11:03Z</time>
      </trkpt>
      <trkpt lat="48.89471" lon="1.93645">
        <ele>170.54</ele>
        <time>2021-12-12T09:11:17Z</time>
      </trkpt>
      <trkpt lat="48.89476" lon="1.93646">
        <ele>170.77</ele>
        <time>2021-12-12T09:11:23Z</time>
      </trkpt>
      <trkpt lat="48.89489" lon="1.93648">
        <ele>171.43</ele>
        <time>2021-12-12T09:11:39Z</time>
      </trkpt>
      <trkpt lat="48.89499" lon="1.93648">
        <ele>171.33</ele>
        <time>2021-12-12T09:11:52Z</time>
      </trkpt>
      <trkpt lat="48.89507" lon="1.93642">
        <ele>172.1</ele>
        <time>2021-12-12T09:12:03Z</time>
      </trkpt>
      <trkpt lat="48.89518" lon="1.93638">
        <ele>171.7</ele>
        <time>2021-12-12T09:12:17Z</time>
      </trkpt>
      <trkpt lat="48.89529" lon="1.93632">
        <ele>171.57</ele>
        <time>2021-12-12T09:12:28Z</time>
      </trkpt>
      <trkpt lat="48.89534" lon="1.93631">
        <ele>171.94</ele>
        <time>2021-12-12T09:12:34Z</time>
      </trkpt>
      <trkpt lat="48.89538" lon="1.93632">
        <ele>172.24</ele>
        <time>2021-12-12T09:12:37Z</time>
      </trkpt>
      <trkpt lat="48.8955" lon="1.93632">
        <ele>171.67</ele>
        <time>2021-12-12T09:12:49Z</time>
      </trkpt>
      <trkpt lat="48.89557" lon="1.9363">
        <ele>172.56</ele>
        <time>2021-12-12T09:12:59Z</time>
      </trkpt>
      <trkpt lat="48.89566" lon="1.93618">
        <ele>172.13</ele>
        <time>2021-12-12T09:13:09Z</time>
      </trkpt>
      <trkpt lat="48.89573" lon="1.93608">
        <ele>172.06</ele>
        <time>2021-12-12T09:13:19Z</time>
      </trkpt>
      <trkpt lat="48.8958" lon="1.93595">
        <ele>172.02</ele>
        <time>2021-12-12T09:13:29Z</time>
      </trkpt>
      <trkpt lat="48.89591" lon="1.93585">
        <ele>172.02</ele>
        <time>2021-12-12T09:13:41Z</time>
      </trkpt>
      <trkpt lat="48.89599" lon="1.93568">
        <ele>172.17</ele>
        <time>2021-12-12T09:13:54Z</time>
      </trkpt>
      <trkpt lat="48.89606" lon="1.93553">
        <ele>172.56</ele>
        <time>2021-12-12T09:14:06Z</time>
      </trkpt>
      <trkpt lat="48.89614" lon="1.93542">
        <ele>172.39</ele>
        <time>2021-12-12T09:14:17Z</time>
      </trkpt>
      <trkpt lat="48.89623" lon="1.93528">
        <ele>172.26</ele>
        <time>2021-12-12T09:14:28Z</time>
      </trkpt>
      <trkpt lat="48.89629" lon="1.93519">
        <ele>171.67</ele>
        <time>2021-12-12T09:14:34Z</time>
      </trkpt>
      <trkpt lat="48.89637" lon="1.93503">
        <ele>171.8</ele>
        <time>2021-12-12T09:14:45Z</time>
      </trkpt>
      <trkpt lat="48.89645" lon="1.93491">
        <ele>171.9</ele>
        <time>2021-12-12T09:14:55Z</time>
      </trkpt>
      <trkpt lat="48.89656" lon="1.93467">
        <ele>171.06</ele>
        <time>2021-12-12T09:15:12Z</time>
      </trkpt>
      <trkpt lat="48.8966" lon="1.93458">
        <ele>171.24</ele>
        <time>2021-12-12T09:15:18Z</time>
      </trkpt>
      <trkpt lat="48.8967" lon="1.93444">
        <ele>171.43</ele>
        <time>2021-12-12T09:15:31Z</time>
      </trkpt>
      <trkpt lat="48.89674" lon="1.93426">
        <ele>171.09</ele>
        <time>2021-12-12T09:15:44Z</time>
      </trkpt>
      <trkpt lat="48.89685" lon="1.93406">
        <ele>171.38</ele>
        <time>2021-12-12T09:15:59Z</time>
      </trkpt>
      <trkpt lat="48.89686" lon="1.93403">
        <ele>170.92</ele>
        <time>2021-12-12T09:16:00Z</time>
      </trkpt>
      <trkpt lat="48.89691" lon="1.93398">
        <ele>171.52</ele>
        <time>2021-12-12T09:16:04Z</time>
      </trkpt>
      <trkpt lat="48.89703" lon="1.93387">
        <ele>170.95</ele>
        <time>2021-12-12T09:16:13Z</time>
      </trkpt>
      <trkpt lat="48.89712" lon="1.93375">
        <ele>170.94</ele>
        <time>2021-12-12T09:16:24Z</time>
      </trkpt>
      <trkpt lat="48.89719" lon="1.93356">
        <ele>170.82</ele>
        <time>2021-12-12T09:16:36Z</time>
      </trkpt>
      <trkpt lat="48.89725" lon="1.93342">
        <ele>169.89</ele>
        <time>2021-12-12T09:16:48Z</time>
      </trkpt>
      <trkpt lat="48.89735" lon="1.93325">
        <ele>170.04</ele>
        <time>2021-12-12T09:17:00Z</time>
      </trkpt>
      <trkpt lat="48.89747" lon="1.93307">
        <ele>169.9</ele>
        <time>2021-12-12T09:17:15Z</time>
      </trkpt>
      <trkpt lat="48.89753" lon="1.93292">
        <ele>169.28</ele>
        <time>2021-12-12T09:17:28Z</time>
      </trkpt>
      <trkpt lat="48.89762" lon="1.93276">
        <ele>169.61</ele>
        <time>2021-12-12T09:17:39Z</time>
      </trkpt>
      <trkpt lat="48.89775" lon="1.93261">
        <ele>169</ele>
        <time>2021-12-12T09:17:50Z</time>
      </trkpt>
      <trkpt lat="48.89783" lon="1.93252">
        <ele>169.14</ele>
        <time>2021-12-12T09:17:59Z</time>
      </trkpt>
      <trkpt lat="48.89789" lon="1.93239">
        <ele>168.96</ele>
        <time>2021-12-12T09:18:10Z</time>
      </trkpt>
      <trkpt lat="48.8979" lon="1.9323">
        <ele>168.73</ele>
        <time>2021-12-12T09:18:16Z</time>
      </trkpt>
      <trkpt lat="48.89797" lon="1.93216">
        <ele>169.15</ele>
        <time>2021-12-12T09:18:26Z</time>
      </trkpt>
      <trkpt lat="48.89811" lon="1.93198">
        <ele>169.51</ele>
        <time>2021-12-12T09:18:40Z</time>
      </trkpt>
      <trkpt lat="48.89814" lon="1.93192">
        <ele>168.9</ele>
        <time>2021-12-12T09:18:58Z</time>
      </trkpt>
      <trkpt lat="48.89817" lon="1.93194">
        <ele>168.47</ele>
        <time>2021-12-12T09:19:18Z</time>
      </trkpt>
      <trkpt lat="48.89816" lon="1.93198">
        <ele>168.16</ele>
        <time>2021-12-12T09:19:29Z</time>
      </trkpt>
      <trkpt lat="48.89811" lon="1.93202">
        <ele>168.53</ele>
        <time>2021-12-12T09:19:49Z</time>
      </trkpt>
      <trkpt lat="48.8981" lon="1.93203">
        <ele>168.31</ele>
        <time>2021-12-12T09:20:07Z</time>
      </trkpt>
      <trkpt lat="48.89811" lon="1.93202">
        <ele>168.34</ele>
        <time>2021-12-12T09:20:34Z</time>
      </trkpt>
      <trkpt lat="48.89811" lon="1.932">
        <ele>167.48</ele>
        <time>2021-12-12T09:20:54Z</time>
      </trkpt>
      <trkpt lat="48.89812" lon="1.93195">
        <ele>167.37</ele>
        <time>2021-12-12T09:21:07Z</time>
      </trkpt>
      <trkpt lat="48.89816" lon="1.932">
        <ele>167.27</ele>
        <time>2021-12-12T09:21:27Z</time>
      </trkpt>
      <trkpt lat="48.89817" lon="1.93202">
        <ele>168</ele>
        <time>2021-12-12T09:21:43Z</time>
      </trkpt>
      <trkpt lat="48.89818" lon="1.93196">
        <ele>168.05</ele>
        <time>2021-12-12T09:22:01Z</time>
      </trkpt>
      <trkpt lat="48.89814" lon="1.93198">
        <ele>167.54</ele>
        <time>2021-12-12T09:22:18Z</time>
      </trkpt>
      <trkpt lat="48.89813" lon="1.93197">
        <ele>167.57</ele>
        <time>2021-12-12T09:22:47Z</time>
      </trkpt>
      <trkpt lat="48.89818" lon="1.93197">
        <ele>167.66</ele>
        <time>2021-12-12T09:23:09Z</time>
      </trkpt>
      <trkpt lat="48.8982" lon="1.93199">
        <ele>167.91</ele>
        <time>2021-12-12T09:23:27Z</time>
      </trkpt>
      <trkpt lat="48.89821" lon="1.93194">
        <ele>167.86</ele>
        <time>2021-12-12T09:23:47Z</time>
      </trkpt>
      <trkpt lat="48.8982" lon="1.93191">
        <ele>168.26</ele>
        <time>2021-12-12T09:24:04Z</time>
      </trkpt>
      <trkpt lat="48.8982" lon="1.93191">
        <ele>168.49</ele>
        <time>2021-12-12T09:24:23Z</time>
      </trkpt>
      <trkpt lat="48.8982" lon="1.93193">
        <ele>169.13</ele>
        <time>2021-12-12T09:24:46Z</time>
      </trkpt>
      <trkpt lat="48.8982" lon="1.93194">
        <ele>168.45</ele>
        <time>2021-12-12T09:25:05Z</time>
      </trkpt>
      <trkpt lat="48.89821" lon="1.93187">
        <ele>168.36</ele>
        <time>2021-12-12T09:25:19Z</time>
      </trkpt>
      <trkpt lat="48.89828" lon="1.93178">
        <ele>168.31</ele>
        <time>2021-12-12T09:25:24Z</time>
      </trkpt>
      <trkpt lat="48.89833" lon="1.93168">
        <ele>168.36</ele>
        <time>2021-12-12T09:25:30Z</time>
      </trkpt>
      <trkpt lat="48.89839" lon="1.93155">
        <ele>168.3</ele>
        <time>2021-12-12T09:25:43Z</time>
      </trkpt>
      <trkpt lat="48.89847" lon="1.93136">
        <ele>168.71</ele>
        <time>2021-12-12T09:25:57Z</time>
      </trkpt>
      <trkpt lat="48.89856" lon="1.9312">
        <ele>168.65</ele>
        <time>2021-12-12T09:26:10Z</time>
      </trkpt>
      <trkpt lat="48.89867" lon="1.93099">
        <ele>169.48</ele>
        <time>2021-12-12T09:26:26Z</time>
      </trkpt>
      <trkpt lat="48.89879" lon="1.93078">
        <ele>168.82</ele>
        <time>2021-12-12T09:26:42Z</time>
      </trkpt>
      <trkpt lat="48.89893" lon="1.93057">
        <ele>169.54</ele>
        <time>2021-12-12T09:26:59Z</time>
      </trkpt>
      <trkpt lat="48.89905" lon="1.93036">
        <ele>168.91</ele>
        <time>2021-12-12T09:27:16Z</time>
      </trkpt>
      <trkpt lat="48.89913" lon="1.93019">
        <ele>169.34</ele>
        <time>2021-12-12T09:27:30Z</time>
      </trkpt>
      <trkpt lat="48.89925" lon="1.93001">
        <ele>169.34</ele>
        <time>2021-12-12T09:27:44Z</time>
      </trkpt>
      <trkpt lat="48.89935" lon="1.92981">
        <ele>168.94</ele>
        <time>2021-12-12T09:28:00Z</time>
      </trkpt>
      <trkpt lat="48.89945" lon="1.9296">
        <ele>168.99</ele>
        <time>2021-12-12T09:28:15Z</time>
      </trkpt>
      <trkpt lat="48.8995" lon="1.92956">
        <ele>168.31</ele>
        <time>2021-12-12T09:28:28Z</time>
      </trkpt>
      <trkpt lat="48.89957" lon="1.9295">
        <ele>167.79</ele>
        <time>2021-12-12T09:28:42Z</time>
      </trkpt>
      <trkpt lat="48.89964" lon="1.92933">
        <ele>168.7</ele>
        <time>2021-12-12T09:28:59Z</time>
      </trkpt>
      <trkpt lat="48.89973" lon="1.9292">
        <ele>168.46</ele>
        <time>2021-12-12T09:29:12Z</time>
      </trkpt>
      <trkpt lat="48.89978" lon="1.92911">
        <ele>168.56</ele>
        <time>2021-12-12T09:29:29Z</time>
      </trkpt>
      <trkpt lat="48.89982" lon="1.92909">
        <ele>168.38</ele>
        <time>2021-12-12T09:29:39Z</time>
      </trkpt>
      <trkpt lat="48.89985" lon="1.92913">
        <ele>168.72</ele>
        <time>2021-12-12T09:29:52Z</time>
      </trkpt>
      <trkpt lat="48.8999" lon="1.92919">
        <ele>168.71</ele>
        <time>2021-12-12T09:30:04Z</time>
      </trkpt>
      <trkpt lat="48.89999" lon="1.92926">
        <ele>167.99</ele>
        <time>2021-12-12T09:30:19Z</time>
      </trkpt>
      <trkpt lat="48.90007" lon="1.92934">
        <ele>168.49</ele>
        <time>2021-12-12T09:30:30Z</time>
      </trkpt>
      <trkpt lat="48.9002" lon="1.92945">
        <ele>167.89</ele>
        <time>2021-12-12T09:30:45Z</time>
      </trkpt>
      <trkpt lat="48.90033" lon="1.92958">
        <ele>168.1</ele>
        <time>2021-12-12T09:31:00Z</time>
      </trkpt>
      <trkpt lat="48.90045" lon="1.92969">
        <ele>168.35</ele>
        <time>2021-12-12T09:31:16Z</time>
      </trkpt>
      <trkpt lat="48.90057" lon="1.92987">
        <ele>167.85</ele>
        <time>2021-12-12T09:31:33Z</time>
      </trkpt>
      <trkpt lat="48.90073" lon="1.93002">
        <ele>167.5</ele>
        <time>2021-12-12T09:31:47Z</time>
      </trkpt>
      <trkpt lat="48.90085" lon="1.93016">
        <ele>167.14</ele>
        <time>2021-12-12T09:32:03Z</time>
      </trkpt>
      <trkpt lat="48.90092" lon="1.93026">
        <ele>166.49</ele>
        <time>2021-12-12T09:32:12Z</time>
      </trkpt>
      <trkpt lat="48.90104" lon="1.93043">
        <ele>166.52</ele>
        <time>2021-12-12T09:32:28Z</time>
      </trkpt>
      <trkpt lat="48.90115" lon="1.93052">
        <ele>166.52</ele>
        <time>2021-12-12T09:32:44Z</time>
      </trkpt>
      <trkpt lat="48.90126" lon="1.93071">
        <ele>165.73</ele>
        <time>2021-12-12T09:33:01Z</time>
      </trkpt>
      <trkpt lat="48.90141" lon="1.93085">
        <ele>164.95</ele>
        <time>2021-12-12T09:33:19Z</time>
      </trkpt>
      <trkpt lat="48.90154" lon="1.93101">
        <ele>164.67</ele>
        <time>2021-12-12T09:33:32Z</time>
      </trkpt>
      <trkpt lat="48.90176" lon="1.93115">
        <ele>164.4</ele>
        <time>2021-12-12T09:33:49Z</time>
      </trkpt>
      <trkpt lat="48.90185" lon="1.93127">
        <ele>164.04</ele>
        <time>2021-12-12T09:34:03Z</time>
      </trkpt>
      <trkpt lat="48.90197" lon="1.93137">
        <ele>163.36</ele>
        <time>2021-12-12T09:34:19Z</time>
      </trkpt>
      <trkpt lat="48.90211" lon="1.93149">
        <ele>162.7</ele>
        <time>2021-12-12T09:34:32Z</time>
      </trkpt>
      <trkpt lat="48.90227" lon="1.93168">
        <ele>162.46</ele>
        <time>2021-12-12T09:34:47Z</time>
      </trkpt>
      <trkpt lat="48.90237" lon="1.93176">
        <ele>162.4</ele>
        <time>2021-12-12T09:34:54Z</time>
      </trkpt>
      <trkpt lat="48.90249" lon="1.93188">
        <ele>162.11</ele>
        <time>2021-12-12T09:35:05Z</time>
      </trkpt>
      <trkpt lat="48.90259" lon="1.93194">
        <ele>161.58</ele>
        <time>2021-12-12T09:35:14Z</time>
      </trkpt>
      <trkpt lat="48.90269" lon="1.93207">
        <ele>161.48</ele>
        <time>2021-12-12T09:35:28Z</time>
      </trkpt>
      <trkpt lat="48.90278" lon="1.93217">
        <ele>161.15</ele>
        <time>2021-12-12T09:35:40Z</time>
      </trkpt>
      <trkpt lat="48.90287" lon="1.93227">
        <ele>161.6</ele>
        <time>2021-12-12T09:35:52Z</time>
      </trkpt>
      <trkpt lat="48.90288" lon="1.93229">
        <ele>161.22</ele>
        <time>2021-12-12T09:36:06Z</time>
      </trkpt>
      <trkpt lat="48.90287" lon="1.93228">
        <ele>161.11</ele>
        <time>2021-12-12T09:36:24Z</time>
      </trkpt>
      <trkpt lat="48.90291" lon="1.9323">
        <ele>161.15</ele>
        <time>2021-12-12T09:36:42Z</time>
      </trkpt>
      <trkpt lat="48.90294" lon="1.93234">
        <ele>161.26</ele>
        <time>2021-12-12T09:36:50Z</time>
      </trkpt>
      <trkpt lat="48.90295" lon="1.93237">
        <ele>161.24</ele>
        <time>2021-12-12T09:36:52Z</time>
      </trkpt>
      <trkpt lat="48.90297" lon="1.9324">
        <ele>160.91</ele>
        <time>2021-12-12T09:36:55Z</time>
      </trkpt>
      <trkpt lat="48.90306" lon="1.93254">
        <ele>160.73</ele>
        <time>2021-12-12T09:37:08Z</time>
      </trkpt>
      <trkpt lat="48.90314" lon="1.93263">
        <ele>160.22</ele>
        <time>2021-12-12T09:37:19Z</time>
      </trkpt>
      <trkpt lat="48.90326" lon="1.93274">
        <ele>160.19</ele>
        <time>2021-12-12T09:37:32Z</time>
      </trkpt>
      <trkpt lat="48.90336" lon="1.93282">
        <ele>159.69</ele>
        <time>2021-12-12T09:37:43Z</time>
      </trkpt>
      <trkpt lat="48.90345" lon="1.9329">
        <ele>159.38</ele>
        <time>2021-12-12T09:37:53Z</time>
      </trkpt>
      <trkpt lat="48.90349" lon="1.93293">
        <ele>159.1</ele>
        <time>2021-12-12T09:37:58Z</time>
      </trkpt>
      <trkpt lat="48.90361" lon="1.93302">
        <ele>159.17</ele>
        <time>2021-12-12T09:38:11Z</time>
      </trkpt>
      <trkpt lat="48.90369" lon="1.9331">
        <ele>159.39</ele>
        <time>2021-12-12T09:38:21Z</time>
      </trkpt>
      <trkpt lat="48.9037" lon="1.9331">
        <ele>159.18</ele>
        <time>2021-12-12T09:38:22Z</time>
      </trkpt>
      <trkpt lat="48.90372" lon="1.93312">
        <ele>159.33</ele>
        <time>2021-12-12T09:38:25Z</time>
      </trkpt>
      <trkpt lat="48.90374" lon="1.93314">
        <ele>159.37</ele>
        <time>2021-12-12T09:38:27Z</time>
      </trkpt>
      <trkpt lat="48.90376" lon="1.93315">
        <ele>159.25</ele>
        <time>2021-12-12T09:38:29Z</time>
      </trkpt>
      <trkpt lat="48.90389" lon="1.93328">
        <ele>158.74</ele>
        <time>2021-12-12T09:38:43Z</time>
      </trkpt>
      <trkpt lat="48.90399" lon="1.93339">
        <ele>158.44</ele>
        <time>2021-12-12T09:38:54Z</time>
      </trkpt>
      <trkpt lat="48.9041" lon="1.93351">
        <ele>158.49</ele>
        <time>2021-12-12T09:39:06Z</time>
      </trkpt>
      <trkpt lat="48.90419" lon="1.93362">
        <ele>158.5</ele>
        <time>2021-12-12T09:39:18Z</time>
      </trkpt>
      <trkpt lat="48.90425" lon="1.93369">
        <ele>158.59</ele>
        <time>2021-12-12T09:39:27Z</time>
      </trkpt>
      <trkpt lat="48.90432" lon="1.93379">
        <ele>158.71</ele>
        <time>2021-12-12T09:39:39Z</time>
      </trkpt>
      <trkpt lat="48.90435" lon="1.93382">
        <ele>158.52</ele>
        <time>2021-12-12T09:39:42Z</time>
      </trkpt>
      <trkpt lat="48.90442" lon="1.9339">
        <ele>158.35</ele>
        <time>2021-12-12T09:39:51Z</time>
      </trkpt>
      <trkpt lat="48.90445" lon="1.93397">
        <ele>158.28</ele>
        <time>2021-12-12T09:39:58Z</time>
      </trkpt>
      <trkpt lat="48.90447" lon="1.934">
        <ele>158.16</ele>
        <time>2021-12-12T09:40:00Z</time>
      </trkpt>
      <trkpt lat="48.90452" lon="1.93411">
        <ele>158.68</ele>
        <time>2021-12-12T09:40:12Z</time>
      </trkpt>
      <trkpt lat="48.90456" lon="1.93415">
        <ele>158.74</ele>
        <time>2021-12-12T09:40:26Z</time>
      </trkpt>
      <trkpt lat="48.90455" lon="1.93422">
        <ele>158.97</ele>
        <time>2021-12-12T09:40:36Z</time>
      </trkpt>
      <trkpt lat="48.90453" lon="1.93426">
        <ele>158.92</ele>
        <time>2021-12-12T09:40:46Z</time>
      </trkpt>
      <trkpt lat="48.90456" lon="1.93427">
        <ele>158.72</ele>
        <time>2021-12-12T09:40:50Z</time>
      </trkpt>
      <trkpt lat="48.90462" lon="1.93435">
        <ele>159.11</ele>
        <time>2021-12-12T09:41:02Z</time>
      </trkpt>
      <trkpt lat="48.90464" lon="1.93453">
        <ele>159.02</ele>
        <time>2021-12-12T09:41:16Z</time>
      </trkpt>
      <trkpt lat="48.90463" lon="1.93466">
        <ele>158.72</ele>
        <time>2021-12-12T09:41:26Z</time>
      </trkpt>
      <trkpt lat="48.90463" lon="1.9348">
        <ele>158.45</ele>
        <time>2021-12-12T09:41:35Z</time>
      </trkpt>
      <trkpt lat="48.90464" lon="1.93481">
        <ele>158.59</ele>
        <time>2021-12-12T09:41:36Z</time>
      </trkpt>
      <trkpt lat="48.90468" lon="1.93499">
        <ele>158.78</ele>
        <time>2021-12-12T09:41:48Z</time>
      </trkpt>
      <trkpt lat="48.90474" lon="1.93516">
        <ele>158.92</ele>
        <time>2021-12-12T09:42:02Z</time>
      </trkpt>
      <trkpt lat="48.90481" lon="1.93536">
        <ele>159.34</ele>
        <time>2021-12-12T09:42:16Z</time>
      </trkpt>
      <trkpt lat="48.90485" lon="1.93546">
        <ele>159.43</ele>
        <time>2021-12-12T09:42:24Z</time>
      </trkpt>
      <trkpt lat="48.90496" lon="1.93562">
        <ele>159.3</ele>
        <time>2021-12-12T09:42:37Z</time>
      </trkpt>
      <trkpt lat="48.90501" lon="1.93566">
        <ele>159.02</ele>
        <time>2021-12-12T09:42:42Z</time>
      </trkpt>
      <trkpt lat="48.90507" lon="1.9357">
        <ele>159.47</ele>
        <time>2021-12-12T09:42:47Z</time>
      </trkpt>
      <trkpt lat="48.90519" lon="1.93581">
        <ele>159.71</ele>
        <time>2021-12-12T09:43:00Z</time>
      </trkpt>
      <trkpt lat="48.90529" lon="1.93591">
        <ele>159.84</ele>
        <time>2021-12-12T09:43:16Z</time>
      </trkpt>
      <trkpt lat="48.90542" lon="1.93601">
        <ele>159.51</ele>
        <time>2021-12-12T09:43:33Z</time>
      </trkpt>
      <trkpt lat="48.90551" lon="1.93611">
        <ele>159.66</ele>
        <time>2021-12-12T09:43:48Z</time>
      </trkpt>
      <trkpt lat="48.90563" lon="1.93621">
        <ele>158.97</ele>
        <time>2021-12-12T09:44:05Z</time>
      </trkpt>
      <trkpt lat="48.90581" lon="1.93636">
        <ele>158.12</ele>
        <time>2021-12-12T09:44:22Z</time>
      </trkpt>
      <trkpt lat="48.90592" lon="1.93649">
        <ele>157.2</ele>
        <time>2021-12-12T09:44:35Z</time>
      </trkpt>
      <trkpt lat="48.90603" lon="1.93665">
        <ele>156.54</ele>
        <time>2021-12-12T09:44:51Z</time>
      </trkpt>
      <trkpt lat="48.90611" lon="1.9368">
        <ele>156.34</ele>
        <time>2021-12-12T09:45:07Z</time>
      </trkpt>
      <trkpt lat="48.90631" lon="1.93701">
        <ele>155.63</ele>
        <time>2021-12-12T09:45:23Z</time>
      </trkpt>
      <trkpt lat="48.90639" lon="1.93711">
        <ele>154.94</ele>
        <time>2021-12-12T09:45:31Z</time>
      </trkpt>
      <trkpt lat="48.90644" lon="1.93716">
        <ele>155.01</ele>
        <time>2021-12-12T09:45:36Z</time>
      </trkpt>
      <trkpt lat="48.9065" lon="1.9373">
        <ele>155.28</ele>
        <time>2021-12-12T09:45:51Z</time>
      </trkpt>
      <trkpt lat="48.90656" lon="1.93744">
        <ele>154.95</ele>
        <time>2021-12-12T09:46:10Z</time>
      </trkpt>
      <trkpt lat="48.90668" lon="1.93758">
        <ele>155.59</ele>
        <time>2021-12-12T09:46:26Z</time>
      </trkpt>
      <trkpt lat="48.9068" lon="1.93773">
        <ele>155.94</ele>
        <time>2021-12-12T09:46:41Z</time>
      </trkpt>
      <trkpt lat="48.90686" lon="1.93791">
        <ele>156.08</ele>
        <time>2021-12-12T09:46:56Z</time>
      </trkpt>
      <trkpt lat="48.90695" lon="1.93808">
        <ele>156.36</ele>
        <time>2021-12-12T09:47:12Z</time>
      </trkpt>
      <trkpt lat="48.90705" lon="1.93827">
        <ele>156.63</ele>
        <time>2021-12-12T09:47:29Z</time>
      </trkpt>
      <trkpt lat="48.90708" lon="1.93834">
        <ele>156.94</ele>
        <time>2021-12-12T09:47:34Z</time>
      </trkpt>
      <trkpt lat="48.90722" lon="1.93856">
        <ele>157.09</ele>
        <time>2021-12-12T09:47:51Z</time>
      </trkpt>
      <trkpt lat="48.90729" lon="1.93869">
        <ele>156.95</ele>
        <time>2021-12-12T09:48:02Z</time>
      </trkpt>
      <trkpt lat="48.90732" lon="1.93876">
        <ele>156.82</ele>
        <time>2021-12-12T09:48:07Z</time>
      </trkpt>
      <trkpt lat="48.90742" lon="1.93892">
        <ele>156.36</ele>
        <time>2021-12-12T09:48:19Z</time>
      </trkpt>
      <trkpt lat="48.90749" lon="1.9391">
        <ele>155.91</ele>
        <time>2021-12-12T09:48:31Z</time>
      </trkpt>
      <trkpt lat="48.90751" lon="1.93914">
        <ele>156.19</ele>
        <time>2021-12-12T09:48:34Z</time>
      </trkpt>
      <trkpt lat="48.90755" lon="1.93931">
        <ele>155.85</ele>
        <time>2021-12-12T09:48:45Z</time>
      </trkpt>
      <trkpt lat="48.90758" lon="1.9395">
        <ele>155.57</ele>
        <time>2021-12-12T09:48:58Z</time>
      </trkpt>
      <trkpt lat="48.90762" lon="1.93966">
        <ele>155.94</ele>
        <time>2021-12-12T09:49:09Z</time>
      </trkpt>
      <trkpt lat="48.90765" lon="1.93982">
        <ele>155.34</ele>
        <time>2021-12-12T09:49:21Z</time>
      </trkpt>
      <trkpt lat="48.90769" lon="1.94001">
        <ele>155.2</ele>
        <time>2021-12-12T09:49:34Z</time>
      </trkpt>
      <trkpt lat="48.90773" lon="1.9402">
        <ele>155.31</ele>
        <time>2021-12-12T09:49:46Z</time>
      </trkpt>
      <trkpt lat="48.90776" lon="1.94038">
        <ele>155.63</ele>
        <time>2021-12-12T09:49:58Z</time>
      </trkpt>
      <trkpt lat="48.9078" lon="1.94051">
        <ele>155.31</ele>
        <time>2021-12-12T09:50:08Z</time>
      </trkpt>
      <trkpt lat="48.90784" lon="1.94068">
        <ele>155.55</ele>
        <time>2021-12-12T09:50:21Z</time>
      </trkpt>
      <trkpt lat="48.90789" lon="1.94089">
        <ele>154.86</ele>
        <time>2021-12-12T09:50:35Z</time>
      </trkpt>
      <trkpt lat="48.90794" lon="1.94107">
        <ele>154.85</ele>
        <time>2021-12-12T09:50:50Z</time>
      </trkpt>
      <trkpt lat="48.90802" lon="1.94122">
        <ele>154.77</ele>
        <time>2021-12-12T09:51:02Z</time>
      </trkpt>
      <trkpt lat="48.90807" lon="1.94143">
        <ele>155.34</ele>
        <time>2021-12-12T09:51:18Z</time>
      </trkpt>
      <trkpt lat="48.90815" lon="1.94165">
        <ele>155.35</ele>
        <time>2021-12-12T09:51:33Z</time>
      </trkpt>
      <trkpt lat="48.9082" lon="1.94182">
        <ele>155.4</ele>
        <time>2021-12-12T09:51:45Z</time>
      </trkpt>
      <trkpt lat="48.90824" lon="1.94187">
        <ele>154.43</ele>
        <time>2021-12-12T09:52:03Z</time>
      </trkpt>
      <trkpt lat="48.90827" lon="1.94189">
        <ele>154.62</ele>
        <time>2021-12-12T09:52:22Z</time>
      </trkpt>
      <trkpt lat="48.90828" lon="1.94197">
        <ele>154.01</ele>
        <time>2021-12-12T09:52:37Z</time>
      </trkpt>
      <trkpt lat="48.90828" lon="1.94214">
        <ele>153.83</ele>
        <time>2021-12-12T09:52:53Z</time>
      </trkpt>
      <trkpt lat="48.90826" lon="1.94239">
        <ele>154.41</ele>
        <time>2021-12-12T09:53:10Z</time>
      </trkpt>
      <trkpt lat="48.90825" lon="1.9426">
        <ele>154.57</ele>
        <time>2021-12-12T09:53:25Z</time>
      </trkpt>
      <trkpt lat="48.90825" lon="1.94274">
        <ele>154.75</ele>
        <time>2021-12-12T09:53:36Z</time>
      </trkpt>
      <trkpt lat="48.9083" lon="1.94293">
        <ele>154.93</ele>
        <time>2021-12-12T09:53:51Z</time>
      </trkpt>
      <trkpt lat="48.90835" lon="1.94311">
        <ele>155.42</ele>
        <time>2021-12-12T09:54:05Z</time>
      </trkpt>
      <trkpt lat="48.90841" lon="1.94338">
        <ele>155.48</ele>
        <time>2021-12-12T09:54:22Z</time>
      </trkpt>
      <trkpt lat="48.90843" lon="1.94356">
        <ele>155.89</ele>
        <time>2021-12-12T09:54:37Z</time>
      </trkpt>
      <trkpt lat="48.90843" lon="1.94359">
        <ele>155.91</ele>
        <time>2021-12-12T09:54:41Z</time>
      </trkpt>
      <trkpt lat="48.90846" lon="1.94371">
        <ele>155.93</ele>
        <time>2021-12-12T09:54:54Z</time>
      </trkpt>
      <trkpt lat="48.90846" lon="1.94377">
        <ele>155.63</ele>
        <time>2021-12-12T09:55:09Z</time>
      </trkpt>
      <trkpt lat="48.90836" lon="1.94383">
        <ele>155.7</ele>
        <time>2021-12-12T09:55:24Z</time>
      </trkpt>
      <trkpt lat="48.90821" lon="1.94383">
        <ele>153.53</ele>
        <time>2021-12-12T09:55:42Z</time>
      </trkpt>
      <trkpt lat="48.9082" lon="1.94384">
        <ele>153.75</ele>
        <time>2021-12-12T09:55:45Z</time>
      </trkpt>
      <trkpt lat="48.90814" lon="1.94407">
        <ele>151.74</ele>
        <time>2021-12-12T09:56:03Z</time>
      </trkpt>
      <trkpt lat="48.90816" lon="1.94412">
        <ele>150.68</ele>
        <time>2021-12-12T09:56:09Z</time>
      </trkpt>
      <trkpt lat="48.90816" lon="1.94426">
        <ele>149.44</ele>
        <time>2021-12-12T09:56:22Z</time>
      </trkpt>
      <trkpt lat="48.90814" lon="1.94437">
        <ele>148.9</ele>
        <time>2021-12-12T09:56:30Z</time>
      </trkpt>
      <trkpt lat="48.90811" lon="1.94454">
        <ele>145.97</ele>
        <time>2021-12-12T09:56:49Z</time>
      </trkpt>
      <trkpt lat="48.90812" lon="1.94458">
        <ele>145.46</ele>
        <time>2021-12-12T09:56:53Z</time>
      </trkpt>
      <trkpt lat="48.90812" lon="1.94468">
        <ele>144.78</ele>
        <time>2021-12-12T09:57:03Z</time>
      </trkpt>
      <trkpt lat="48.90809" lon="1.9448">
        <ele>143.07</ele>
        <time>2021-12-12T09:57:18Z</time>
      </trkpt>
      <trkpt lat="48.90805" lon="1.94497">
        <ele>141.65</ele>
        <time>2021-12-12T09:57:33Z</time>
      </trkpt>
      <trkpt lat="48.90798" lon="1.94513">
        <ele>139.09</ele>
        <time>2021-12-12T09:57:52Z</time>
      </trkpt>
      <trkpt lat="48.90796" lon="1.94516">
        <ele>138.13</ele>
        <time>2021-12-12T09:57:56Z</time>
      </trkpt>
      <trkpt lat="48.90784" lon="1.94538">
        <ele>136.54</ele>
        <time>2021-12-12T09:58:14Z</time>
      </trkpt>
      <trkpt lat="48.90782" lon="1.94544">
        <ele>136.01</ele>
        <time>2021-12-12T09:58:17Z</time>
      </trkpt>
      <trkpt lat="48.90779" lon="1.94554">
        <ele>134.84</ele>
        <time>2021-12-12T09:58:30Z</time>
      </trkpt>
      <trkpt lat="48.90772" lon="1.94565">
        <ele>133.59</ele>
        <time>2021-12-12T09:58:41Z</time>
      </trkpt>
      <trkpt lat="48.90766" lon="1.94576">
        <ele>133.26</ele>
        <time>2021-12-12T09:58:58Z</time>
      </trkpt>
      <trkpt lat="48.90761" lon="1.94585">
        <ele>131.37</ele>
        <time>2021-12-12T09:59:09Z</time>
      </trkpt>
      <trkpt lat="48.90753" lon="1.94595">
        <ele>130.59</ele>
        <time>2021-12-12T09:59:24Z</time>
      </trkpt>
      <trkpt lat="48.90748" lon="1.94607">
        <ele>130.85</ele>
        <time>2021-12-12T09:59:43Z</time>
      </trkpt>
      <trkpt lat="48.90742" lon="1.94613">
        <ele>130.9</ele>
        <time>2021-12-12T10:00:02Z</time>
      </trkpt>
      <trkpt lat="48.90742" lon="1.94619">
        <ele>130.92</ele>
        <time>2021-12-12T10:00:19Z</time>
      </trkpt>
      <trkpt lat="48.90742" lon="1.94632">
        <ele>130.82</ele>
        <time>2021-12-12T10:00:34Z</time>
      </trkpt>
      <trkpt lat="48.90746" lon="1.94643">
        <ele>131.16</ele>
        <time>2021-12-12T10:00:50Z</time>
      </trkpt>
      <trkpt lat="48.90747" lon="1.94656">
        <ele>131.75</ele>
        <time>2021-12-12T10:01:05Z</time>
      </trkpt>
      <trkpt lat="48.90751" lon="1.94678">
        <ele>131.74</ele>
        <time>2021-12-12T10:01:22Z</time>
      </trkpt>
      <trkpt lat="48.90752" lon="1.9469">
        <ele>132.1</ele>
        <time>2021-12-12T10:01:33Z</time>
      </trkpt>
      <trkpt lat="48.90751" lon="1.94692">
        <ele>132.63</ele>
        <time>2021-12-12T10:01:37Z</time>
      </trkpt>
      <trkpt lat="48.90765" lon="1.94702">
        <ele>133.99</ele>
        <time>2021-12-12T10:01:53Z</time>
      </trkpt>
      <trkpt lat="48.90773" lon="1.94704">
        <ele>133.79</ele>
        <time>2021-12-12T10:02:07Z</time>
      </trkpt>
      <trkpt lat="48.90773" lon="1.94705">
        <ele>133.27</ele>
        <time>2021-12-12T10:02:09Z</time>
      </trkpt>
      <trkpt lat="48.9078" lon="1.94712">
        <ele>132.43</ele>
        <time>2021-12-12T10:02:25Z</time>
      </trkpt>
      <trkpt lat="48.90786" lon="1.94721">
        <ele>133.85</ele>
        <time>2021-12-12T10:02:39Z</time>
      </trkpt>
      <trkpt lat="48.90787" lon="1.94727">
        <ele>134.05</ele>
        <time>2021-12-12T10:02:47Z</time>
      </trkpt>
      <trkpt lat="48.90793" lon="1.94741">
        <ele>134.11</ele>
        <time>2021-12-12T10:03:06Z</time>
      </trkpt>
      <trkpt lat="48.90799" lon="1.94758">
        <ele>132.74</ele>
        <time>2021-12-12T10:03:24Z</time>
      </trkpt>
      <trkpt lat="48.90811" lon="1.94782">
        <ele>131.7</ele>
        <time>2021-12-12T10:03:41Z</time>
      </trkpt>
      <trkpt lat="48.90817" lon="1.94803">
        <ele>131.58</ele>
        <time>2021-12-12T10:03:56Z</time>
      </trkpt>
      <trkpt lat="48.90818" lon="1.94805">
        <ele>131.38</ele>
        <time>2021-12-12T10:03:58Z</time>
      </trkpt>
      <trkpt lat="48.90828" lon="1.94827">
        <ele>130.79</ele>
        <time>2021-12-12T10:04:17Z</time>
      </trkpt>
      <trkpt lat="48.9084" lon="1.94846">
        <ele>130.61</ele>
        <time>2021-12-12T10:04:34Z</time>
      </trkpt>
      <trkpt lat="48.90843" lon="1.94855">
        <ele>130</ele>
        <time>2021-12-12T10:04:43Z</time>
      </trkpt>
      <trkpt lat="48.90843" lon="1.94857">
        <ele>130.13</ele>
        <time>2021-12-12T10:04:45Z</time>
      </trkpt>
      <trkpt lat="48.90847" lon="1.94871">
        <ele>129.5</ele>
        <time>2021-12-12T10:05:04Z</time>
      </trkpt>
      <trkpt lat="48.9085" lon="1.94886">
        <ele>129.74</ele>
        <time>2021-12-12T10:05:18Z</time>
      </trkpt>
      <trkpt lat="48.9085" lon="1.9489">
        <ele>129.37</ele>
        <time>2021-12-12T10:05:22Z</time>
      </trkpt>
      <trkpt lat="48.90856" lon="1.94907">
        <ele>130.33</ele>
        <time>2021-12-12T10:05:38Z</time>
      </trkpt>
      <trkpt lat="48.90862" lon="1.9492">
        <ele>129.39</ele>
        <time>2021-12-12T10:05:53Z</time>
      </trkpt>
      <trkpt lat="48.90871" lon="1.94934">
        <ele>129.8</ele>
        <time>2021-12-12T10:06:09Z</time>
      </trkpt>
      <trkpt lat="48.90878" lon="1.9495">
        <ele>128.71</ele>
        <time>2021-12-12T10:06:27Z</time>
      </trkpt>
      <trkpt lat="48.90887" lon="1.94965">
        <ele>128.35</ele>
        <time>2021-12-12T10:06:43Z</time>
      </trkpt>
      <trkpt lat="48.90896" lon="1.94987">
        <ele>128.46</ele>
        <time>2021-12-12T10:06:59Z</time>
      </trkpt>
      <trkpt lat="48.909" lon="1.95012">
        <ele>127.75</ele>
        <time>2021-12-12T10:07:18Z</time>
      </trkpt>
      <trkpt lat="48.90905" lon="1.95029">
        <ele>127.68</ele>
        <time>2021-12-12T10:07:33Z</time>
      </trkpt>
      <trkpt lat="48.90906" lon="1.9505">
        <ele>127.24</ele>
        <time>2021-12-12T10:07:46Z</time>
      </trkpt>
      <trkpt lat="48.90909" lon="1.95076">
        <ele>127.43</ele>
        <time>2021-12-12T10:08:01Z</time>
      </trkpt>
      <trkpt lat="48.90915" lon="1.95098">
        <ele>126.95</ele>
        <time>2021-12-12T10:08:18Z</time>
      </trkpt>
      <trkpt lat="48.90918" lon="1.95115">
        <ele>126.12</ele>
        <time>2021-12-12T10:08:32Z</time>
      </trkpt>
      <trkpt lat="48.9092" lon="1.95139">
        <ele>126.07</ele>
        <time>2021-12-12T10:08:47Z</time>
      </trkpt>
      <trkpt lat="48.90927" lon="1.95158">
        <ele>125.96</ele>
        <time>2021-12-12T10:09:01Z</time>
      </trkpt>
      <trkpt lat="48.90932" lon="1.95179">
        <ele>125.45</ele>
        <time>2021-12-12T10:09:16Z</time>
      </trkpt>
      <trkpt lat="48.9094" lon="1.95195">
        <ele>124.92</ele>
        <time>2021-12-12T10:09:30Z</time>
      </trkpt>
      <trkpt lat="48.90949" lon="1.95205">
        <ele>124.43</ele>
        <time>2021-12-12T10:09:37Z</time>
      </trkpt>
      <trkpt lat="48.90953" lon="1.95223">
        <ele>124.04</ele>
        <time>2021-12-12T10:09:50Z</time>
      </trkpt>
      <trkpt lat="48.90961" lon="1.95235">
        <ele>123.58</ele>
        <time>2021-12-12T10:10:05Z</time>
      </trkpt>
      <trkpt lat="48.90968" lon="1.95251">
        <ele>123.09</ele>
        <time>2021-12-12T10:10:22Z</time>
      </trkpt>
      <trkpt lat="48.90977" lon="1.95272">
        <ele>122.96</ele>
        <time>2021-12-12T10:10:37Z</time>
      </trkpt>
      <trkpt lat="48.90989" lon="1.9529">
        <ele>123.07</ele>
        <time>2021-12-12T10:10:52Z</time>
      </trkpt>
      <trkpt lat="48.91001" lon="1.95303">
        <ele>122.39</ele>
        <time>2021-12-12T10:11:05Z</time>
      </trkpt>
      <trkpt lat="48.91013" lon="1.95315">
        <ele>122.19</ele>
        <time>2021-12-12T10:11:20Z</time>
      </trkpt>
      <trkpt lat="48.91013" lon="1.95316">
        <ele>122.41</ele>
        <time>2021-12-12T10:11:21Z</time>
      </trkpt>
      <trkpt lat="48.91024" lon="1.95329">
        <ele>122.04</ele>
        <time>2021-12-12T10:11:38Z</time>
      </trkpt>
      <trkpt lat="48.91025" lon="1.95337">
        <ele>121.86</ele>
        <time>2021-12-12T10:11:57Z</time>
      </trkpt>
      <trkpt lat="48.91026" lon="1.95339">
        <ele>121.79</ele>
        <time>2021-12-12T10:12:06Z</time>
      </trkpt>
      <trkpt lat="48.91025" lon="1.95342">
        <ele>121.86</ele>
        <time>2021-12-12T10:12:26Z</time>
      </trkpt>
      <trkpt lat="48.91025" lon="1.95347">
        <ele>121.37</ele>
        <time>2021-12-12T10:12:50Z</time>
      </trkpt>
      <trkpt lat="48.91026" lon="1.95354">
        <ele>121.85</ele>
        <time>2021-12-12T10:13:11Z</time>
      </trkpt>
      <trkpt lat="48.91029" lon="1.9535">
        <ele>121.75</ele>
        <time>2021-12-12T10:13:32Z</time>
      </trkpt>
      <trkpt lat="48.91028" lon="1.9535">
        <ele>122.1</ele>
        <time>2021-12-12T10:13:51Z</time>
      </trkpt>
      <trkpt lat="48.91029" lon="1.9535">
        <ele>122.36</ele>
        <time>2021-12-12T10:14:12Z</time>
      </trkpt>
      <trkpt lat="48.91032" lon="1.95354">
        <ele>122.03</ele>
        <time>2021-12-12T10:14:27Z</time>
      </trkpt>
      <trkpt lat="48.91031" lon="1.95367">
        <ele>121.47</ele>
        <time>2021-12-12T10:14:43Z</time>
      </trkpt>
      <trkpt lat="48.91028" lon="1.95379">
        <ele>121.41</ele>
        <time>2021-12-12T10:14:58Z</time>
      </trkpt>
      <trkpt lat="48.91026" lon="1.95393">
        <ele>121.29</ele>
        <time>2021-12-12T10:15:13Z</time>
      </trkpt>
      <trkpt lat="48.91012" lon="1.95414">
        <ele>121.66</ele>
        <time>2021-12-12T10:15:27Z</time>
      </trkpt>
      <trkpt lat="48.91004" lon="1.95421">
        <ele>121.64</ele>
        <time>2021-12-12T10:15:42Z</time>
      </trkpt>
      <trkpt lat="48.91" lon="1.95437">
        <ele>122.32</ele>
        <time>2021-12-12T10:15:56Z</time>
      </trkpt>
      <trkpt lat="48.90997" lon="1.95454">
        <ele>122.91</ele>
        <time>2021-12-12T10:16:11Z</time>
      </trkpt>
      <trkpt lat="48.91001" lon="1.95468">
        <ele>122.48</ele>
        <time>2021-12-12T10:16:25Z</time>
      </trkpt>
      <trkpt lat="48.91003" lon="1.95478">
        <ele>122.46</ele>
        <time>2021-12-12T10:16:39Z</time>
      </trkpt>
      <trkpt lat="48.90996" lon="1.95489">
        <ele>122.7</ele>
        <time>2021-12-12T10:16:52Z</time>
      </trkpt>
      <trkpt lat="48.90989" lon="1.9549">
        <ele>122.64</ele>
        <time>2021-12-12T10:17:14Z</time>
      </trkpt>
      <trkpt lat="48.90991" lon="1.95489">
        <ele>122.88</ele>
        <time>2021-12-12T10:17:33Z</time>
      </trkpt>
      <trkpt lat="48.90991" lon="1.95488">
        <ele>122.65</ele>
        <time>2021-12-12T10:17:55Z</time>
      </trkpt>
      <trkpt lat="48.90992" lon="1.95489">
        <ele>122.67</ele>
        <time>2021-12-12T10:18:16Z</time>
      </trkpt>
      <trkpt lat="48.90991" lon="1.95491">
        <ele>123.02</ele>
        <time>2021-12-12T10:18:38Z</time>
      </trkpt>
      <trkpt lat="48.90991" lon="1.9549">
        <ele>123.6</ele>
        <time>2021-12-12T10:18:57Z</time>
      </trkpt>
      <trkpt lat="48.90991" lon="1.95488">
        <ele>123.35</ele>
        <time>2021-12-12T10:19:20Z</time>
      </trkpt>
      <trkpt lat="48.90991" lon="1.95487">
        <ele>123.28</ele>
        <time>2021-12-12T10:19:40Z</time>
      </trkpt>
      <trkpt lat="48.90992" lon="1.95488">
        <ele>123.2</ele>
        <time>2021-12-12T10:19:58Z</time>
      </trkpt>
      <trkpt lat="48.9099" lon="1.95487">
        <ele>123.93</ele>
        <time>2021-12-12T10:20:15Z</time>
      </trkpt>
      <trkpt lat="48.90989" lon="1.95487">
        <ele>124.16</ele>
        <time>2021-12-12T10:20:35Z</time>
      </trkpt>
      <trkpt lat="48.90989" lon="1.95487">
        <ele>123.86</ele>
        <time>2021-12-12T10:20:53Z</time>
      </trkpt>
      <trkpt lat="48.90987" lon="1.95487">
        <ele>123.94</ele>
        <time>2021-12-12T10:21:12Z</time>
      </trkpt>
      <trkpt lat="48.90988" lon="1.95487">
        <ele>124.01</ele>
        <time>2021-12-12T10:21:31Z</time>
      </trkpt>
      <trkpt lat="48.90989" lon="1.95486">
        <ele>123.77</ele>
        <time>2021-12-12T10:21:48Z</time>
      </trkpt>
      <trkpt lat="48.9098" lon="1.95487">
        <ele>124.31</ele>
        <time>2021-12-12T10:22:03Z</time>
      </trkpt>
      <trkpt lat="48.90971" lon="1.95494">
        <ele>124.5</ele>
        <time>2021-12-12T10:22:18Z</time>
      </trkpt>
      <trkpt lat="48.90967" lon="1.95497">
        <ele>124.46</ele>
        <time>2021-12-12T10:22:33Z</time>
      </trkpt>
      <trkpt lat="48.90959" lon="1.955">
        <ele>124.32</ele>
        <time>2021-12-12T10:22:46Z</time>
      </trkpt>
      <trkpt lat="48.90946" lon="1.95509">
        <ele>125.4</ele>
        <time>2021-12-12T10:23:01Z</time>
      </trkpt>
      <trkpt lat="48.90935" lon="1.95518">
        <ele>126.51</ele>
        <time>2021-12-12T10:23:16Z</time>
      </trkpt>
      <trkpt lat="48.90925" lon="1.95526">
        <ele>127.21</ele>
        <time>2021-12-12T10:23:32Z</time>
      </trkpt>
      <trkpt lat="48.90915" lon="1.95537">
        <ele>129.24</ele>
        <time>2021-12-12T10:23:45Z</time>
      </trkpt>
      <trkpt lat="48.90898" lon="1.9555">
        <ele>130.76</ele>
        <time>2021-12-12T10:24:01Z</time>
      </trkpt>
      <trkpt lat="48.90887" lon="1.95562">
        <ele>131.78</ele>
        <time>2021-12-12T10:24:15Z</time>
      </trkpt>
      <trkpt lat="48.90884" lon="1.95568">
        <ele>132.53</ele>
        <time>2021-12-12T10:24:23Z</time>
      </trkpt>
      <trkpt lat="48.90866" lon="1.9558">
        <ele>133.68</ele>
        <time>2021-12-12T10:24:39Z</time>
      </trkpt>
      <trkpt lat="48.90854" lon="1.95585">
        <ele>134.98</ele>
        <time>2021-12-12T10:24:53Z</time>
      </trkpt>
      <trkpt lat="48.90836" lon="1.95585">
        <ele>136.67</ele>
        <time>2021-12-12T10:25:11Z</time>
      </trkpt>
      <trkpt lat="48.9082" lon="1.95579">
        <ele>138.26</ele>
        <time>2021-12-12T10:25:28Z</time>
      </trkpt>
      <trkpt lat="48.90804" lon="1.95577">
        <ele>140.17</ele>
        <time>2021-12-12T10:25:43Z</time>
      </trkpt>
      <trkpt lat="48.90797" lon="1.95574">
        <ele>140.31</ele>
        <time>2021-12-12T10:25:51Z</time>
      </trkpt>
      <trkpt lat="48.9078" lon="1.95568">
        <ele>142.14</ele>
        <time>2021-12-12T10:26:08Z</time>
      </trkpt>
      <trkpt lat="48.90769" lon="1.95561">
        <ele>143.17</ele>
        <time>2021-12-12T10:26:18Z</time>
      </trkpt>
      <trkpt lat="48.9076" lon="1.95551">
        <ele>144.41</ele>
        <time>2021-12-12T10:26:31Z</time>
      </trkpt>
      <trkpt lat="48.90746" lon="1.95546">
        <ele>146.38</ele>
        <time>2021-12-12T10:26:46Z</time>
      </trkpt>
      <trkpt lat="48.90733" lon="1.95538">
        <ele>148.03</ele>
        <time>2021-12-12T10:26:58Z</time>
      </trkpt>
      <trkpt lat="48.90725" lon="1.95533">
        <ele>149.21</ele>
        <time>2021-12-12T10:27:08Z</time>
      </trkpt>
      <trkpt lat="48.90711" lon="1.95527">
        <ele>150.3</ele>
        <time>2021-12-12T10:27:21Z</time>
      </trkpt>
      <trkpt lat="48.90693" lon="1.95523">
        <ele>152.1</ele>
        <time>2021-12-12T10:27:38Z</time>
      </trkpt>
      <trkpt lat="48.90675" lon="1.95523">
        <ele>153.36</ele>
        <time>2021-12-12T10:27:56Z</time>
      </trkpt>
      <trkpt lat="48.90671" lon="1.95522">
        <ele>153.86</ele>
        <time>2021-12-12T10:28:00Z</time>
      </trkpt>
      <trkpt lat="48.90656" lon="1.95514">
        <ele>154.95</ele>
        <time>2021-12-12T10:28:16Z</time>
      </trkpt>
      <trkpt lat="48.90657" lon="1.95521">
        <ele>154.92</ele>
        <time>2021-12-12T10:28:28Z</time>
      </trkpt>
      <trkpt lat="48.90659" lon="1.95535">
        <ele>154.85</ele>
        <time>2021-12-12T10:28:42Z</time>
      </trkpt>
      <trkpt lat="48.90658" lon="1.95556">
        <ele>155.33</ele>
        <time>2021-12-12T10:28:56Z</time>
      </trkpt>
      <trkpt lat="48.90658" lon="1.95576">
        <ele>154.78</ele>
        <time>2021-12-12T10:29:10Z</time>
      </trkpt>
      <trkpt lat="48.90658" lon="1.95592">
        <ele>154.88</ele>
        <time>2021-12-12T10:29:26Z</time>
      </trkpt>
      <trkpt lat="48.90656" lon="1.95609">
        <ele>154.81</ele>
        <time>2021-12-12T10:29:41Z</time>
      </trkpt>
      <trkpt lat="48.9065" lon="1.95629">
        <ele>154.89</ele>
        <time>2021-12-12T10:29:54Z</time>
      </trkpt>
      <trkpt lat="48.9065" lon="1.95643">
        <ele>154.93</ele>
        <time>2021-12-12T10:30:04Z</time>
      </trkpt>
      <trkpt lat="48.90645" lon="1.9566">
        <ele>155.23</ele>
        <time>2021-12-12T10:30:20Z</time>
      </trkpt>
      <trkpt lat="48.9064" lon="1.95673">
        <ele>155.98</ele>
        <time>2021-12-12T10:30:36Z</time>
      </trkpt>
      <trkpt lat="48.90636" lon="1.95678">
        <ele>155.9</ele>
        <time>2021-12-12T10:30:44Z</time>
      </trkpt>
      <trkpt lat="48.90617" lon="1.95719">
        <ele>155.99</ele>
        <time>2021-12-12T10:31:00Z</time>
      </trkpt>
      <trkpt lat="48.90603" lon="1.95744">
        <ele>156.46</ele>
        <time>2021-12-12T10:31:16Z</time>
      </trkpt>
      <trkpt lat="48.90592" lon="1.95765">
        <ele>156.47</ele>
        <time>2021-12-12T10:31:35Z</time>
      </trkpt>
      <trkpt lat="48.90582" lon="1.95786">
        <ele>156.14</ele>
        <time>2021-12-12T10:31:51Z</time>
      </trkpt>
      <trkpt lat="48.90572" lon="1.95813">
        <ele>156.06</ele>
        <time>2021-12-12T10:32:09Z</time>
      </trkpt>
      <trkpt lat="48.90567" lon="1.95834">
        <ele>155.36</ele>
        <time>2021-12-12T10:32:22Z</time>
      </trkpt>
      <trkpt lat="48.90556" lon="1.9586">
        <ele>156.21</ele>
        <time>2021-12-12T10:32:38Z</time>
      </trkpt>
      <trkpt lat="48.90553" lon="1.9588">
        <ele>155.57</ele>
        <time>2021-12-12T10:32:53Z</time>
      </trkpt>
      <trkpt lat="48.90552" lon="1.95905">
        <ele>156.11</ele>
        <time>2021-12-12T10:33:09Z</time>
      </trkpt>
      <trkpt lat="48.90551" lon="1.95906">
        <ele>155.91</ele>
        <time>2021-12-12T10:33:10Z</time>
      </trkpt>
      <trkpt lat="48.90549" lon="1.95913">
        <ele>156.26</ele>
        <time>2021-12-12T10:33:13Z</time>
      </trkpt>
      <trkpt lat="48.9055" lon="1.9592">
        <ele>155.89</ele>
        <time>2021-12-12T10:33:17Z</time>
      </trkpt>
      <trkpt lat="48.90551" lon="1.95926">
        <ele>156.17</ele>
        <time>2021-12-12T10:33:21Z</time>
      </trkpt>
      <trkpt lat="48.90551" lon="1.95929">
        <ele>155.78</ele>
        <time>2021-12-12T10:33:23Z</time>
      </trkpt>
      <trkpt lat="48.90552" lon="1.95939">
        <ele>155.76</ele>
        <time>2021-12-12T10:33:29Z</time>
      </trkpt>
      <trkpt lat="48.90554" lon="1.95956">
        <ele>156.24</ele>
        <time>2021-12-12T10:33:39Z</time>
      </trkpt>
      <trkpt lat="48.90556" lon="1.95968">
        <ele>155.84</ele>
        <time>2021-12-12T10:33:46Z</time>
      </trkpt>
      <trkpt lat="48.90557" lon="1.95983">
        <ele>156.31</ele>
        <time>2021-12-12T10:33:56Z</time>
      </trkpt>
      <trkpt lat="48.90558" lon="1.95992">
        <ele>156.12</ele>
        <time>2021-12-12T10:34:03Z</time>
      </trkpt>
      <trkpt lat="48.90559" lon="1.96011">
        <ele>156.33</ele>
        <time>2021-12-12T10:34:14Z</time>
      </trkpt>
      <trkpt lat="48.90559" lon="1.96028">
        <ele>155.85</ele>
        <time>2021-12-12T10:34:24Z</time>
      </trkpt>
      <trkpt lat="48.90559" lon="1.96038">
        <ele>156.45</ele>
        <time>2021-12-12T10:34:30Z</time>
      </trkpt>
      <trkpt lat="48.9056" lon="1.9605">
        <ele>155.93</ele>
        <time>2021-12-12T10:34:37Z</time>
      </trkpt>
      <trkpt lat="48.9056" lon="1.96054">
        <ele>156.04</ele>
        <time>2021-12-12T10:34:39Z</time>
      </trkpt>
      <trkpt lat="48.90561" lon="1.96066">
        <ele>156.01</ele>
        <time>2021-12-12T10:34:46Z</time>
      </trkpt>
      <trkpt lat="48.90561" lon="1.96088">
        <ele>156.59</ele>
        <time>2021-12-12T10:34:59Z</time>
      </trkpt>
      <trkpt lat="48.90561" lon="1.96091">
        <ele>155.76</ele>
        <time>2021-12-12T10:35:01Z</time>
      </trkpt>
      <trkpt lat="48.90561" lon="1.9611">
        <ele>156.4</ele>
        <time>2021-12-12T10:35:13Z</time>
      </trkpt>
      <trkpt lat="48.90558" lon="1.96132">
        <ele>156.49</ele>
        <time>2021-12-12T10:35:26Z</time>
      </trkpt>
      <trkpt lat="48.90557" lon="1.96142">
        <ele>156.83</ele>
        <time>2021-12-12T10:35:32Z</time>
      </trkpt>
      <trkpt lat="48.90555" lon="1.96147">
        <ele>156.38</ele>
        <time>2021-12-12T10:35:35Z</time>
      </trkpt>
      <trkpt lat="48.90549" lon="1.96168">
        <ele>156.15</ele>
        <time>2021-12-12T10:35:47Z</time>
      </trkpt>
      <trkpt lat="48.90544" lon="1.96181">
        <ele>156.02</ele>
        <time>2021-12-12T10:35:56Z</time>
      </trkpt>
      <trkpt lat="48.90537" lon="1.96193">
        <ele>155.95</ele>
        <time>2021-12-12T10:36:07Z</time>
      </trkpt>
      <trkpt lat="48.90529" lon="1.96204">
        <ele>155.25</ele>
        <time>2021-12-12T10:36:20Z</time>
      </trkpt>
      <trkpt lat="48.90525" lon="1.96209">
        <ele>155.64</ele>
        <time>2021-12-12T10:36:25Z</time>
      </trkpt>
      <trkpt lat="48.90524" lon="1.96211">
        <ele>155.76</ele>
        <time>2021-12-12T10:36:27Z</time>
      </trkpt>
      <trkpt lat="48.90513" lon="1.96225">
        <ele>155.92</ele>
        <time>2021-12-12T10:36:41Z</time>
      </trkpt>
      <trkpt lat="48.90505" lon="1.96234">
        <ele>156.26</ele>
        <time>2021-12-12T10:36:50Z</time>
      </trkpt>
      <trkpt lat="48.90498" lon="1.96248">
        <ele>156.47</ele>
        <time>2021-12-12T10:37:01Z</time>
      </trkpt>
      <trkpt lat="48.90498" lon="1.9625">
        <ele>156.3</ele>
        <time>2021-12-12T10:37:02Z</time>
      </trkpt>
      <trkpt lat="48.90496" lon="1.96255">
        <ele>156.12</ele>
        <time>2021-12-12T10:37:06Z</time>
      </trkpt>
      <trkpt lat="48.90493" lon="1.9627">
        <ele>156.21</ele>
        <time>2021-12-12T10:37:15Z</time>
      </trkpt>
      <trkpt lat="48.9049" lon="1.96288">
        <ele>156.74</ele>
        <time>2021-12-12T10:37:26Z</time>
      </trkpt>
      <trkpt lat="48.90489" lon="1.96304">
        <ele>156.71</ele>
        <time>2021-12-12T10:37:38Z</time>
      </trkpt>
      <trkpt lat="48.90489" lon="1.96306">
        <ele>156.56</ele>
        <time>2021-12-12T10:37:39Z</time>
      </trkpt>
      <trkpt lat="48.9049" lon="1.96325">
        <ele>155.8</ele>
        <time>2021-12-12T10:37:50Z</time>
      </trkpt>
      <trkpt lat="48.90492" lon="1.96338">
        <ele>156.7</ele>
        <time>2021-12-12T10:38:00Z</time>
      </trkpt>
      <trkpt lat="48.90494" lon="1.96355">
        <ele>156.33</ele>
        <time>2021-12-12T10:38:10Z</time>
      </trkpt>
      <trkpt lat="48.90495" lon="1.96357">
        <ele>156.12</ele>
        <time>2021-12-12T10:38:12Z</time>
      </trkpt>
      <trkpt lat="48.90496" lon="1.96362">
        <ele>156.29</ele>
        <time>2021-12-12T10:38:16Z</time>
      </trkpt>
      <trkpt lat="48.90498" lon="1.96378">
        <ele>156.55</ele>
        <time>2021-12-12T10:38:26Z</time>
      </trkpt>
      <trkpt lat="48.905" lon="1.96394">
        <ele>156.7</ele>
        <time>2021-12-12T10:38:35Z</time>
      </trkpt>
      <trkpt lat="48.90502" lon="1.96412">
        <ele>156.65</ele>
        <time>2021-12-12T10:38:46Z</time>
      </trkpt>
      <trkpt lat="48.90503" lon="1.96422">
        <ele>156.95</ele>
        <time>2021-12-12T10:38:52Z</time>
      </trkpt>
      <trkpt lat="48.90503" lon="1.96445">
        <ele>156.74</ele>
        <time>2021-12-12T10:39:05Z</time>
      </trkpt>
      <trkpt lat="48.90504" lon="1.96462">
        <ele>156.45</ele>
        <time>2021-12-12T10:39:16Z</time>
      </trkpt>
      <trkpt lat="48.90504" lon="1.96469">
        <ele>155.87</ele>
        <time>2021-12-12T10:39:20Z</time>
      </trkpt>
      <trkpt lat="48.90504" lon="1.96479">
        <ele>155.78</ele>
        <time>2021-12-12T10:39:27Z</time>
      </trkpt>
      <trkpt lat="48.90502" lon="1.96495">
        <ele>155.76</ele>
        <time>2021-12-12T10:39:37Z</time>
      </trkpt>
      <trkpt lat="48.90499" lon="1.96507">
        <ele>155.81</ele>
        <time>2021-12-12T10:39:45Z</time>
      </trkpt>
      <trkpt lat="48.90497" lon="1.96516">
        <ele>155.51</ele>
        <time>2021-12-12T10:39:50Z</time>
      </trkpt>
      <trkpt lat="48.90496" lon="1.96522">
        <ele>155.85</ele>
        <time>2021-12-12T10:39:54Z</time>
      </trkpt>
      <trkpt lat="48.90493" lon="1.96538">
        <ele>155.27</ele>
        <time>2021-12-12T10:40:04Z</time>
      </trkpt>
      <trkpt lat="48.90491" lon="1.96552">
        <ele>155.88</ele>
        <time>2021-12-12T10:40:12Z</time>
      </trkpt>
      <trkpt lat="48.90491" lon="1.96567">
        <ele>155.32</ele>
        <time>2021-12-12T10:40:23Z</time>
      </trkpt>
      <trkpt lat="48.9049" lon="1.96572">
        <ele>155.8</ele>
        <time>2021-12-12T10:40:37Z</time>
      </trkpt>
      <trkpt lat="48.90489" lon="1.96573">
        <ele>155.69</ele>
        <time>2021-12-12T10:40:54Z</time>
      </trkpt>
      <trkpt lat="48.90489" lon="1.96583">
        <ele>155.96</ele>
        <time>2021-12-12T10:41:04Z</time>
      </trkpt>
      <trkpt lat="48.90488" lon="1.96596">
        <ele>156.17</ele>
        <time>2021-12-12T10:41:15Z</time>
      </trkpt>
      <trkpt lat="48.9049" lon="1.96608">
        <ele>155.47</ele>
        <time>2021-12-12T10:41:25Z</time>
      </trkpt>
      <trkpt lat="48.90491" lon="1.96622">
        <ele>155.37</ele>
        <time>2021-12-12T10:41:34Z</time>
      </trkpt>
      <trkpt lat="48.9049" lon="1.96643">
        <ele>155.78</ele>
        <time>2021-12-12T10:41:46Z</time>
      </trkpt>
      <trkpt lat="48.90489" lon="1.96649">
        <ele>156.37</ele>
        <time>2021-12-12T10:41:50Z</time>
      </trkpt>
      <trkpt lat="48.90486" lon="1.96668">
        <ele>156.75</ele>
        <time>2021-12-12T10:42:01Z</time>
      </trkpt>
      <trkpt lat="48.90484" lon="1.96677">
        <ele>156.13</ele>
        <time>2021-12-12T10:42:06Z</time>
      </trkpt>
      <trkpt lat="48.90483" lon="1.96682">
        <ele>156.32</ele>
        <time>2021-12-12T10:42:09Z</time>
      </trkpt>
      <trkpt lat="48.90479" lon="1.967">
        <ele>156.45</ele>
        <time>2021-12-12T10:42:19Z</time>
      </trkpt>
      <trkpt lat="48.90478" lon="1.96704">
        <ele>156.84</ele>
        <time>2021-12-12T10:42:22Z</time>
      </trkpt>
      <trkpt lat="48.90475" lon="1.96722">
        <ele>156.54</ele>
        <time>2021-12-12T10:42:33Z</time>
      </trkpt>
      <trkpt lat="48.9047" lon="1.96741">
        <ele>156.9</ele>
        <time>2021-12-12T10:42:45Z</time>
      </trkpt>
      <trkpt lat="48.90465" lon="1.9676">
        <ele>157.23</ele>
        <time>2021-12-12T10:42:57Z</time>
      </trkpt>
      <trkpt lat="48.90462" lon="1.96775">
        <ele>157.1</ele>
        <time>2021-12-12T10:43:08Z</time>
      </trkpt>
      <trkpt lat="48.90458" lon="1.96786">
        <ele>157.38</ele>
        <time>2021-12-12T10:43:17Z</time>
      </trkpt>
      <trkpt lat="48.90455" lon="1.96799">
        <ele>157.78</ele>
        <time>2021-12-12T10:43:27Z</time>
      </trkpt>
      <trkpt lat="48.90453" lon="1.96805">
        <ele>157.96</ele>
        <time>2021-12-12T10:43:32Z</time>
      </trkpt>
      <trkpt lat="48.90451" lon="1.96813">
        <ele>157.73</ele>
        <time>2021-12-12T10:43:38Z</time>
      </trkpt>
      <trkpt lat="48.90447" lon="1.96826">
        <ele>157.99</ele>
        <time>2021-12-12T10:43:51Z</time>
      </trkpt>
      <trkpt lat="48.90442" lon="1.9684">
        <ele>158.64</ele>
        <time>2021-12-12T10:44:02Z</time>
      </trkpt>
      <trkpt lat="48.90439" lon="1.96852">
        <ele>159.32</ele>
        <time>2021-12-12T10:44:12Z</time>
      </trkpt>
      <trkpt lat="48.90439" lon="1.96853">
        <ele>158.98</ele>
        <time>2021-12-12T10:44:13Z</time>
      </trkpt>
      <trkpt lat="48.90436" lon="1.96861">
        <ele>158.82</ele>
        <time>2021-12-12T10:44:26Z</time>
      </trkpt>
      <trkpt lat="48.90436" lon="1.96862">
        <ele>158.34</ele>
        <time>2021-12-12T10:44:47Z</time>
      </trkpt>
      <trkpt lat="48.90436" lon="1.96862">
        <ele>158.1</ele>
        <time>2021-12-12T10:45:02Z</time>
      </trkpt>
      <trkpt lat="48.90435" lon="1.96863">
        <ele>158.85</ele>
        <time>2021-12-12T10:45:21Z</time>
      </trkpt>
      <trkpt lat="48.9043" lon="1.96865">
        <ele>157.8</ele>
        <time>2021-12-12T10:45:33Z</time>
      </trkpt>
      <trkpt lat="48.90423" lon="1.96855">
        <ele>158.68</ele>
        <time>2021-12-12T10:45:45Z</time>
      </trkpt>
      <trkpt lat="48.90411" lon="1.9684">
        <ele>158.17</ele>
        <time>2021-12-12T10:45:58Z</time>
      </trkpt>
      <trkpt lat="48.90408" lon="1.96835">
        <ele>159.09</ele>
        <time>2021-12-12T10:46:02Z</time>
      </trkpt>
      <trkpt lat="48.90401" lon="1.96827">
        <ele>159.42</ele>
        <time>2021-12-12T10:46:11Z</time>
      </trkpt>
      <trkpt lat="48.90399" lon="1.96825">
        <ele>159.19</ele>
        <time>2021-12-12T10:46:13Z</time>
      </trkpt>
      <trkpt lat="48.90389" lon="1.96813">
        <ele>159.54</ele>
        <time>2021-12-12T10:46:26Z</time>
      </trkpt>
      <trkpt lat="48.9038" lon="1.96801">
        <ele>159.94</ele>
        <time>2021-12-12T10:46:38Z</time>
      </trkpt>
      <trkpt lat="48.90378" lon="1.96799">
        <ele>159.95</ele>
        <time>2021-12-12T10:46:40Z</time>
      </trkpt>
      <trkpt lat="48.90367" lon="1.96788">
        <ele>159.93</ele>
        <time>2021-12-12T10:46:51Z</time>
      </trkpt>
      <trkpt lat="48.90358" lon="1.96773">
        <ele>160.83</ele>
        <time>2021-12-12T10:47:03Z</time>
      </trkpt>
      <trkpt lat="48.90356" lon="1.96771">
        <ele>160.62</ele>
        <time>2021-12-12T10:47:05Z</time>
      </trkpt>
      <trkpt lat="48.90345" lon="1.96757">
        <ele>160.15</ele>
        <time>2021-12-12T10:47:18Z</time>
      </trkpt>
      <trkpt lat="48.90334" lon="1.96743">
        <ele>160.63</ele>
        <time>2021-12-12T10:47:31Z</time>
      </trkpt>
      <trkpt lat="48.90324" lon="1.96732">
        <ele>161.25</ele>
        <time>2021-12-12T10:47:43Z</time>
      </trkpt>
      <trkpt lat="48.90316" lon="1.96721">
        <ele>161.11</ele>
        <time>2021-12-12T10:47:53Z</time>
      </trkpt>
      <trkpt lat="48.90304" lon="1.96707">
        <ele>161.57</ele>
        <time>2021-12-12T10:48:05Z</time>
      </trkpt>
      <trkpt lat="48.90294" lon="1.96693">
        <ele>161.36</ele>
        <time>2021-12-12T10:48:17Z</time>
      </trkpt>
      <trkpt lat="48.9029" lon="1.96689">
        <ele>161.95</ele>
        <time>2021-12-12T10:48:21Z</time>
      </trkpt>
      <trkpt lat="48.90279" lon="1.96675">
        <ele>162.09</ele>
        <time>2021-12-12T10:48:34Z</time>
      </trkpt>
      <trkpt lat="48.90271" lon="1.96663">
        <ele>161.73</ele>
        <time>2021-12-12T10:48:45Z</time>
      </trkpt>
      <trkpt lat="48.90263" lon="1.96653">
        <ele>162.48</ele>
        <time>2021-12-12T10:48:55Z</time>
      </trkpt>
      <trkpt lat="48.90254" lon="1.96643">
        <ele>162.77</ele>
        <time>2021-12-12T10:49:06Z</time>
      </trkpt>
      <trkpt lat="48.9025" lon="1.96636">
        <ele>163.1</ele>
        <time>2021-12-12T10:49:12Z</time>
      </trkpt>
      <trkpt lat="48.90241" lon="1.96629">
        <ele>162.73</ele>
        <time>2021-12-12T10:49:21Z</time>
      </trkpt>
      <trkpt lat="48.9023" lon="1.96615">
        <ele>163.2</ele>
        <time>2021-12-12T10:49:34Z</time>
      </trkpt>
      <trkpt lat="48.90228" lon="1.96612">
        <ele>163.06</ele>
        <time>2021-12-12T10:49:37Z</time>
      </trkpt>
      <trkpt lat="48.90223" lon="1.96605">
        <ele>163.62</ele>
        <time>2021-12-12T10:49:43Z</time>
      </trkpt>
      <trkpt lat="48.90222" lon="1.96603">
        <ele>163.19</ele>
        <time>2021-12-12T10:49:45Z</time>
      </trkpt>
      <trkpt lat="48.90211" lon="1.96589">
        <ele>163.36</ele>
        <time>2021-12-12T10:49:57Z</time>
      </trkpt>
      <trkpt lat="48.90201" lon="1.96577">
        <ele>163.73</ele>
        <time>2021-12-12T10:50:08Z</time>
      </trkpt>
      <trkpt lat="48.90191" lon="1.96564">
        <ele>163.98</ele>
        <time>2021-12-12T10:50:20Z</time>
      </trkpt>
      <trkpt lat="48.90182" lon="1.96554">
        <ele>164.31</ele>
        <time>2021-12-12T10:50:30Z</time>
      </trkpt>
      <trkpt lat="48.90177" lon="1.96548">
        <ele>164.23</ele>
        <time>2021-12-12T10:50:39Z</time>
      </trkpt>
      <trkpt lat="48.90175" lon="1.96546">
        <ele>165.01</ele>
        <time>2021-12-12T10:50:52Z</time>
      </trkpt>
      <trkpt lat="48.90171" lon="1.9654">
        <ele>165.36</ele>
        <time>2021-12-12T10:51:07Z</time>
      </trkpt>
      <trkpt lat="48.9017" lon="1.96538">
        <ele>165.11</ele>
        <time>2021-12-12T10:51:08Z</time>
      </trkpt>
      <trkpt lat="48.90168" lon="1.96536">
        <ele>164.61</ele>
        <time>2021-12-12T10:51:11Z</time>
      </trkpt>
      <trkpt lat="48.90165" lon="1.96531">
        <ele>165.64</ele>
        <time>2021-12-12T10:51:16Z</time>
      </trkpt>
      <trkpt lat="48.90158" lon="1.96521">
        <ele>165.54</ele>
        <time>2021-12-12T10:51:25Z</time>
      </trkpt>
      <trkpt lat="48.90156" lon="1.9652">
        <ele>165.08</ele>
        <time>2021-12-12T10:51:27Z</time>
      </trkpt>
      <trkpt lat="48.90146" lon="1.96508">
        <ele>164.41</ele>
        <time>2021-12-12T10:51:40Z</time>
      </trkpt>
      <trkpt lat="48.90142" lon="1.96501">
        <ele>165.42</ele>
        <time>2021-12-12T10:51:47Z</time>
      </trkpt>
      <trkpt lat="48.90135" lon="1.96491">
        <ele>165.42</ele>
        <time>2021-12-12T10:51:56Z</time>
      </trkpt>
      <trkpt lat="48.90133" lon="1.96489">
        <ele>165.23</ele>
        <time>2021-12-12T10:51:58Z</time>
      </trkpt>
      <trkpt lat="48.90125" lon="1.96481">
        <ele>165.14</ele>
        <time>2021-12-12T10:52:10Z</time>
      </trkpt>
      <trkpt lat="48.90121" lon="1.96477">
        <ele>165.71</ele>
        <time>2021-12-12T10:52:21Z</time>
      </trkpt>
      <trkpt lat="48.90114" lon="1.96466">
        <ele>166.04</ele>
        <time>2021-12-12T10:52:31Z</time>
      </trkpt>
      <trkpt lat="48.90106" lon="1.96455">
        <ele>166.48</ele>
        <time>2021-12-12T10:52:46Z</time>
      </trkpt>
      <trkpt lat="48.90098" lon="1.96445">
        <ele>165.92</ele>
        <time>2021-12-12T10:52:58Z</time>
      </trkpt>
      <trkpt lat="48.90087" lon="1.96432">
        <ele>165.71</ele>
        <time>2021-12-12T10:53:12Z</time>
      </trkpt>
      <trkpt lat="48.90079" lon="1.96424">
        <ele>166.56</ele>
        <time>2021-12-12T10:53:21Z</time>
      </trkpt>
      <trkpt lat="48.90068" lon="1.96413">
        <ele>166.87</ele>
        <time>2021-12-12T10:53:35Z</time>
      </trkpt>
      <trkpt lat="48.90057" lon="1.964">
        <ele>166.27</ele>
        <time>2021-12-12T10:53:48Z</time>
      </trkpt>
      <trkpt lat="48.90048" lon="1.96391">
        <ele>166.35</ele>
        <time>2021-12-12T10:53:59Z</time>
      </trkpt>
      <trkpt lat="48.90039" lon="1.96383">
        <ele>166.37</ele>
        <time>2021-12-12T10:54:10Z</time>
      </trkpt>
      <trkpt lat="48.90032" lon="1.96377">
        <ele>166.68</ele>
        <time>2021-12-12T10:54:20Z</time>
      </trkpt>
      <trkpt lat="48.90024" lon="1.96368">
        <ele>166.14</ele>
        <time>2021-12-12T10:54:30Z</time>
      </trkpt>
      <trkpt lat="48.90023" lon="1.96367">
        <ele>166.33</ele>
        <time>2021-12-12T10:54:31Z</time>
      </trkpt>
      <trkpt lat="48.90013" lon="1.96356">
        <ele>167.14</ele>
        <time>2021-12-12T10:54:43Z</time>
      </trkpt>
      <trkpt lat="48.90006" lon="1.96347">
        <ele>166.55</ele>
        <time>2021-12-12T10:54:52Z</time>
      </trkpt>
      <trkpt lat="48.89994" lon="1.96335">
        <ele>166.69</ele>
        <time>2021-12-12T10:55:04Z</time>
      </trkpt>
      <trkpt lat="48.89991" lon="1.96333">
        <ele>166.21</ele>
        <time>2021-12-12T10:55:07Z</time>
      </trkpt>
      <trkpt lat="48.89988" lon="1.96328">
        <ele>166.6</ele>
        <time>2021-12-12T10:55:11Z</time>
      </trkpt>
      <trkpt lat="48.89975" lon="1.96315">
        <ele>166.22</ele>
        <time>2021-12-12T10:55:25Z</time>
      </trkpt>
      <trkpt lat="48.89964" lon="1.96303">
        <ele>167.2</ele>
        <time>2021-12-12T10:55:38Z</time>
      </trkpt>
      <trkpt lat="48.89955" lon="1.96294">
        <ele>167.16</ele>
        <time>2021-12-12T10:55:49Z</time>
      </trkpt>
      <trkpt lat="48.89946" lon="1.96283">
        <ele>166.65</ele>
        <time>2021-12-12T10:56:00Z</time>
      </trkpt>
      <trkpt lat="48.89938" lon="1.96275">
        <ele>167.37</ele>
        <time>2021-12-12T10:56:10Z</time>
      </trkpt>
      <trkpt lat="48.89929" lon="1.96266">
        <ele>167.24</ele>
        <time>2021-12-12T10:56:20Z</time>
      </trkpt>
      <trkpt lat="48.8992" lon="1.96258">
        <ele>166.98</ele>
        <time>2021-12-12T10:56:30Z</time>
      </trkpt>
      <trkpt lat="48.8991" lon="1.96262">
        <ele>167.76</ele>
        <time>2021-12-12T10:56:41Z</time>
      </trkpt>
      <trkpt lat="48.89899" lon="1.9627">
        <ele>167.83</ele>
        <time>2021-12-12T10:56:54Z</time>
      </trkpt>
      <trkpt lat="48.89895" lon="1.96275">
        <ele>167.93</ele>
        <time>2021-12-12T10:57:03Z</time>
      </trkpt>
      <trkpt lat="48.89891" lon="1.96282">
        <ele>167.57</ele>
        <time>2021-12-12T10:57:23Z</time>
      </trkpt>
      <trkpt lat="48.89887" lon="1.9629">
        <ele>167.68</ele>
        <time>2021-12-12T10:57:31Z</time>
      </trkpt>
      <trkpt lat="48.89884" lon="1.96307">
        <ele>167.64</ele>
        <time>2021-12-12T10:57:43Z</time>
      </trkpt>
      <trkpt lat="48.89881" lon="1.96323">
        <ele>167.99</ele>
        <time>2021-12-12T10:57:54Z</time>
      </trkpt>
      <trkpt lat="48.89878" lon="1.96339">
        <ele>167.98</ele>
        <time>2021-12-12T10:58:05Z</time>
      </trkpt>
      <trkpt lat="48.89877" lon="1.96348">
        <ele>167.21</ele>
        <time>2021-12-12T10:58:11Z</time>
      </trkpt>
      <trkpt lat="48.89873" lon="1.96365">
        <ele>167.29</ele>
        <time>2021-12-12T10:58:23Z</time>
      </trkpt>
      <trkpt lat="48.89873" lon="1.96372">
        <ele>167.53</ele>
        <time>2021-12-12T10:58:28Z</time>
      </trkpt>
      <trkpt lat="48.89872" lon="1.96381">
        <ele>167.1</ele>
        <time>2021-12-12T10:58:33Z</time>
      </trkpt>
      <trkpt lat="48.89869" lon="1.96399">
        <ele>168.08</ele>
        <time>2021-12-12T10:58:44Z</time>
      </trkpt>
      <trkpt lat="48.89869" lon="1.96404">
        <ele>167.55</ele>
        <time>2021-12-12T10:58:47Z</time>
      </trkpt>
      <trkpt lat="48.89866" lon="1.96417">
        <ele>167.56</ele>
        <time>2021-12-12T10:58:55Z</time>
      </trkpt>
      <trkpt lat="48.89864" lon="1.96424">
        <ele>167.86</ele>
        <time>2021-12-12T10:59:00Z</time>
      </trkpt>
      <trkpt lat="48.89863" lon="1.96436">
        <ele>167.05</ele>
        <time>2021-12-12T10:59:07Z</time>
      </trkpt>
      <trkpt lat="48.89861" lon="1.96454">
        <ele>167.49</ele>
        <time>2021-12-12T10:59:18Z</time>
      </trkpt>
      <trkpt lat="48.89859" lon="1.96463">
        <ele>167.29</ele>
        <time>2021-12-12T10:59:24Z</time>
      </trkpt>
      <trkpt lat="48.89857" lon="1.96475">
        <ele>166.75</ele>
        <time>2021-12-12T10:59:32Z</time>
      </trkpt>
      <trkpt lat="48.89855" lon="1.96492">
        <ele>166.85</ele>
        <time>2021-12-12T10:59:43Z</time>
      </trkpt>
      <trkpt lat="48.89851" lon="1.96514">
        <ele>166.52</ele>
        <time>2021-12-12T10:59:57Z</time>
      </trkpt>
      <trkpt lat="48.89849" lon="1.96529">
        <ele>166.63</ele>
        <time>2021-12-12T11:00:07Z</time>
      </trkpt>
      <trkpt lat="48.89848" lon="1.96535">
        <ele>166.91</ele>
        <time>2021-12-12T11:00:11Z</time>
      </trkpt>
      <trkpt lat="48.89846" lon="1.96554">
        <ele>167.04</ele>
        <time>2021-12-12T11:00:23Z</time>
      </trkpt>
      <trkpt lat="48.89843" lon="1.9657">
        <ele>167.01</ele>
        <time>2021-12-12T11:00:33Z</time>
      </trkpt>
      <trkpt lat="48.8984" lon="1.9659">
        <ele>166.76</ele>
        <time>2021-12-12T11:00:45Z</time>
      </trkpt>
      <trkpt lat="48.8984" lon="1.96596">
        <ele>166.97</ele>
        <time>2021-12-12T11:00:48Z</time>
      </trkpt>
      <trkpt lat="48.89838" lon="1.96604">
        <ele>166.55</ele>
        <time>2021-12-12T11:00:54Z</time>
      </trkpt>
      <trkpt lat="48.89837" lon="1.96613">
        <ele>166.96</ele>
        <time>2021-12-12T11:00:59Z</time>
      </trkpt>
      <trkpt lat="48.89834" lon="1.9663">
        <ele>165.86</ele>
        <time>2021-12-12T11:01:10Z</time>
      </trkpt>
      <trkpt lat="48.89832" lon="1.96643">
        <ele>166.38</ele>
        <time>2021-12-12T11:01:18Z</time>
      </trkpt>
      <trkpt lat="48.8983" lon="1.96653">
        <ele>166.14</ele>
        <time>2021-12-12T11:01:24Z</time>
      </trkpt>
      <trkpt lat="48.89828" lon="1.9667">
        <ele>166.09</ele>
        <time>2021-12-12T11:01:34Z</time>
      </trkpt>
      <trkpt lat="48.89827" lon="1.96682">
        <ele>166.12</ele>
        <time>2021-12-12T11:01:40Z</time>
      </trkpt>
      <trkpt lat="48.89825" lon="1.96699">
        <ele>166.43</ele>
        <time>2021-12-12T11:01:50Z</time>
      </trkpt>
      <trkpt lat="48.89825" lon="1.96702">
        <ele>166.09</ele>
        <time>2021-12-12T11:01:52Z</time>
      </trkpt>
      <trkpt lat="48.89822" lon="1.96719">
        <ele>166.34</ele>
        <time>2021-12-12T11:02:03Z</time>
      </trkpt>
      <trkpt lat="48.8982" lon="1.96728">
        <ele>165.8</ele>
        <time>2021-12-12T11:02:09Z</time>
      </trkpt>
      <trkpt lat="48.89818" lon="1.96747">
        <ele>165.81</ele>
        <time>2021-12-12T11:02:20Z</time>
      </trkpt>
      <trkpt lat="48.89816" lon="1.96761">
        <ele>166.15</ele>
        <time>2021-12-12T11:02:29Z</time>
      </trkpt>
      <trkpt lat="48.89816" lon="1.96769">
        <ele>166.2</ele>
        <time>2021-12-12T11:02:34Z</time>
      </trkpt>
      <trkpt lat="48.89812" lon="1.96788">
        <ele>166.09</ele>
        <time>2021-12-12T11:02:46Z</time>
      </trkpt>
      <trkpt lat="48.89811" lon="1.96792">
        <ele>166.06</ele>
        <time>2021-12-12T11:02:49Z</time>
      </trkpt>
      <trkpt lat="48.89809" lon="1.96803">
        <ele>165.78</ele>
        <time>2021-12-12T11:02:56Z</time>
      </trkpt>
      <trkpt lat="48.89806" lon="1.96818">
        <ele>165.77</ele>
        <time>2021-12-12T11:03:06Z</time>
      </trkpt>
      <trkpt lat="48.89804" lon="1.96826">
        <ele>165.44</ele>
        <time>2021-12-12T11:03:12Z</time>
      </trkpt>
      <trkpt lat="48.89804" lon="1.96838">
        <ele>165.71</ele>
        <time>2021-12-12T11:03:20Z</time>
      </trkpt>
      <trkpt lat="48.89802" lon="1.96852">
        <ele>165.2</ele>
        <time>2021-12-12T11:03:29Z</time>
      </trkpt>
      <trkpt lat="48.89801" lon="1.96856">
        <ele>165.91</ele>
        <time>2021-12-12T11:03:32Z</time>
      </trkpt>
      <trkpt lat="48.89799" lon="1.96874">
        <ele>165.29</ele>
        <time>2021-12-12T11:03:45Z</time>
      </trkpt>
      <trkpt lat="48.89797" lon="1.96893">
        <ele>165.26</ele>
        <time>2021-12-12T11:03:57Z</time>
      </trkpt>
      <trkpt lat="48.89795" lon="1.96901">
        <ele>164.96</ele>
        <time>2021-12-12T11:04:02Z</time>
      </trkpt>
      <trkpt lat="48.89791" lon="1.96922">
        <ele>165.2</ele>
        <time>2021-12-12T11:04:15Z</time>
      </trkpt>
      <trkpt lat="48.89789" lon="1.96939">
        <ele>164.79</ele>
        <time>2021-12-12T11:04:25Z</time>
      </trkpt>
      <trkpt lat="48.89785" lon="1.96955">
        <ele>165.23</ele>
        <time>2021-12-12T11:04:36Z</time>
      </trkpt>
      <trkpt lat="48.89782" lon="1.96975">
        <ele>165.06</ele>
        <time>2021-12-12T11:04:48Z</time>
      </trkpt>
      <trkpt lat="48.89779" lon="1.96997">
        <ele>164.82</ele>
        <time>2021-12-12T11:05:02Z</time>
      </trkpt>
      <trkpt lat="48.89776" lon="1.97009">
        <ele>165.1</ele>
        <time>2021-12-12T11:05:10Z</time>
      </trkpt>
      <trkpt lat="48.89773" lon="1.97028">
        <ele>165.03</ele>
        <time>2021-12-12T11:05:22Z</time>
      </trkpt>
      <trkpt lat="48.89772" lon="1.97038">
        <ele>164.96</ele>
        <time>2021-12-12T11:05:28Z</time>
      </trkpt>
      <trkpt lat="48.89772" lon="1.97044">
        <ele>166.04</ele>
        <time>2021-12-12T11:05:32Z</time>
      </trkpt>
      <trkpt lat="48.89769" lon="1.97061">
        <ele>165.1</ele>
        <time>2021-12-12T11:05:45Z</time>
      </trkpt>
      <trkpt lat="48.89767" lon="1.97074">
        <ele>165.04</ele>
        <time>2021-12-12T11:05:54Z</time>
      </trkpt>
      <trkpt lat="48.89767" lon="1.97077">
        <ele>165.72</ele>
        <time>2021-12-12T11:05:56Z</time>
      </trkpt>
      <trkpt lat="48.89765" lon="1.97092">
        <ele>165.49</ele>
        <time>2021-12-12T11:06:07Z</time>
      </trkpt>
      <trkpt lat="48.89761" lon="1.97112">
        <ele>165.5</ele>
        <time>2021-12-12T11:06:19Z</time>
      </trkpt>
      <trkpt lat="48.89761" lon="1.97113">
        <ele>165.3</ele>
        <time>2021-12-12T11:06:20Z</time>
      </trkpt>
      <trkpt lat="48.89758" lon="1.97132">
        <ele>165.57</ele>
        <time>2021-12-12T11:06:31Z</time>
      </trkpt>
      <trkpt lat="48.89755" lon="1.97149">
        <ele>164.97</ele>
        <time>2021-12-12T11:06:43Z</time>
      </trkpt>
      <trkpt lat="48.89755" lon="1.97152">
        <ele>165.66</ele>
        <time>2021-12-12T11:06:45Z</time>
      </trkpt>
      <trkpt lat="48.89755" lon="1.9716">
        <ele>165.52</ele>
        <time>2021-12-12T11:06:50Z</time>
      </trkpt>
      <trkpt lat="48.89751" lon="1.97177">
        <ele>165.72</ele>
        <time>2021-12-12T11:07:01Z</time>
      </trkpt>
      <trkpt lat="48.89747" lon="1.97198">
        <ele>164.87</ele>
        <time>2021-12-12T11:07:14Z</time>
      </trkpt>
      <trkpt lat="48.89747" lon="1.97201">
        <ele>165.53</ele>
        <time>2021-12-12T11:07:16Z</time>
      </trkpt>
      <trkpt lat="48.89744" lon="1.97218">
        <ele>165.45</ele>
        <time>2021-12-12T11:07:27Z</time>
      </trkpt>
      <trkpt lat="48.89742" lon="1.97233">
        <ele>165.71</ele>
        <time>2021-12-12T11:07:37Z</time>
      </trkpt>
      <trkpt lat="48.89739" lon="1.97246">
        <ele>166.09</ele>
        <time>2021-12-12T11:07:46Z</time>
      </trkpt>
      <trkpt lat="48.89739" lon="1.97251">
        <ele>165.65</ele>
        <time>2021-12-12T11:07:49Z</time>
      </trkpt>
      <trkpt lat="48.89737" lon="1.97262">
        <ele>166.11</ele>
        <time>2021-12-12T11:07:55Z</time>
      </trkpt>
      <trkpt lat="48.89737" lon="1.97266">
        <ele>165.56</ele>
        <time>2021-12-12T11:07:58Z</time>
      </trkpt>
      <trkpt lat="48.89736" lon="1.97271">
        <ele>165.5</ele>
        <time>2021-12-12T11:08:01Z</time>
      </trkpt>
      <trkpt lat="48.89736" lon="1.97274">
        <ele>165.57</ele>
        <time>2021-12-12T11:08:03Z</time>
      </trkpt>
      <trkpt lat="48.89732" lon="1.97291">
        <ele>165.42</ele>
        <time>2021-12-12T11:08:14Z</time>
      </trkpt>
      <trkpt lat="48.8973" lon="1.97307">
        <ele>165.57</ele>
        <time>2021-12-12T11:08:25Z</time>
      </trkpt>
      <trkpt lat="48.89728" lon="1.97326">
        <ele>165.7</ele>
        <time>2021-12-12T11:08:38Z</time>
      </trkpt>
      <trkpt lat="48.89726" lon="1.97342">
        <ele>165.57</ele>
        <time>2021-12-12T11:08:48Z</time>
      </trkpt>
      <trkpt lat="48.89724" lon="1.97356">
        <ele>165.03</ele>
        <time>2021-12-12T11:08:56Z</time>
      </trkpt>
      <trkpt lat="48.8972" lon="1.97377">
        <ele>165.19</ele>
        <time>2021-12-12T11:09:10Z</time>
      </trkpt>
      <trkpt lat="48.89718" lon="1.97396">
        <ele>165.5</ele>
        <time>2021-12-12T11:09:23Z</time>
      </trkpt>
      <trkpt lat="48.89716" lon="1.97414">
        <ele>165.34</ele>
        <time>2021-12-12T11:09:34Z</time>
      </trkpt>
      <trkpt lat="48.89715" lon="1.97419">
        <ele>165.22</ele>
        <time>2021-12-12T11:09:37Z</time>
      </trkpt>
      <trkpt lat="48.89712" lon="1.97436">
        <ele>165.42</ele>
        <time>2021-12-12T11:09:48Z</time>
      </trkpt>
      <trkpt lat="48.8971" lon="1.9745">
        <ele>165.38</ele>
        <time>2021-12-12T11:09:58Z</time>
      </trkpt>
      <trkpt lat="48.89708" lon="1.97454">
        <ele>165.99</ele>
        <time>2021-12-12T11:10:00Z</time>
      </trkpt>
      <trkpt lat="48.89706" lon="1.97473">
        <ele>165.27</ele>
        <time>2021-12-12T11:10:11Z</time>
      </trkpt>
      <trkpt lat="48.89704" lon="1.97482">
        <ele>165.09</ele>
        <time>2021-12-12T11:10:16Z</time>
      </trkpt>
      <trkpt lat="48.89703" lon="1.97494">
        <ele>164.93</ele>
        <time>2021-12-12T11:10:23Z</time>
      </trkpt>
      <trkpt lat="48.89699" lon="1.97513">
        <ele>164.91</ele>
        <time>2021-12-12T11:10:35Z</time>
      </trkpt>
      <trkpt lat="48.89696" lon="1.97519">
        <ele>165.21</ele>
        <time>2021-12-12T11:10:50Z</time>
      </trkpt>
      <trkpt lat="48.89695" lon="1.97521">
        <ele>165.07</ele>
        <time>2021-12-12T11:11:12Z</time>
      </trkpt>
      <trkpt lat="48.89692" lon="1.9752">
        <ele>164.91</ele>
        <time>2021-12-12T11:11:43Z</time>
      </trkpt>
      <trkpt lat="48.89685" lon="1.97513">
        <ele>165.13</ele>
        <time>2021-12-12T11:11:55Z</time>
      </trkpt>
      <trkpt lat="48.89678" lon="1.97504">
        <ele>165.19</ele>
        <time>2021-12-12T11:12:06Z</time>
      </trkpt>
      <trkpt lat="48.89674" lon="1.975">
        <ele>165.57</ele>
        <time>2021-12-12T11:12:11Z</time>
      </trkpt>
      <trkpt lat="48.89671" lon="1.97496">
        <ele>165.35</ele>
        <time>2021-12-12T11:12:16Z</time>
      </trkpt>
      <trkpt lat="48.89661" lon="1.97485">
        <ele>165.41</ele>
        <time>2021-12-12T11:12:29Z</time>
      </trkpt>
      <trkpt lat="48.89652" lon="1.97476">
        <ele>165.68</ele>
        <time>2021-12-12T11:12:40Z</time>
      </trkpt>
      <trkpt lat="48.89652" lon="1.97475">
        <ele>165.82</ele>
        <time>2021-12-12T11:12:41Z</time>
      </trkpt>
      <trkpt lat="48.89644" lon="1.97467">
        <ele>165.81</ele>
        <time>2021-12-12T11:12:51Z</time>
      </trkpt>
      <trkpt lat="48.89641" lon="1.97465">
        <ele>166.25</ele>
        <time>2021-12-12T11:12:54Z</time>
      </trkpt>
      <trkpt lat="48.89635" lon="1.97458">
        <ele>165.8</ele>
        <time>2021-12-12T11:13:03Z</time>
      </trkpt>
      <trkpt lat="48.8963" lon="1.97452">
        <ele>165.92</ele>
        <time>2021-12-12T11:13:09Z</time>
      </trkpt>
      <trkpt lat="48.89628" lon="1.97451">
        <ele>165.72</ele>
        <time>2021-12-12T11:13:11Z</time>
      </trkpt>
      <trkpt lat="48.89622" lon="1.97445">
        <ele>166.04</ele>
        <time>2021-12-12T11:13:19Z</time>
      </trkpt>
      <trkpt lat="48.89614" lon="1.97438">
        <ele>166.03</ele>
        <time>2021-12-12T11:13:28Z</time>
      </trkpt>
      <trkpt lat="48.89601" lon="1.97426">
        <ele>166.6</ele>
        <time>2021-12-12T11:13:42Z</time>
      </trkpt>
      <trkpt lat="48.89591" lon="1.97419">
        <ele>166.58</ele>
        <time>2021-12-12T11:13:52Z</time>
      </trkpt>
      <trkpt lat="48.89582" lon="1.97414">
        <ele>166.53</ele>
        <time>2021-12-12T11:14:02Z</time>
      </trkpt>
      <trkpt lat="48.89574" lon="1.97408">
        <ele>167.02</ele>
        <time>2021-12-12T11:14:12Z</time>
      </trkpt>
      <trkpt lat="48.8957" lon="1.97406">
        <ele>166.99</ele>
        <time>2021-12-12T11:14:16Z</time>
      </trkpt>
      <trkpt lat="48.89564" lon="1.97402">
        <ele>167.17</ele>
        <time>2021-12-12T11:14:22Z</time>
      </trkpt>
      <trkpt lat="48.8955" lon="1.97395">
        <ele>167.82</ele>
        <time>2021-12-12T11:14:36Z</time>
      </trkpt>
      <trkpt lat="48.89538" lon="1.97387">
        <ele>167.48</ele>
        <time>2021-12-12T11:14:49Z</time>
      </trkpt>
      <trkpt lat="48.89536" lon="1.97385">
        <ele>167.34</ele>
        <time>2021-12-12T11:14:51Z</time>
      </trkpt>
      <trkpt lat="48.8953" lon="1.97381">
        <ele>167.67</ele>
        <time>2021-12-12T11:14:59Z</time>
      </trkpt>
      <trkpt lat="48.89519" lon="1.97373">
        <ele>167.27</ele>
        <time>2021-12-12T11:15:09Z</time>
      </trkpt>
      <trkpt lat="48.89517" lon="1.97372">
        <ele>167.56</ele>
        <time>2021-12-12T11:15:11Z</time>
      </trkpt>
      <trkpt lat="48.89503" lon="1.97363">
        <ele>167.24</ele>
        <time>2021-12-12T11:15:24Z</time>
      </trkpt>
      <trkpt lat="48.89495" lon="1.97358">
        <ele>167.2</ele>
        <time>2021-12-12T11:15:33Z</time>
      </trkpt>
      <trkpt lat="48.89485" lon="1.9735">
        <ele>167.42</ele>
        <time>2021-12-12T11:15:44Z</time>
      </trkpt>
      <trkpt lat="48.89474" lon="1.97341">
        <ele>168.26</ele>
        <time>2021-12-12T11:15:55Z</time>
      </trkpt>
      <trkpt lat="48.8946" lon="1.9733">
        <ele>167.57</ele>
        <time>2021-12-12T11:16:09Z</time>
      </trkpt>
      <trkpt lat="48.89447" lon="1.97321">
        <ele>167.65</ele>
        <time>2021-12-12T11:16:21Z</time>
      </trkpt>
      <trkpt lat="48.89434" lon="1.97312">
        <ele>167.51</ele>
        <time>2021-12-12T11:16:34Z</time>
      </trkpt>
      <trkpt lat="48.89424" lon="1.97304">
        <ele>167.19</ele>
        <time>2021-12-12T11:16:45Z</time>
      </trkpt>
      <trkpt lat="48.89413" lon="1.97298">
        <ele>167.58</ele>
        <time>2021-12-12T11:16:56Z</time>
      </trkpt>
      <trkpt lat="48.89402" lon="1.97291">
        <ele>167.89</ele>
        <time>2021-12-12T11:17:07Z</time>
      </trkpt>
      <trkpt lat="48.8939" lon="1.97286">
        <ele>167.73</ele>
        <time>2021-12-12T11:17:19Z</time>
      </trkpt>
      <trkpt lat="48.89384" lon="1.9728">
        <ele>168</ele>
        <time>2021-12-12T11:17:26Z</time>
      </trkpt>
      <trkpt lat="48.89381" lon="1.97278">
        <ele>168.25</ele>
        <time>2021-12-12T11:17:29Z</time>
      </trkpt>
      <trkpt lat="48.89368" lon="1.9727">
        <ele>168.29</ele>
        <time>2021-12-12T11:17:42Z</time>
      </trkpt>
      <trkpt lat="48.89357" lon="1.97262">
        <ele>168.35</ele>
        <time>2021-12-12T11:17:53Z</time>
      </trkpt>
      <trkpt lat="48.89345" lon="1.97252">
        <ele>168.23</ele>
        <time>2021-12-12T11:18:05Z</time>
      </trkpt>
      <trkpt lat="48.89334" lon="1.97245">
        <ele>168.3</ele>
        <time>2021-12-12T11:18:16Z</time>
      </trkpt>
      <trkpt lat="48.89324" lon="1.97237">
        <ele>168.14</ele>
        <time>2021-12-12T11:18:27Z</time>
      </trkpt>
      <trkpt lat="48.89313" lon="1.9723">
        <ele>168.46</ele>
        <time>2021-12-12T11:18:38Z</time>
      </trkpt>
      <trkpt lat="48.89305" lon="1.97225">
        <ele>168.22</ele>
        <time>2021-12-12T11:18:48Z</time>
      </trkpt>
      <trkpt lat="48.89302" lon="1.97222">
        <ele>168.02</ele>
        <time>2021-12-12T11:19:07Z</time>
      </trkpt>
      <trkpt lat="48.893" lon="1.97221">
        <ele>167.56</ele>
        <time>2021-12-12T11:19:09Z</time>
      </trkpt>
      <trkpt lat="48.89296" lon="1.97217">
        <ele>168.06</ele>
        <time>2021-12-12T11:19:14Z</time>
      </trkpt>
      <trkpt lat="48.89282" lon="1.97208">
        <ele>168.01</ele>
        <time>2021-12-12T11:19:27Z</time>
      </trkpt>
      <trkpt lat="48.8927" lon="1.97201">
        <ele>167.28</ele>
        <time>2021-12-12T11:19:39Z</time>
      </trkpt>
      <trkpt lat="48.89259" lon="1.97194">
        <ele>166.5</ele>
        <time>2021-12-12T11:19:50Z</time>
      </trkpt>
      <trkpt lat="48.89252" lon="1.97189">
        <ele>166.12</ele>
        <time>2021-12-12T11:19:57Z</time>
      </trkpt>
      <trkpt lat="48.89238" lon="1.97183">
        <ele>167.27</ele>
        <time>2021-12-12T11:20:11Z</time>
      </trkpt>
      <trkpt lat="48.89236" lon="1.97182">
        <ele>166.92</ele>
        <time>2021-12-12T11:20:13Z</time>
      </trkpt>
      <trkpt lat="48.89224" lon="1.97177">
        <ele>166.43</ele>
        <time>2021-12-12T11:20:25Z</time>
      </trkpt>
      <trkpt lat="48.89223" lon="1.97177">
        <ele>166.59</ele>
        <time>2021-12-12T11:20:26Z</time>
      </trkpt>
      <trkpt lat="48.89218" lon="1.97175">
        <ele>166.11</ele>
        <time>2021-12-12T11:20:31Z</time>
      </trkpt>
      <trkpt lat="48.89201" lon="1.97168">
        <ele>165.57</ele>
        <time>2021-12-12T11:20:45Z</time>
      </trkpt>
      <trkpt lat="48.8919" lon="1.97164">
        <ele>165.6</ele>
        <time>2021-12-12T11:20:56Z</time>
      </trkpt>
      <trkpt lat="48.89178" lon="1.9716">
        <ele>166.12</ele>
        <time>2021-12-12T11:21:07Z</time>
      </trkpt>
      <trkpt lat="48.89177" lon="1.9716">
        <ele>165.86</ele>
        <time>2021-12-12T11:21:08Z</time>
      </trkpt>
      <trkpt lat="48.89166" lon="1.97154">
        <ele>164.88</ele>
        <time>2021-12-12T11:21:19Z</time>
      </trkpt>
      <trkpt lat="48.89155" lon="1.9715">
        <ele>165.22</ele>
        <time>2021-12-12T11:21:29Z</time>
      </trkpt>
      <trkpt lat="48.89152" lon="1.97149">
        <ele>164.85</ele>
        <time>2021-12-12T11:21:32Z</time>
      </trkpt>
      <trkpt lat="48.89145" lon="1.97147">
        <ele>165.22</ele>
        <time>2021-12-12T11:21:38Z</time>
      </trkpt>
      <trkpt lat="48.89137" lon="1.97141">
        <ele>165.52</ele>
        <time>2021-12-12T11:21:49Z</time>
      </trkpt>
      <trkpt lat="48.89128" lon="1.9713">
        <ele>164.59</ele>
        <time>2021-12-12T11:22:01Z</time>
      </trkpt>
      <trkpt lat="48.89121" lon="1.9712">
        <ele>164.75</ele>
        <time>2021-12-12T11:22:10Z</time>
      </trkpt>
      <trkpt lat="48.89112" lon="1.9711">
        <ele>164.37</ele>
        <time>2021-12-12T11:22:20Z</time>
      </trkpt>
      <trkpt lat="48.89102" lon="1.97095">
        <ele>164.55</ele>
        <time>2021-12-12T11:22:33Z</time>
      </trkpt>
      <trkpt lat="48.89093" lon="1.97082">
        <ele>164</ele>
        <time>2021-12-12T11:22:46Z</time>
      </trkpt>
      <trkpt lat="48.89086" lon="1.97071">
        <ele>164.62</ele>
        <time>2021-12-12T11:22:56Z</time>
      </trkpt>
      <trkpt lat="48.89081" lon="1.97061">
        <ele>164.65</ele>
        <time>2021-12-12T11:23:04Z</time>
      </trkpt>
      <trkpt lat="48.89079" lon="1.97054">
        <ele>164.47</ele>
        <time>2021-12-12T11:23:08Z</time>
      </trkpt>
      <trkpt lat="48.89071" lon="1.97036">
        <ele>164.7</ele>
        <time>2021-12-12T11:23:22Z</time>
      </trkpt>
      <trkpt lat="48.89063" lon="1.9702">
        <ele>164.7</ele>
        <time>2021-12-12T11:23:34Z</time>
      </trkpt>
      <trkpt lat="48.89056" lon="1.97007">
        <ele>164.56</ele>
        <time>2021-12-12T11:23:45Z</time>
      </trkpt>
      <trkpt lat="48.8905" lon="1.96995">
        <ele>164.39</ele>
        <time>2021-12-12T11:23:58Z</time>
      </trkpt>
      <trkpt lat="48.89043" lon="1.96982">
        <ele>164.79</ele>
        <time>2021-12-12T11:24:12Z</time>
      </trkpt>
      <trkpt lat="48.89038" lon="1.96975">
        <ele>165.16</ele>
        <time>2021-12-12T11:24:23Z</time>
      </trkpt>
      <trkpt lat="48.89034" lon="1.96972">
        <ele>165.36</ele>
        <time>2021-12-12T11:24:35Z</time>
      </trkpt>
      <trkpt lat="48.89029" lon="1.96973">
        <ele>164.59</ele>
        <time>2021-12-12T11:24:50Z</time>
      </trkpt>
      <trkpt lat="48.89025" lon="1.96969">
        <ele>165</ele>
        <time>2021-12-12T11:24:59Z</time>
      </trkpt>
      <trkpt lat="48.89022" lon="1.96959">
        <ele>164.52</ele>
        <time>2021-12-12T11:25:07Z</time>
      </trkpt>
      <trkpt lat="48.89014" lon="1.96947">
        <ele>165.16</ele>
        <time>2021-12-12T11:25:19Z</time>
      </trkpt>
      <trkpt lat="48.89006" lon="1.96936">
        <ele>165.19</ele>
        <time>2021-12-12T11:25:31Z</time>
      </trkpt>
      <trkpt lat="48.88997" lon="1.96924">
        <ele>165.83</ele>
        <time>2021-12-12T11:25:43Z</time>
      </trkpt>
      <trkpt lat="48.88989" lon="1.96914">
        <ele>165.52</ele>
        <time>2021-12-12T11:25:53Z</time>
      </trkpt>
      <trkpt lat="48.8898" lon="1.96903">
        <ele>165.69</ele>
        <time>2021-12-12T11:26:05Z</time>
      </trkpt>
      <trkpt lat="48.88969" lon="1.9689">
        <ele>166.11</ele>
        <time>2021-12-12T11:26:19Z</time>
      </trkpt>
      <trkpt lat="48.88962" lon="1.96878">
        <ele>166.79</ele>
        <time>2021-12-12T11:26:31Z</time>
      </trkpt>
      <trkpt lat="48.88952" lon="1.96866">
        <ele>166.14</ele>
        <time>2021-12-12T11:26:43Z</time>
      </trkpt>
      <trkpt lat="48.88946" lon="1.96857">
        <ele>166.72</ele>
        <time>2021-12-12T11:26:53Z</time>
      </trkpt>
      <trkpt lat="48.88936" lon="1.96843">
        <ele>166.75</ele>
        <time>2021-12-12T11:27:07Z</time>
      </trkpt>
      <trkpt lat="48.88929" lon="1.96833">
        <ele>166.99</ele>
        <time>2021-12-12T11:27:21Z</time>
      </trkpt>
      <trkpt lat="48.88918" lon="1.96813">
        <ele>166.83</ele>
        <time>2021-12-12T11:27:38Z</time>
      </trkpt>
      <trkpt lat="48.88914" lon="1.96807">
        <ele>167.22</ele>
        <time>2021-12-12T11:27:53Z</time>
      </trkpt>
      <trkpt lat="48.88913" lon="1.96807">
        <ele>167.14</ele>
        <time>2021-12-12T11:28:38Z</time>
      </trkpt>
      <trkpt lat="48.88913" lon="1.96806">
        <ele>167.17</ele>
        <time>2021-12-12T11:30:07Z</time>
      </trkpt>
      <trkpt lat="48.8891" lon="1.96802">
        <ele>167.17</ele>
        <time>2021-12-12T11:31:05Z</time>
      </trkpt>
      <trkpt lat="48.88911" lon="1.96802">
        <ele>170.9</ele>
        <time>2021-12-12T12:09:30Z</time>
      </trkpt>
      <trkpt lat="48.88911" lon="1.96802">
        <ele>170.68</ele>
        <time>2021-12-12T12:10:05Z</time>
      </trkpt>
      <trkpt lat="48.88906" lon="1.96794">
        <ele>170.67</ele>
        <time>2021-12-12T12:10:41Z</time>
      </trkpt>
      <trkpt lat="48.88902" lon="1.96787">
        <ele>171.05</ele>
        <time>2021-12-12T12:10:59Z</time>
      </trkpt>
      <trkpt lat="48.88898" lon="1.96779">
        <ele>170.76</ele>
        <time>2021-12-12T12:11:16Z</time>
      </trkpt>
      <trkpt lat="48.88888" lon="1.96765">
        <ele>170.57</ele>
        <time>2021-12-12T12:11:32Z</time>
      </trkpt>
      <trkpt lat="48.88883" lon="1.96758">
        <ele>170.65</ele>
        <time>2021-12-12T12:11:39Z</time>
      </trkpt>
      <trkpt lat="48.88875" lon="1.96746">
        <ele>171.1</ele>
        <time>2021-12-12T12:11:50Z</time>
      </trkpt>
      <trkpt lat="48.88874" lon="1.96744">
        <ele>171.16</ele>
        <time>2021-12-12T12:11:52Z</time>
      </trkpt>
      <trkpt lat="48.88868" lon="1.96736">
        <ele>171.59</ele>
        <time>2021-12-12T12:12:01Z</time>
      </trkpt>
      <trkpt lat="48.88862" lon="1.96725">
        <ele>170.96</ele>
        <time>2021-12-12T12:12:13Z</time>
      </trkpt>
      <trkpt lat="48.88859" lon="1.9672">
        <ele>171.53</ele>
        <time>2021-12-12T12:12:17Z</time>
      </trkpt>
      <trkpt lat="48.8885" lon="1.96705">
        <ele>171.49</ele>
        <time>2021-12-12T12:12:31Z</time>
      </trkpt>
      <trkpt lat="48.88846" lon="1.96699">
        <ele>171.47</ele>
        <time>2021-12-12T12:12:43Z</time>
      </trkpt>
      <trkpt lat="48.88842" lon="1.9669">
        <ele>171.64</ele>
        <time>2021-12-12T12:12:57Z</time>
      </trkpt>
      <trkpt lat="48.88835" lon="1.96685">
        <ele>171.48</ele>
        <time>2021-12-12T12:13:13Z</time>
      </trkpt>
      <trkpt lat="48.88829" lon="1.9668">
        <ele>170.72</ele>
        <time>2021-12-12T12:13:25Z</time>
      </trkpt>
      <trkpt lat="48.88829" lon="1.96675">
        <ele>171.84</ele>
        <time>2021-12-12T12:13:37Z</time>
      </trkpt>
      <trkpt lat="48.88826" lon="1.96669">
        <ele>171.93</ele>
        <time>2021-12-12T12:13:50Z</time>
      </trkpt>
      <trkpt lat="48.88817" lon="1.96657">
        <ele>171.68</ele>
        <time>2021-12-12T12:14:06Z</time>
      </trkpt>
      <trkpt lat="48.88813" lon="1.96651">
        <ele>171.87</ele>
        <time>2021-12-12T12:14:12Z</time>
      </trkpt>
      <trkpt lat="48.88804" lon="1.9664">
        <ele>172.1</ele>
        <time>2021-12-12T12:14:26Z</time>
      </trkpt>
      <trkpt lat="48.888" lon="1.96632">
        <ele>171.97</ele>
        <time>2021-12-12T12:14:35Z</time>
      </trkpt>
      <trkpt lat="48.88792" lon="1.96615">
        <ele>172.22</ele>
        <time>2021-12-12T12:14:47Z</time>
      </trkpt>
      <trkpt lat="48.88785" lon="1.96602">
        <ele>172.29</ele>
        <time>2021-12-12T12:14:59Z</time>
      </trkpt>
      <trkpt lat="48.88778" lon="1.96591">
        <ele>171.75</ele>
        <time>2021-12-12T12:15:12Z</time>
      </trkpt>
      <trkpt lat="48.88772" lon="1.96579">
        <ele>172.43</ele>
        <time>2021-12-12T12:15:25Z</time>
      </trkpt>
      <trkpt lat="48.88764" lon="1.96573">
        <ele>172.64</ele>
        <time>2021-12-12T12:15:39Z</time>
      </trkpt>
      <trkpt lat="48.88762" lon="1.96571">
        <ele>173.22</ele>
        <time>2021-12-12T12:15:51Z</time>
      </trkpt>
      <trkpt lat="48.88764" lon="1.96568">
        <ele>173.44</ele>
        <time>2021-12-12T12:16:10Z</time>
      </trkpt>
      <trkpt lat="48.88766" lon="1.96569">
        <ele>172.46</ele>
        <time>2021-12-12T12:16:28Z</time>
      </trkpt>
      <trkpt lat="48.88766" lon="1.96568">
        <ele>172.9</ele>
        <time>2021-12-12T12:16:50Z</time>
      </trkpt>
      <trkpt lat="48.88765" lon="1.96569">
        <ele>173.33</ele>
        <time>2021-12-12T12:17:06Z</time>
      </trkpt>
      <trkpt lat="48.88763" lon="1.96571">
        <ele>172.92</ele>
        <time>2021-12-12T12:17:24Z</time>
      </trkpt>
      <trkpt lat="48.88763" lon="1.96571">
        <ele>173.26</ele>
        <time>2021-12-12T12:17:38Z</time>
      </trkpt>
      <trkpt lat="48.88764" lon="1.96562">
        <ele>172.71</ele>
        <time>2021-12-12T12:17:55Z</time>
      </trkpt>
      <trkpt lat="48.88763" lon="1.96554">
        <ele>172.49</ele>
        <time>2021-12-12T12:18:06Z</time>
      </trkpt>
      <trkpt lat="48.88757" lon="1.96539">
        <ele>172.9</ele>
        <time>2021-12-12T12:18:19Z</time>
      </trkpt>
      <trkpt lat="48.88752" lon="1.96526">
        <ele>173.27</ele>
        <time>2021-12-12T12:18:31Z</time>
      </trkpt>
      <trkpt lat="48.88748" lon="1.96519">
        <ele>172.99</ele>
        <time>2021-12-12T12:18:48Z</time>
      </trkpt>
      <trkpt lat="48.88747" lon="1.96514">
        <ele>173.25</ele>
        <time>2021-12-12T12:18:55Z</time>
      </trkpt>
      <trkpt lat="48.88743" lon="1.96507">
        <ele>173.23</ele>
        <time>2021-12-12T12:19:02Z</time>
      </trkpt>
      <trkpt lat="48.88738" lon="1.96492">
        <ele>173.22</ele>
        <time>2021-12-12T12:19:13Z</time>
      </trkpt>
      <trkpt lat="48.88733" lon="1.96477">
        <ele>173.1</ele>
        <time>2021-12-12T12:19:25Z</time>
      </trkpt>
      <trkpt lat="48.88728" lon="1.96465">
        <ele>173.29</ele>
        <time>2021-12-12T12:19:34Z</time>
      </trkpt>
      <trkpt lat="48.88727" lon="1.96462">
        <ele>173.37</ele>
        <time>2021-12-12T12:19:37Z</time>
      </trkpt>
      <trkpt lat="48.88727" lon="1.96459">
        <ele>173.45</ele>
        <time>2021-12-12T12:19:39Z</time>
      </trkpt>
      <trkpt lat="48.88723" lon="1.9645">
        <ele>172.94</ele>
        <time>2021-12-12T12:19:48Z</time>
      </trkpt>
      <trkpt lat="48.88722" lon="1.96446">
        <ele>173.52</ele>
        <time>2021-12-12T12:19:51Z</time>
      </trkpt>
      <trkpt lat="48.88714" lon="1.96428">
        <ele>173.32</ele>
        <time>2021-12-12T12:20:04Z</time>
      </trkpt>
      <trkpt lat="48.88707" lon="1.96412">
        <ele>173.21</ele>
        <time>2021-12-12T12:20:16Z</time>
      </trkpt>
      <trkpt lat="48.88701" lon="1.96397">
        <ele>173.61</ele>
        <time>2021-12-12T12:20:28Z</time>
      </trkpt>
      <trkpt lat="48.88701" lon="1.96395">
        <ele>173.88</ele>
        <time>2021-12-12T12:20:31Z</time>
      </trkpt>
      <trkpt lat="48.887" lon="1.96389">
        <ele>173.14</ele>
        <time>2021-12-12T12:20:35Z</time>
      </trkpt>
      <trkpt lat="48.88692" lon="1.96375">
        <ele>173.36</ele>
        <time>2021-12-12T12:20:47Z</time>
      </trkpt>
      <trkpt lat="48.88684" lon="1.96361">
        <ele>173.6</ele>
        <time>2021-12-12T12:20:58Z</time>
      </trkpt>
      <trkpt lat="48.88676" lon="1.96346">
        <ele>173.51</ele>
        <time>2021-12-12T12:21:08Z</time>
      </trkpt>
      <trkpt lat="48.88667" lon="1.96328">
        <ele>174.23</ele>
        <time>2021-12-12T12:21:21Z</time>
      </trkpt>
      <trkpt lat="48.88659" lon="1.9631">
        <ele>174.15</ele>
        <time>2021-12-12T12:21:34Z</time>
      </trkpt>
      <trkpt lat="48.88652" lon="1.963">
        <ele>174.29</ele>
        <time>2021-12-12T12:21:44Z</time>
      </trkpt>
      <trkpt lat="48.88647" lon="1.96291">
        <ele>174.88</ele>
        <time>2021-12-12T12:21:53Z</time>
      </trkpt>
      <trkpt lat="48.88639" lon="1.96277">
        <ele>174.81</ele>
        <time>2021-12-12T12:22:07Z</time>
      </trkpt>
      <trkpt lat="48.88632" lon="1.96265">
        <ele>174.6</ele>
        <time>2021-12-12T12:22:18Z</time>
      </trkpt>
      <trkpt lat="48.88625" lon="1.96253">
        <ele>175.16</ele>
        <time>2021-12-12T12:22:29Z</time>
      </trkpt>
      <trkpt lat="48.88617" lon="1.96239">
        <ele>174.71</ele>
        <time>2021-12-12T12:22:41Z</time>
      </trkpt>
      <trkpt lat="48.88605" lon="1.96217">
        <ele>174.47</ele>
        <time>2021-12-12T12:23:00Z</time>
      </trkpt>
      <trkpt lat="48.88597" lon="1.96203">
        <ele>174.56</ele>
        <time>2021-12-12T12:23:12Z</time>
      </trkpt>
      <trkpt lat="48.88587" lon="1.96183">
        <ele>174.23</ele>
        <time>2021-12-12T12:23:27Z</time>
      </trkpt>
      <trkpt lat="48.88578" lon="1.96169">
        <ele>174.48</ele>
        <time>2021-12-12T12:23:39Z</time>
      </trkpt>
      <trkpt lat="48.88571" lon="1.96156">
        <ele>174.43</ele>
        <time>2021-12-12T12:23:49Z</time>
      </trkpt>
      <trkpt lat="48.88562" lon="1.96142">
        <ele>174.02</ele>
        <time>2021-12-12T12:24:01Z</time>
      </trkpt>
      <trkpt lat="48.88555" lon="1.96129">
        <ele>174.11</ele>
        <time>2021-12-12T12:24:12Z</time>
      </trkpt>
      <trkpt lat="48.88545" lon="1.96116">
        <ele>174.11</ele>
        <time>2021-12-12T12:24:25Z</time>
      </trkpt>
      <trkpt lat="48.88533" lon="1.96101">
        <ele>173.94</ele>
        <time>2021-12-12T12:24:39Z</time>
      </trkpt>
      <trkpt lat="48.88524" lon="1.96092">
        <ele>173.86</ele>
        <time>2021-12-12T12:24:50Z</time>
      </trkpt>
      <trkpt lat="48.88516" lon="1.96082">
        <ele>173.84</ele>
        <time>2021-12-12T12:24:59Z</time>
      </trkpt>
      <trkpt lat="48.88504" lon="1.9607">
        <ele>174.03</ele>
        <time>2021-12-12T12:25:13Z</time>
      </trkpt>
      <trkpt lat="48.88492" lon="1.96057">
        <ele>173.82</ele>
        <time>2021-12-12T12:25:26Z</time>
      </trkpt>
      <trkpt lat="48.88483" lon="1.96046">
        <ele>172.9</ele>
        <time>2021-12-12T12:25:37Z</time>
      </trkpt>
      <trkpt lat="48.88473" lon="1.96033">
        <ele>173.16</ele>
        <time>2021-12-12T12:25:49Z</time>
      </trkpt>
      <trkpt lat="48.88466" lon="1.96024">
        <ele>173.02</ele>
        <time>2021-12-12T12:25:57Z</time>
      </trkpt>
      <trkpt lat="48.88457" lon="1.96008">
        <ele>172.97</ele>
        <time>2021-12-12T12:26:09Z</time>
      </trkpt>
      <trkpt lat="48.88451" lon="1.96">
        <ele>172.84</ele>
        <time>2021-12-12T12:26:17Z</time>
      </trkpt>
      <trkpt lat="48.88444" lon="1.9599">
        <ele>172.02</ele>
        <time>2021-12-12T12:26:27Z</time>
      </trkpt>
      <trkpt lat="48.88438" lon="1.95979">
        <ele>170.83</ele>
        <time>2021-12-12T12:26:38Z</time>
      </trkpt>
      <trkpt lat="48.88431" lon="1.95963">
        <ele>170.95</ele>
        <time>2021-12-12T12:26:52Z</time>
      </trkpt>
      <trkpt lat="48.88421" lon="1.95945">
        <ele>170.39</ele>
        <time>2021-12-12T12:27:09Z</time>
      </trkpt>
      <trkpt lat="48.88412" lon="1.95932">
        <ele>170.24</ele>
        <time>2021-12-12T12:27:23Z</time>
      </trkpt>
      <trkpt lat="48.88402" lon="1.95917">
        <ele>169.62</ele>
        <time>2021-12-12T12:27:40Z</time>
      </trkpt>
      <trkpt lat="48.88391" lon="1.95897">
        <ele>169.61</ele>
        <time>2021-12-12T12:27:55Z</time>
      </trkpt>
      <trkpt lat="48.88376" lon="1.95885">
        <ele>170.16</ele>
        <time>2021-12-12T12:28:11Z</time>
      </trkpt>
      <trkpt lat="48.88365" lon="1.95878">
        <ele>170.31</ele>
        <time>2021-12-12T12:28:23Z</time>
      </trkpt>
      <trkpt lat="48.88354" lon="1.95872">
        <ele>170.86</ele>
        <time>2021-12-12T12:28:37Z</time>
      </trkpt>
      <trkpt lat="48.88352" lon="1.9587">
        <ele>170.92</ele>
        <time>2021-12-12T12:28:40Z</time>
      </trkpt>
      <trkpt lat="48.88343" lon="1.9586">
        <ele>171.35</ele>
        <time>2021-12-12T12:28:52Z</time>
      </trkpt>
      <trkpt lat="48.88332" lon="1.95849">
        <ele>172.07</ele>
        <time>2021-12-12T12:29:08Z</time>
      </trkpt>
      <trkpt lat="48.88322" lon="1.95838">
        <ele>173.24</ele>
        <time>2021-12-12T12:29:24Z</time>
      </trkpt>
      <trkpt lat="48.88312" lon="1.95822">
        <ele>174.23</ele>
        <time>2021-12-12T12:29:41Z</time>
      </trkpt>
      <trkpt lat="48.88303" lon="1.95806">
        <ele>175.81</ele>
        <time>2021-12-12T12:29:58Z</time>
      </trkpt>
      <trkpt lat="48.88293" lon="1.9579">
        <ele>176.14</ele>
        <time>2021-12-12T12:30:15Z</time>
      </trkpt>
      <trkpt lat="48.8828" lon="1.95781">
        <ele>176.74</ele>
        <time>2021-12-12T12:30:30Z</time>
      </trkpt>
      <trkpt lat="48.88273" lon="1.95777">
        <ele>177.06</ele>
        <time>2021-12-12T12:30:49Z</time>
      </trkpt>
      <trkpt lat="48.88267" lon="1.95773">
        <ele>177.49</ele>
        <time>2021-12-12T12:31:05Z</time>
      </trkpt>
      <trkpt lat="48.88257" lon="1.95772">
        <ele>177.56</ele>
        <time>2021-12-12T12:31:20Z</time>
      </trkpt>
      <trkpt lat="48.88249" lon="1.9577">
        <ele>176.82</ele>
        <time>2021-12-12T12:31:38Z</time>
      </trkpt>
      <trkpt lat="48.88245" lon="1.95769">
        <ele>176.84</ele>
        <time>2021-12-12T12:31:54Z</time>
      </trkpt>
      <trkpt lat="48.88239" lon="1.95772">
        <ele>176.47</ele>
        <time>2021-12-12T12:32:12Z</time>
      </trkpt>
      <trkpt lat="48.88232" lon="1.9577">
        <ele>176.7</ele>
        <time>2021-12-12T12:32:28Z</time>
      </trkpt>
      <trkpt lat="48.88221" lon="1.95771">
        <ele>176.06</ele>
        <time>2021-12-12T12:32:43Z</time>
      </trkpt>
      <trkpt lat="48.88213" lon="1.95777">
        <ele>175.83</ele>
        <time>2021-12-12T12:32:57Z</time>
      </trkpt>
      <trkpt lat="48.88204" lon="1.95788">
        <ele>175.37</ele>
        <time>2021-12-12T12:33:11Z</time>
      </trkpt>
      <trkpt lat="48.88187" lon="1.95803">
        <ele>174.6</ele>
        <time>2021-12-12T12:33:27Z</time>
      </trkpt>
      <trkpt lat="48.8817" lon="1.95804">
        <ele>173.81</ele>
        <time>2021-12-12T12:33:44Z</time>
      </trkpt>
      <trkpt lat="48.88152" lon="1.95801">
        <ele>172.96</ele>
        <time>2021-12-12T12:34:02Z</time>
      </trkpt>
      <trkpt lat="48.88136" lon="1.95801">
        <ele>172.43</ele>
        <time>2021-12-12T12:34:17Z</time>
      </trkpt>
      <trkpt lat="48.88132" lon="1.95799">
        <ele>172.05</ele>
        <time>2021-12-12T12:34:23Z</time>
      </trkpt>
      <trkpt lat="48.88119" lon="1.95806">
        <ele>171.98</ele>
        <time>2021-12-12T12:34:38Z</time>
      </trkpt>
      <trkpt lat="48.88105" lon="1.95814">
        <ele>171.92</ele>
        <time>2021-12-12T12:34:54Z</time>
      </trkpt>
      <trkpt lat="48.88088" lon="1.95823">
        <ele>171.33</ele>
        <time>2021-12-12T12:35:08Z</time>
      </trkpt>
      <trkpt lat="48.88067" lon="1.95831">
        <ele>170.15</ele>
        <time>2021-12-12T12:35:25Z</time>
      </trkpt>
      <trkpt lat="48.88051" lon="1.95836">
        <ele>169.65</ele>
        <time>2021-12-12T12:35:41Z</time>
      </trkpt>
      <trkpt lat="48.88034" lon="1.95843">
        <ele>167.79</ele>
        <time>2021-12-12T12:35:59Z</time>
      </trkpt>
      <trkpt lat="48.88016" lon="1.95854">
        <ele>165.95</ele>
        <time>2021-12-12T12:36:15Z</time>
      </trkpt>
      <trkpt lat="48.88001" lon="1.9586">
        <ele>164.75</ele>
        <time>2021-12-12T12:36:31Z</time>
      </trkpt>
      <trkpt lat="48.87992" lon="1.95855">
        <ele>162.58</ele>
        <time>2021-12-12T12:36:46Z</time>
      </trkpt>
      <trkpt lat="48.87982" lon="1.95841">
        <ele>160.86</ele>
        <time>2021-12-12T12:37:03Z</time>
      </trkpt>
      <trkpt lat="48.87972" lon="1.95834">
        <ele>158.6</ele>
        <time>2021-12-12T12:37:19Z</time>
      </trkpt>
      <trkpt lat="48.8796" lon="1.95825">
        <ele>155.41</ele>
        <time>2021-12-12T12:37:36Z</time>
      </trkpt>
      <trkpt lat="48.8795" lon="1.95813">
        <ele>153.11</ele>
        <time>2021-12-12T12:37:54Z</time>
      </trkpt>
      <trkpt lat="48.87936" lon="1.95801">
        <ele>150.4</ele>
        <time>2021-12-12T12:38:13Z</time>
      </trkpt>
      <trkpt lat="48.87925" lon="1.95788">
        <ele>148.79</ele>
        <time>2021-12-12T12:38:28Z</time>
      </trkpt>
      <trkpt lat="48.87917" lon="1.95778">
        <ele>146.42</ele>
        <time>2021-12-12T12:38:43Z</time>
      </trkpt>
      <trkpt lat="48.87905" lon="1.95768">
        <ele>144.32</ele>
        <time>2021-12-12T12:39:01Z</time>
      </trkpt>
      <trkpt lat="48.8789" lon="1.95761">
        <ele>141.96</ele>
        <time>2021-12-12T12:39:18Z</time>
      </trkpt>
      <trkpt lat="48.87875" lon="1.95752">
        <ele>139.39</ele>
        <time>2021-12-12T12:39:34Z</time>
      </trkpt>
      <trkpt lat="48.87865" lon="1.95745">
        <ele>138.15</ele>
        <time>2021-12-12T12:39:48Z</time>
      </trkpt>
      <trkpt lat="48.87861" lon="1.95742">
        <ele>137.51</ele>
        <time>2021-12-12T12:39:52Z</time>
      </trkpt>
      <trkpt lat="48.87849" lon="1.9573">
        <ele>137.24</ele>
        <time>2021-12-12T12:40:06Z</time>
      </trkpt>
      <trkpt lat="48.87834" lon="1.9572">
        <ele>135.83</ele>
        <time>2021-12-12T12:40:23Z</time>
      </trkpt>
      <trkpt lat="48.87833" lon="1.95718">
        <ele>136.67</ele>
        <time>2021-12-12T12:40:35Z</time>
      </trkpt>
      <trkpt lat="48.87838" lon="1.95721">
        <ele>137.33</ele>
        <time>2021-12-12T12:40:48Z</time>
      </trkpt>
      <trkpt lat="48.87842" lon="1.95723">
        <ele>136.89</ele>
        <time>2021-12-12T12:40:59Z</time>
      </trkpt>
      <trkpt lat="48.87848" lon="1.95727">
        <ele>137.31</ele>
        <time>2021-12-12T12:41:09Z</time>
      </trkpt>
      <trkpt lat="48.87859" lon="1.95741">
        <ele>138.78</ele>
        <time>2021-12-12T12:41:26Z</time>
      </trkpt>
      <trkpt lat="48.87869" lon="1.95749">
        <ele>140.63</ele>
        <time>2021-12-12T12:41:40Z</time>
      </trkpt>
      <trkpt lat="48.87881" lon="1.95756">
        <ele>142.04</ele>
        <time>2021-12-12T12:41:52Z</time>
      </trkpt>
      <trkpt lat="48.87893" lon="1.95761">
        <ele>143.55</ele>
        <time>2021-12-12T12:42:03Z</time>
      </trkpt>
      <trkpt lat="48.87905" lon="1.95767">
        <ele>145.68</ele>
        <time>2021-12-12T12:42:16Z</time>
      </trkpt>
      <trkpt lat="48.87916" lon="1.95777">
        <ele>147.06</ele>
        <time>2021-12-12T12:42:30Z</time>
      </trkpt>
      <trkpt lat="48.87926" lon="1.95789">
        <ele>149.05</ele>
        <time>2021-12-12T12:42:44Z</time>
      </trkpt>
      <trkpt lat="48.87935" lon="1.95801">
        <ele>151.52</ele>
        <time>2021-12-12T12:42:57Z</time>
      </trkpt>
      <trkpt lat="48.87936" lon="1.95803">
        <ele>151.69</ele>
        <time>2021-12-12T12:42:59Z</time>
      </trkpt>
      <trkpt lat="48.87944" lon="1.9581">
        <ele>153.41</ele>
        <time>2021-12-12T12:43:11Z</time>
      </trkpt>
      <trkpt lat="48.87957" lon="1.9582">
        <ele>155.53</ele>
        <time>2021-12-12T12:43:27Z</time>
      </trkpt>
      <trkpt lat="48.8797" lon="1.95828">
        <ele>157.79</ele>
        <time>2021-12-12T12:43:42Z</time>
      </trkpt>
      <trkpt lat="48.87977" lon="1.95842">
        <ele>160.95</ele>
        <time>2021-12-12T12:44:00Z</time>
      </trkpt>
      <trkpt lat="48.8799" lon="1.95856">
        <ele>162.13</ele>
        <time>2021-12-12T12:44:12Z</time>
      </trkpt>
      <trkpt lat="48.87999" lon="1.95861">
        <ele>164.71</ele>
        <time>2021-12-12T12:44:27Z</time>
      </trkpt>
      <trkpt lat="48.88011" lon="1.95855">
        <ele>165.98</ele>
        <time>2021-12-12T12:44:42Z</time>
      </trkpt>
      <trkpt lat="48.88025" lon="1.95846">
        <ele>166.98</ele>
        <time>2021-12-12T12:44:57Z</time>
      </trkpt>
      <trkpt lat="48.88039" lon="1.95839">
        <ele>167.53</ele>
        <time>2021-12-12T12:45:11Z</time>
      </trkpt>
      <trkpt lat="48.88053" lon="1.95832">
        <ele>167.88</ele>
        <time>2021-12-12T12:45:25Z</time>
      </trkpt>
      <trkpt lat="48.88066" lon="1.95831">
        <ele>168.8</ele>
        <time>2021-12-12T12:45:39Z</time>
      </trkpt>
      <trkpt lat="48.88082" lon="1.95825">
        <ele>169.7</ele>
        <time>2021-12-12T12:45:54Z</time>
      </trkpt>
      <trkpt lat="48.88095" lon="1.95817">
        <ele>169.06</ele>
        <time>2021-12-12T12:46:09Z</time>
      </trkpt>
      <trkpt lat="48.88109" lon="1.95807">
        <ele>168.62</ele>
        <time>2021-12-12T12:46:25Z</time>
      </trkpt>
      <trkpt lat="48.88118" lon="1.95802">
        <ele>169.39</ele>
        <time>2021-12-12T12:46:38Z</time>
      </trkpt>
      <trkpt lat="48.88135" lon="1.95799">
        <ele>169.6</ele>
        <time>2021-12-12T12:46:53Z</time>
      </trkpt>
      <trkpt lat="48.88151" lon="1.95802">
        <ele>170.09</ele>
        <time>2021-12-12T12:47:07Z</time>
      </trkpt>
      <trkpt lat="48.8817" lon="1.95805">
        <ele>170.81</ele>
        <time>2021-12-12T12:47:22Z</time>
      </trkpt>
      <trkpt lat="48.88184" lon="1.95801">
        <ele>171.78</ele>
        <time>2021-12-12T12:47:35Z</time>
      </trkpt>
      <trkpt lat="48.88199" lon="1.95788">
        <ele>172.27</ele>
        <time>2021-12-12T12:47:51Z</time>
      </trkpt>
      <trkpt lat="48.88215" lon="1.95772">
        <ele>172.57</ele>
        <time>2021-12-12T12:48:07Z</time>
      </trkpt>
      <trkpt lat="48.88229" lon="1.95767">
        <ele>172.83</ele>
        <time>2021-12-12T12:48:24Z</time>
      </trkpt>
      <trkpt lat="48.88237" lon="1.95769">
        <ele>172.77</ele>
        <time>2021-12-12T12:48:38Z</time>
      </trkpt>
      <trkpt lat="48.88244" lon="1.95771">
        <ele>172.99</ele>
        <time>2021-12-12T12:48:56Z</time>
      </trkpt>
      <trkpt lat="48.88257" lon="1.95772">
        <ele>172.38</ele>
        <time>2021-12-12T12:49:11Z</time>
      </trkpt>
      <trkpt lat="48.88277" lon="1.95778">
        <ele>172.55</ele>
        <time>2021-12-12T12:49:26Z</time>
      </trkpt>
      <trkpt lat="48.88289" lon="1.95774">
        <ele>172.36</ele>
        <time>2021-12-12T12:49:40Z</time>
      </trkpt>
      <trkpt lat="48.883" lon="1.95768">
        <ele>172.27</ele>
        <time>2021-12-12T12:49:55Z</time>
      </trkpt>
      <trkpt lat="48.88318" lon="1.95759">
        <ele>172.32</ele>
        <time>2021-12-12T12:50:13Z</time>
      </trkpt>
      <trkpt lat="48.88324" lon="1.95745">
        <ele>172.62</ele>
        <time>2021-12-12T12:50:29Z</time>
      </trkpt>
      <trkpt lat="48.88332" lon="1.95729">
        <ele>173.48</ele>
        <time>2021-12-12T12:50:43Z</time>
      </trkpt>
      <trkpt lat="48.8834" lon="1.9571">
        <ele>173.12</ele>
        <time>2021-12-12T12:50:57Z</time>
      </trkpt>
      <trkpt lat="48.88349" lon="1.9569">
        <ele>172.76</ele>
        <time>2021-12-12T12:51:13Z</time>
      </trkpt>
      <trkpt lat="48.88358" lon="1.95667">
        <ele>173.25</ele>
        <time>2021-12-12T12:51:29Z</time>
      </trkpt>
      <trkpt lat="48.88366" lon="1.95643">
        <ele>173.21</ele>
        <time>2021-12-12T12:51:47Z</time>
      </trkpt>
      <trkpt lat="48.88371" lon="1.9563">
        <ele>173.04</ele>
        <time>2021-12-12T12:52:05Z</time>
      </trkpt>
      <trkpt lat="48.88375" lon="1.95622">
        <ele>173.07</ele>
        <time>2021-12-12T12:52:19Z</time>
      </trkpt>
      <trkpt lat="48.8838" lon="1.95609">
        <ele>172.31</ele>
        <time>2021-12-12T12:52:35Z</time>
      </trkpt>
      <trkpt lat="48.8838" lon="1.95609">
        <ele>172.26</ele>
        <time>2021-12-12T12:52:36Z</time>
      </trkpt>
      <trkpt lat="48.88383" lon="1.95608">
        <ele>172.48</ele>
        <time>2021-12-12T12:52:47Z</time>
      </trkpt>
      <trkpt lat="48.88386" lon="1.95602">
        <ele>172.35</ele>
        <time>2021-12-12T12:53:05Z</time>
      </trkpt>
      <trkpt lat="48.88389" lon="1.95592">
        <ele>172.35</ele>
        <time>2021-12-12T12:53:20Z</time>
      </trkpt>
      <trkpt lat="48.88394" lon="1.95582">
        <ele>172.36</ele>
        <time>2021-12-12T12:53:37Z</time>
      </trkpt>
      <trkpt lat="48.88396" lon="1.9556">
        <ele>172.53</ele>
        <time>2021-12-12T12:53:53Z</time>
      </trkpt>
      <trkpt lat="48.88399" lon="1.95544">
        <ele>172.14</ele>
        <time>2021-12-12T12:54:07Z</time>
      </trkpt>
      <trkpt lat="48.88402" lon="1.95521">
        <ele>172.39</ele>
        <time>2021-12-12T12:54:21Z</time>
      </trkpt>
      <trkpt lat="48.88412" lon="1.95493">
        <ele>172.91</ele>
        <time>2021-12-12T12:54:39Z</time>
      </trkpt>
      <trkpt lat="48.88423" lon="1.9547">
        <ele>172.18</ele>
        <time>2021-12-12T12:54:54Z</time>
      </trkpt>
      <trkpt lat="48.88427" lon="1.95465">
        <ele>172.9</ele>
        <time>2021-12-12T12:55:04Z</time>
      </trkpt>
      <trkpt lat="48.88429" lon="1.95456">
        <ele>171.98</ele>
        <time>2021-12-12T12:55:11Z</time>
      </trkpt>
      <trkpt lat="48.88438" lon="1.95439">
        <ele>172.66</ele>
        <time>2021-12-12T12:55:26Z</time>
      </trkpt>
      <trkpt lat="48.88441" lon="1.95425">
        <ele>172.42</ele>
        <time>2021-12-12T12:55:40Z</time>
      </trkpt>
      <trkpt lat="48.88445" lon="1.95403">
        <ele>172.05</ele>
        <time>2021-12-12T12:55:58Z</time>
      </trkpt>
      <trkpt lat="48.88449" lon="1.9539">
        <ele>172.57</ele>
        <time>2021-12-12T12:56:13Z</time>
      </trkpt>
      <trkpt lat="48.8845" lon="1.95387">
        <ele>172.48</ele>
        <time>2021-12-12T12:56:21Z</time>
      </trkpt>
      <trkpt lat="48.88454" lon="1.95379">
        <ele>172.39</ele>
        <time>2021-12-12T12:56:32Z</time>
      </trkpt>
      <trkpt lat="48.88458" lon="1.95371">
        <ele>173.09</ele>
        <time>2021-12-12T12:56:41Z</time>
      </trkpt>
      <trkpt lat="48.8846" lon="1.95363">
        <ele>173.03</ele>
        <time>2021-12-12T12:56:50Z</time>
      </trkpt>
      <trkpt lat="48.8846" lon="1.95357">
        <ele>172.73</ele>
        <time>2021-12-12T12:57:06Z</time>
      </trkpt>
      <trkpt lat="48.88466" lon="1.95356">
        <ele>172.95</ele>
        <time>2021-12-12T12:57:20Z</time>
      </trkpt>
      <trkpt lat="48.88468" lon="1.95345">
        <ele>172.67</ele>
        <time>2021-12-12T12:57:36Z</time>
      </trkpt>
      <trkpt lat="48.88468" lon="1.95327">
        <ele>172.74</ele>
        <time>2021-12-12T12:57:52Z</time>
      </trkpt>
      <trkpt lat="48.88471" lon="1.95314">
        <ele>172.94</ele>
        <time>2021-12-12T12:58:07Z</time>
      </trkpt>
      <trkpt lat="48.88471" lon="1.95302">
        <ele>173.42</ele>
        <time>2021-12-12T12:58:16Z</time>
      </trkpt>
      <trkpt lat="48.88481" lon="1.95286">
        <ele>173.59</ele>
        <time>2021-12-12T12:58:34Z</time>
      </trkpt>
      <trkpt lat="48.88483" lon="1.95283">
        <ele>173.95</ele>
        <time>2021-12-12T12:58:41Z</time>
      </trkpt>
      <trkpt lat="48.88498" lon="1.95265">
        <ele>173.85</ele>
        <time>2021-12-12T12:58:57Z</time>
      </trkpt>
      <trkpt lat="48.88504" lon="1.95249">
        <ele>173.86</ele>
        <time>2021-12-12T12:59:12Z</time>
      </trkpt>
      <trkpt lat="48.8851" lon="1.95229">
        <ele>173.76</ele>
        <time>2021-12-12T12:59:29Z</time>
      </trkpt>
      <trkpt lat="48.88515" lon="1.9521">
        <ele>174.42</ele>
        <time>2021-12-12T12:59:45Z</time>
      </trkpt>
      <trkpt lat="48.88519" lon="1.952">
        <ele>174.56</ele>
        <time>2021-12-12T13:00:00Z</time>
      </trkpt>
      <trkpt lat="48.88524" lon="1.95186">
        <ele>174.41</ele>
        <time>2021-12-12T13:00:17Z</time>
      </trkpt>
      <trkpt lat="48.88527" lon="1.95169">
        <ele>174.34</ele>
        <time>2021-12-12T13:00:31Z</time>
      </trkpt>
      <trkpt lat="48.88536" lon="1.95156">
        <ele>175.1</ele>
        <time>2021-12-12T13:00:46Z</time>
      </trkpt>
      <trkpt lat="48.88541" lon="1.95139">
        <ele>175.33</ele>
        <time>2021-12-12T13:01:01Z</time>
      </trkpt>
      <trkpt lat="48.88546" lon="1.95136">
        <ele>175.13</ele>
        <time>2021-12-12T13:01:17Z</time>
      </trkpt>
      <trkpt lat="48.88548" lon="1.95128">
        <ele>175.69</ele>
        <time>2021-12-12T13:01:32Z</time>
      </trkpt>
      <trkpt lat="48.88553" lon="1.95119">
        <ele>175.58</ele>
        <time>2021-12-12T13:01:48Z</time>
      </trkpt>
      <trkpt lat="48.88558" lon="1.95105">
        <ele>175.87</ele>
        <time>2021-12-12T13:02:03Z</time>
      </trkpt>
      <trkpt lat="48.88559" lon="1.95101">
        <ele>175.64</ele>
        <time>2021-12-12T13:02:15Z</time>
      </trkpt>
      <trkpt lat="48.8856" lon="1.95093">
        <ele>175.54</ele>
        <time>2021-12-12T13:02:34Z</time>
      </trkpt>
      <trkpt lat="48.88568" lon="1.95081">
        <ele>175.72</ele>
        <time>2021-12-12T13:02:49Z</time>
      </trkpt>
      <trkpt lat="48.88577" lon="1.95078">
        <ele>175.59</ele>
        <time>2021-12-12T13:03:04Z</time>
      </trkpt>
      <trkpt lat="48.88588" lon="1.95084">
        <ele>175.73</ele>
        <time>2021-12-12T13:03:17Z</time>
      </trkpt>
      <trkpt lat="48.88603" lon="1.95092">
        <ele>175.49</ele>
        <time>2021-12-12T13:03:33Z</time>
      </trkpt>
      <trkpt lat="48.88613" lon="1.951">
        <ele>175.52</ele>
        <time>2021-12-12T13:03:48Z</time>
      </trkpt>
      <trkpt lat="48.88624" lon="1.95103">
        <ele>175.95</ele>
        <time>2021-12-12T13:04:02Z</time>
      </trkpt>
      <trkpt lat="48.88633" lon="1.95113">
        <ele>176.02</ele>
        <time>2021-12-12T13:04:17Z</time>
      </trkpt>
      <trkpt lat="48.88643" lon="1.95119">
        <ele>175.61</ele>
        <time>2021-12-12T13:04:30Z</time>
      </trkpt>
      <trkpt lat="48.88655" lon="1.95126">
        <ele>175.65</ele>
        <time>2021-12-12T13:04:40Z</time>
      </trkpt>
      <trkpt lat="48.88665" lon="1.95131">
        <ele>175.57</ele>
        <time>2021-12-12T13:04:55Z</time>
      </trkpt>
      <trkpt lat="48.88673" lon="1.95138">
        <ele>175.71</ele>
        <time>2021-12-12T13:05:07Z</time>
      </trkpt>
      <trkpt lat="48.8868" lon="1.95151">
        <ele>175.87</ele>
        <time>2021-12-12T13:05:23Z</time>
      </trkpt>
      <trkpt lat="48.88692" lon="1.95152">
        <ele>175.47</ele>
        <time>2021-12-12T13:05:40Z</time>
      </trkpt>
      <trkpt lat="48.88701" lon="1.95139">
        <ele>175.79</ele>
        <time>2021-12-12T13:05:54Z</time>
      </trkpt>
      <trkpt lat="48.88709" lon="1.95122">
        <ele>176.54</ele>
        <time>2021-12-12T13:06:09Z</time>
      </trkpt>
      <trkpt lat="48.88716" lon="1.95109">
        <ele>176.11</ele>
        <time>2021-12-12T13:06:23Z</time>
      </trkpt>
      <trkpt lat="48.88722" lon="1.95093">
        <ele>176.43</ele>
        <time>2021-12-12T13:06:39Z</time>
      </trkpt>
      <trkpt lat="48.88728" lon="1.95085">
        <ele>176.3</ele>
        <time>2021-12-12T13:06:48Z</time>
      </trkpt>
      <trkpt lat="48.88731" lon="1.95076">
        <ele>176.42</ele>
        <time>2021-12-12T13:07:05Z</time>
      </trkpt>
      <trkpt lat="48.88735" lon="1.9507">
        <ele>176.13</ele>
        <time>2021-12-12T13:07:25Z</time>
      </trkpt>
      <trkpt lat="48.88745" lon="1.9505">
        <ele>176.57</ele>
        <time>2021-12-12T13:07:42Z</time>
      </trkpt>
      <trkpt lat="48.88759" lon="1.95031">
        <ele>176.6</ele>
        <time>2021-12-12T13:07:58Z</time>
      </trkpt>
      <trkpt lat="48.88769" lon="1.95015">
        <ele>177.13</ele>
        <time>2021-12-12T13:08:13Z</time>
      </trkpt>
      <trkpt lat="48.88778" lon="1.95004">
        <ele>177.04</ele>
        <time>2021-12-12T13:08:28Z</time>
      </trkpt>
      <trkpt lat="48.88781" lon="1.95001">
        <ele>177.33</ele>
        <time>2021-12-12T13:08:32Z</time>
      </trkpt>
      <trkpt lat="48.88792" lon="1.94977">
        <ele>176.36</ele>
        <time>2021-12-12T13:08:47Z</time>
      </trkpt>
      <trkpt lat="48.88807" lon="1.94959">
        <ele>176.95</ele>
        <time>2021-12-12T13:09:03Z</time>
      </trkpt>
      <trkpt lat="48.88817" lon="1.94938">
        <ele>176.45</ele>
        <time>2021-12-12T13:09:16Z</time>
      </trkpt>
      <trkpt lat="48.88823" lon="1.9492">
        <ele>176.46</ele>
        <time>2021-12-12T13:09:32Z</time>
      </trkpt>
      <trkpt lat="48.88818" lon="1.94907">
        <ele>176.43</ele>
        <time>2021-12-12T13:09:45Z</time>
      </trkpt>
      <trkpt lat="48.88816" lon="1.94897">
        <ele>176.63</ele>
        <time>2021-12-12T13:09:52Z</time>
      </trkpt>
      <trkpt lat="48.88815" lon="1.94888">
        <ele>176.46</ele>
        <time>2021-12-12T13:10:03Z</time>
      </trkpt>
      <trkpt lat="48.88808" lon="1.9488">
        <ele>176.2</ele>
        <time>2021-12-12T13:10:19Z</time>
      </trkpt>
      <trkpt lat="48.88801" lon="1.94863">
        <ele>176.4</ele>
        <time>2021-12-12T13:10:34Z</time>
      </trkpt>
      <trkpt lat="48.88797" lon="1.94846">
        <ele>176.03</ele>
        <time>2021-12-12T13:10:49Z</time>
      </trkpt>
      <trkpt lat="48.88786" lon="1.94828">
        <ele>175.39</ele>
        <time>2021-12-12T13:11:04Z</time>
      </trkpt>
      <trkpt lat="48.88782" lon="1.94809">
        <ele>174.7</ele>
        <time>2021-12-12T13:11:20Z</time>
      </trkpt>
      <trkpt lat="48.88784" lon="1.94787">
        <ele>174.92</ele>
        <time>2021-12-12T13:11:35Z</time>
      </trkpt>
      <trkpt lat="48.88793" lon="1.94773">
        <ele>174.81</ele>
        <time>2021-12-12T13:11:52Z</time>
      </trkpt>
      <trkpt lat="48.88806" lon="1.94758">
        <ele>175.06</ele>
        <time>2021-12-12T13:12:10Z</time>
      </trkpt>
      <trkpt lat="48.88815" lon="1.94743">
        <ele>175.04</ele>
        <time>2021-12-12T13:12:27Z</time>
      </trkpt>
      <trkpt lat="48.88824" lon="1.94734">
        <ele>175.46</ele>
        <time>2021-12-12T13:12:40Z</time>
      </trkpt>
      <trkpt lat="48.88829" lon="1.94733">
        <ele>174.97</ele>
        <time>2021-12-12T13:12:49Z</time>
      </trkpt>
      <trkpt lat="48.8883" lon="1.94728">
        <ele>175.3</ele>
        <time>2021-12-12T13:12:55Z</time>
      </trkpt>
      <trkpt lat="48.88837" lon="1.94716">
        <ele>175.32</ele>
        <time>2021-12-12T13:13:11Z</time>
      </trkpt>
      <trkpt lat="48.88847" lon="1.94705">
        <ele>174.69</ele>
        <time>2021-12-12T13:13:28Z</time>
      </trkpt>
      <trkpt lat="48.88852" lon="1.94698">
        <ele>174.97</ele>
        <time>2021-12-12T13:13:37Z</time>
      </trkpt>
      <trkpt lat="48.88859" lon="1.94688">
        <ele>174.64</ele>
        <time>2021-12-12T13:13:54Z</time>
      </trkpt>
      <trkpt lat="48.88862" lon="1.94683">
        <ele>174.3</ele>
        <time>2021-12-12T13:14:01Z</time>
      </trkpt>
      <trkpt lat="48.88875" lon="1.94665">
        <ele>174.32</ele>
        <time>2021-12-12T13:14:16Z</time>
      </trkpt>
      <trkpt lat="48.88892" lon="1.94644">
        <ele>174.33</ele>
        <time>2021-12-12T13:14:34Z</time>
      </trkpt>
      <trkpt lat="48.889" lon="1.94631">
        <ele>174.72</ele>
        <time>2021-12-12T13:14:48Z</time>
      </trkpt>
      <trkpt lat="48.88911" lon="1.94621">
        <ele>175.41</ele>
        <time>2021-12-12T13:15:03Z</time>
      </trkpt>
      <trkpt lat="48.8892" lon="1.94606">
        <ele>174.93</ele>
        <time>2021-12-12T13:15:19Z</time>
      </trkpt>
      <trkpt lat="48.88931" lon="1.94591">
        <ele>175.14</ele>
        <time>2021-12-12T13:15:36Z</time>
      </trkpt>
      <trkpt lat="48.88941" lon="1.94581">
        <ele>175.42</ele>
        <time>2021-12-12T13:15:51Z</time>
      </trkpt>
      <trkpt lat="48.88949" lon="1.94567">
        <ele>175.01</ele>
        <time>2021-12-12T13:16:05Z</time>
      </trkpt>
      <trkpt lat="48.88958" lon="1.94554">
        <ele>174.86</ele>
        <time>2021-12-12T13:16:19Z</time>
      </trkpt>
      <trkpt lat="48.88967" lon="1.94537">
        <ele>175.43</ele>
        <time>2021-12-12T13:16:36Z</time>
      </trkpt>
      <trkpt lat="48.8898" lon="1.94523">
        <ele>174.91</ele>
        <time>2021-12-12T13:16:54Z</time>
      </trkpt>
      <trkpt lat="48.88988" lon="1.9451">
        <ele>175.67</ele>
        <time>2021-12-12T13:17:09Z</time>
      </trkpt>
      <trkpt lat="48.88993" lon="1.94495">
        <ele>175.36</ele>
        <time>2021-12-12T13:17:24Z</time>
      </trkpt>
      <trkpt lat="48.89" lon="1.94478">
        <ele>174.78</ele>
        <time>2021-12-12T13:17:39Z</time>
      </trkpt>
      <trkpt lat="48.89012" lon="1.94465">
        <ele>174.66</ele>
        <time>2021-12-12T13:17:56Z</time>
      </trkpt>
      <trkpt lat="48.8902" lon="1.9445">
        <ele>174.32</ele>
        <time>2021-12-12T13:18:12Z</time>
      </trkpt>
      <trkpt lat="48.89026" lon="1.94431">
        <ele>175.41</ele>
        <time>2021-12-12T13:18:29Z</time>
      </trkpt>
      <trkpt lat="48.89035" lon="1.94414">
        <ele>175.22</ele>
        <time>2021-12-12T13:18:43Z</time>
      </trkpt>
      <trkpt lat="48.89038" lon="1.94401">
        <ele>175.08</ele>
        <time>2021-12-12T13:18:57Z</time>
      </trkpt>
      <trkpt lat="48.89044" lon="1.94386">
        <ele>175.63</ele>
        <time>2021-12-12T13:19:12Z</time>
      </trkpt>
      <trkpt lat="48.89052" lon="1.94368">
        <ele>175.42</ele>
        <time>2021-12-12T13:19:26Z</time>
      </trkpt>
      <trkpt lat="48.89061" lon="1.94349">
        <ele>175.28</ele>
        <time>2021-12-12T13:19:43Z</time>
      </trkpt>
      <trkpt lat="48.89068" lon="1.94333">
        <ele>175.59</ele>
        <time>2021-12-12T13:19:56Z</time>
      </trkpt>
      <trkpt lat="48.89071" lon="1.94318">
        <ele>174.89</ele>
        <time>2021-12-12T13:20:11Z</time>
      </trkpt>
      <trkpt lat="48.89075" lon="1.94298">
        <ele>173.56</ele>
        <time>2021-12-12T13:20:25Z</time>
      </trkpt>
      <trkpt lat="48.89085" lon="1.94285">
        <ele>173.66</ele>
        <time>2021-12-12T13:20:38Z</time>
      </trkpt>
      <trkpt lat="48.89095" lon="1.94283">
        <ele>174.69</ele>
        <time>2021-12-12T13:20:49Z</time>
      </trkpt>
      <trkpt lat="48.89098" lon="1.94285">
        <ele>174.95</ele>
        <time>2021-12-12T13:20:51Z</time>
      </trkpt>
      <trkpt lat="48.89109" lon="1.94294">
        <ele>175.33</ele>
        <time>2021-12-12T13:21:01Z</time>
      </trkpt>
      <trkpt lat="48.89117" lon="1.94302">
        <ele>175.31</ele>
        <time>2021-12-12T13:21:16Z</time>
      </trkpt>
      <trkpt lat="48.89119" lon="1.94299">
        <ele>175.46</ele>
        <time>2021-12-12T13:21:36Z</time>
      </trkpt>
      <trkpt lat="48.89124" lon="1.94304">
        <ele>175.24</ele>
        <time>2021-12-12T13:21:48Z</time>
      </trkpt>
      <trkpt lat="48.89129" lon="1.94308">
        <ele>176.08</ele>
        <time>2021-12-12T13:21:58Z</time>
      </trkpt>
      <trkpt lat="48.89131" lon="1.94313">
        <ele>175.75</ele>
        <time>2021-12-12T13:22:02Z</time>
      </trkpt>
      <trkpt lat="48.89139" lon="1.94325">
        <ele>176.33</ele>
        <time>2021-12-12T13:22:15Z</time>
      </trkpt>
      <trkpt lat="48.89151" lon="1.94321">
        <ele>177</ele>
        <time>2021-12-12T13:22:31Z</time>
      </trkpt>
      <trkpt lat="48.89159" lon="1.94318">
        <ele>176.75</ele>
        <time>2021-12-12T13:22:46Z</time>
      </trkpt>
      <trkpt lat="48.89157" lon="1.94318">
        <ele>176.51</ele>
        <time>2021-12-12T13:23:04Z</time>
      </trkpt>
      <trkpt lat="48.89156" lon="1.94317">
        <ele>176.04</ele>
        <time>2021-12-12T13:23:10Z</time>
      </trkpt>
      <trkpt lat="48.89155" lon="1.94318">
        <ele>176.48</ele>
        <time>2021-12-12T13:23:25Z</time>
      </trkpt>
      <trkpt lat="48.89154" lon="1.94322">
        <ele>177.25</ele>
        <time>2021-12-12T13:23:42Z</time>
      </trkpt>
      <trkpt lat="48.89153" lon="1.94322">
        <ele>177.25</ele>
        <time>2021-12-12T13:23:57Z</time>
      </trkpt>
      <trkpt lat="48.8915" lon="1.94321">
        <ele>176.76</ele>
        <time>2021-12-12T13:24:16Z</time>
      </trkpt>
      <trkpt lat="48.89148" lon="1.94317">
        <ele>177.14</ele>
        <time>2021-12-12T13:24:32Z</time>
      </trkpt>
      <trkpt lat="48.89148" lon="1.94314">
        <ele>177.66</ele>
        <time>2021-12-12T13:24:49Z</time>
      </trkpt>
      <trkpt lat="48.89148" lon="1.94308">
        <ele>177.35</ele>
        <time>2021-12-12T13:25:11Z</time>
      </trkpt>
      <trkpt lat="48.8915" lon="1.94304">
        <ele>177.49</ele>
        <time>2021-12-12T13:25:33Z</time>
      </trkpt>
      <trkpt lat="48.89152" lon="1.94306">
        <ele>177.75</ele>
        <time>2021-12-12T13:25:53Z</time>
      </trkpt>
      <trkpt lat="48.89153" lon="1.94307">
        <ele>177.68</ele>
        <time>2021-12-12T13:26:12Z</time>
      </trkpt>
      <trkpt lat="48.89154" lon="1.9431">
        <ele>177.74</ele>
        <time>2021-12-12T13:26:30Z</time>
      </trkpt>
      <trkpt lat="48.89152" lon="1.94307">
        <ele>178.05</ele>
        <time>2021-12-12T13:26:54Z</time>
      </trkpt>
      <trkpt lat="48.89153" lon="1.94308">
        <ele>178.26</ele>
        <time>2021-12-12T13:27:13Z</time>
      </trkpt>
      <trkpt lat="48.89154" lon="1.94309">
        <ele>177.97</ele>
        <time>2021-12-12T13:27:30Z</time>
      </trkpt>
      <trkpt lat="48.89155" lon="1.94307">
        <ele>178.12</ele>
        <time>2021-12-12T13:27:50Z</time>
      </trkpt>
      <trkpt lat="48.89155" lon="1.94307">
        <ele>178.84</ele>
        <time>2021-12-12T13:28:12Z</time>
      </trkpt>
      <trkpt lat="48.89157" lon="1.94306">
        <ele>178.51</ele>
        <time>2021-12-12T13:28:34Z</time>
      </trkpt>
      <trkpt lat="48.89156" lon="1.94305">
        <ele>178.52</ele>
        <time>2021-12-12T13:28:54Z</time>
      </trkpt>
      <trkpt lat="48.89157" lon="1.94307">
        <ele>178.67</ele>
        <time>2021-12-12T13:29:16Z</time>
      </trkpt>
      <trkpt lat="48.89156" lon="1.94304">
        <ele>178.69</ele>
        <time>2021-12-12T13:29:35Z</time>
      </trkpt>
      <trkpt lat="48.89157" lon="1.94304">
        <ele>178.89</ele>
        <time>2021-12-12T13:29:54Z</time>
      </trkpt>
      <trkpt lat="48.89158" lon="1.94309">
        <ele>178.57</ele>
        <time>2021-12-12T13:30:14Z</time>
      </trkpt>
      <trkpt lat="48.89157" lon="1.94311">
        <ele>178.85</ele>
        <time>2021-12-12T13:30:31Z</time>
      </trkpt>
      <trkpt lat="48.89157" lon="1.94313">
        <ele>179.18</ele>
        <time>2021-12-12T13:30:52Z</time>
      </trkpt>
      <trkpt lat="48.89159" lon="1.94312">
        <ele>178.88</ele>
        <time>2021-12-12T13:31:13Z</time>
      </trkpt>
      <trkpt lat="48.89167" lon="1.94305">
        <ele>179.34</ele>
        <time>2021-12-12T13:31:28Z</time>
      </trkpt>
      <trkpt lat="48.89174" lon="1.94296">
        <ele>179.27</ele>
        <time>2021-12-12T13:31:43Z</time>
      </trkpt>
      <trkpt lat="48.89185" lon="1.9428">
        <ele>179.43</ele>
        <time>2021-12-12T13:32:00Z</time>
      </trkpt>
      <trkpt lat="48.89193" lon="1.94264">
        <ele>179</ele>
        <time>2021-12-12T13:32:14Z</time>
      </trkpt>
      <trkpt lat="48.89203" lon="1.94251">
        <ele>179.32</ele>
        <time>2021-12-12T13:32:26Z</time>
      </trkpt>
      <trkpt lat="48.89213" lon="1.94236">
        <ele>179.37</ele>
        <time>2021-12-12T13:32:42Z</time>
      </trkpt>
      <trkpt lat="48.89223" lon="1.94218">
        <ele>179.28</ele>
        <time>2021-12-12T13:32:58Z</time>
      </trkpt>
      <trkpt lat="48.89233" lon="1.94204">
        <ele>179.51</ele>
        <time>2021-12-12T13:33:11Z</time>
      </trkpt>
      <trkpt lat="48.8924" lon="1.9419">
        <ele>179.26</ele>
        <time>2021-12-12T13:33:23Z</time>
      </trkpt>
      <trkpt lat="48.89251" lon="1.94174">
        <ele>178.43</ele>
        <time>2021-12-12T13:33:37Z</time>
      </trkpt>
      <trkpt lat="48.8926" lon="1.94157">
        <ele>178.98</ele>
        <time>2021-12-12T13:33:52Z</time>
      </trkpt>
      <trkpt lat="48.89269" lon="1.9414">
        <ele>178.59</ele>
        <time>2021-12-12T13:34:06Z</time>
      </trkpt>
      <trkpt lat="48.89277" lon="1.94128">
        <ele>178.46</ele>
        <time>2021-12-12T13:34:18Z</time>
      </trkpt>
      <trkpt lat="48.89288" lon="1.94108">
        <ele>178.27</ele>
        <time>2021-12-12T13:34:34Z</time>
      </trkpt>
      <trkpt lat="48.89295" lon="1.94096">
        <ele>178.05</ele>
        <time>2021-12-12T13:34:43Z</time>
      </trkpt>
      <trkpt lat="48.89304" lon="1.94083">
        <ele>177.82</ele>
        <time>2021-12-12T13:34:55Z</time>
      </trkpt>
      <trkpt lat="48.89312" lon="1.94062">
        <ele>177.25</ele>
        <time>2021-12-12T13:35:09Z</time>
      </trkpt>
      <trkpt lat="48.89322" lon="1.94046">
        <ele>177.32</ele>
        <time>2021-12-12T13:35:24Z</time>
      </trkpt>
      <trkpt lat="48.89339" lon="1.94026">
        <ele>176.87</ele>
        <time>2021-12-12T13:35:41Z</time>
      </trkpt>
      <trkpt lat="48.89349" lon="1.94008">
        <ele>176.68</ele>
        <time>2021-12-12T13:35:55Z</time>
      </trkpt>
      <trkpt lat="48.89357" lon="1.93988">
        <ele>176.74</ele>
        <time>2021-12-12T13:36:09Z</time>
      </trkpt>
      <trkpt lat="48.89368" lon="1.93969">
        <ele>176.61</ele>
        <time>2021-12-12T13:36:24Z</time>
      </trkpt>
      <trkpt lat="48.89376" lon="1.93953">
        <ele>176.7</ele>
        <time>2021-12-12T13:36:38Z</time>
      </trkpt>
      <trkpt lat="48.89386" lon="1.9394">
        <ele>176</ele>
        <time>2021-12-12T13:36:51Z</time>
      </trkpt>
      <trkpt lat="48.89398" lon="1.93921">
        <ele>175.86</ele>
        <time>2021-12-12T13:37:05Z</time>
      </trkpt>
      <trkpt lat="48.894" lon="1.93914">
        <ele>175.31</ele>
        <time>2021-12-12T13:37:10Z</time>
      </trkpt>
      <trkpt lat="48.89409" lon="1.93903">
        <ele>175.56</ele>
        <time>2021-12-12T13:37:24Z</time>
      </trkpt>
      <trkpt lat="48.89414" lon="1.93884">
        <ele>174.87</ele>
        <time>2021-12-12T13:37:39Z</time>
      </trkpt>
      <trkpt lat="48.89417" lon="1.93856">
        <ele>174.61</ele>
        <time>2021-12-12T13:37:55Z</time>
      </trkpt>
      <trkpt lat="48.89415" lon="1.93833">
        <ele>174.12</ele>
        <time>2021-12-12T13:38:08Z</time>
      </trkpt>
      <trkpt lat="48.8941" lon="1.93808">
        <ele>174.15</ele>
        <time>2021-12-12T13:38:22Z</time>
      </trkpt>
      <trkpt lat="48.89411" lon="1.93806">
        <ele>174.1</ele>
        <time>2021-12-12T13:38:23Z</time>
      </trkpt>
      <trkpt lat="48.89404" lon="1.93794">
        <ele>174.02</ele>
        <time>2021-12-12T13:38:39Z</time>
      </trkpt>
      <trkpt lat="48.89396" lon="1.93791">
        <ele>172.95</ele>
        <time>2021-12-12T13:38:55Z</time>
      </trkpt>
      <trkpt lat="48.89385" lon="1.93791">
        <ele>172.96</ele>
        <time>2021-12-12T13:39:07Z</time>
      </trkpt>
      <trkpt lat="48.89376" lon="1.93795">
        <ele>173.01</ele>
        <time>2021-12-12T13:39:19Z</time>
      </trkpt>
      <trkpt lat="48.89365" lon="1.93801">
        <ele>172.77</ele>
        <time>2021-12-12T13:39:33Z</time>
      </trkpt>
      <trkpt lat="48.89352" lon="1.93807">
        <ele>172.43</ele>
        <time>2021-12-12T13:39:49Z</time>
      </trkpt>
      <trkpt lat="48.89342" lon="1.93811">
        <ele>172.9</ele>
        <time>2021-12-12T13:40:02Z</time>
      </trkpt>
      <trkpt lat="48.89329" lon="1.93821">
        <ele>172.25</ele>
        <time>2021-12-12T13:40:19Z</time>
      </trkpt>
      <trkpt lat="48.89316" lon="1.93834">
        <ele>172.37</ele>
        <time>2021-12-12T13:40:33Z</time>
      </trkpt>
      <trkpt lat="48.89304" lon="1.93847">
        <ele>173.22</ele>
        <time>2021-12-12T13:40:47Z</time>
      </trkpt>
      <trkpt lat="48.89301" lon="1.93845">
        <ele>173.27</ele>
        <time>2021-12-12T13:41:00Z</time>
      </trkpt>
      <trkpt lat="48.89298" lon="1.93852">
        <ele>172.92</ele>
        <time>2021-12-12T13:41:10Z</time>
      </trkpt>
      <trkpt lat="48.89286" lon="1.93864">
        <ele>173.59</ele>
        <time>2021-12-12T13:41:28Z</time>
      </trkpt>
      <trkpt lat="48.8928" lon="1.93869">
        <ele>173.82</ele>
        <time>2021-12-12T13:41:38Z</time>
      </trkpt>
      <trkpt lat="48.89271" lon="1.9388">
        <ele>173.74</ele>
        <time>2021-12-12T13:41:53Z</time>
      </trkpt>
      <trkpt lat="48.89262" lon="1.9389">
        <ele>173.65</ele>
        <time>2021-12-12T13:42:06Z</time>
      </trkpt>
      <trkpt lat="48.89249" lon="1.93903">
        <ele>174.11</ele>
        <time>2021-12-12T13:42:22Z</time>
      </trkpt>
      <trkpt lat="48.89239" lon="1.93909">
        <ele>173.64</ele>
        <time>2021-12-12T13:42:36Z</time>
      </trkpt>
      <trkpt lat="48.89224" lon="1.93921">
        <ele>173.61</ele>
        <time>2021-12-12T13:42:53Z</time>
      </trkpt>
      <trkpt lat="48.89208" lon="1.93931">
        <ele>173.84</ele>
        <time>2021-12-12T13:43:10Z</time>
      </trkpt>
      <trkpt lat="48.89195" lon="1.93943">
        <ele>174.8</ele>
        <time>2021-12-12T13:43:27Z</time>
      </trkpt>
      <trkpt lat="48.89185" lon="1.93954">
        <ele>173.83</ele>
        <time>2021-12-12T13:43:42Z</time>
      </trkpt>
      <trkpt lat="48.89176" lon="1.93966">
        <ele>173.94</ele>
        <time>2021-12-12T13:43:56Z</time>
      </trkpt>
      <trkpt lat="48.89169" lon="1.93976">
        <ele>174.88</ele>
        <time>2021-12-12T13:44:10Z</time>
      </trkpt>
      <trkpt lat="48.89162" lon="1.93989">
        <ele>174.52</ele>
        <time>2021-12-12T13:44:24Z</time>
      </trkpt>
      <trkpt lat="48.89157" lon="1.94008">
        <ele>174.56</ele>
        <time>2021-12-12T13:44:39Z</time>
      </trkpt>
      <trkpt lat="48.89153" lon="1.94024">
        <ele>174.69</ele>
        <time>2021-12-12T13:44:52Z</time>
      </trkpt>
      <trkpt lat="48.89144" lon="1.94042">
        <ele>174.17</ele>
        <time>2021-12-12T13:45:07Z</time>
      </trkpt>
      <trkpt lat="48.89138" lon="1.94057">
        <ele>174.32</ele>
        <time>2021-12-12T13:45:21Z</time>
      </trkpt>
      <trkpt lat="48.89127" lon="1.94077">
        <ele>174.36</ele>
        <time>2021-12-12T13:45:35Z</time>
      </trkpt>
      <trkpt lat="48.89116" lon="1.94094">
        <ele>173.55</ele>
        <time>2021-12-12T13:45:51Z</time>
      </trkpt>
      <trkpt lat="48.89107" lon="1.94112">
        <ele>173.31</ele>
        <time>2021-12-12T13:46:07Z</time>
      </trkpt>
      <trkpt lat="48.89102" lon="1.94129">
        <ele>173.1</ele>
        <time>2021-12-12T13:46:20Z</time>
      </trkpt>
      <trkpt lat="48.891" lon="1.94143">
        <ele>172.76</ele>
        <time>2021-12-12T13:46:33Z</time>
      </trkpt>
      <trkpt lat="48.89094" lon="1.94159">
        <ele>171.87</ele>
        <time>2021-12-12T13:46:43Z</time>
      </trkpt>
      <trkpt lat="48.89089" lon="1.94167">
        <ele>171.68</ele>
        <time>2021-12-12T13:46:59Z</time>
      </trkpt>
      <trkpt lat="48.89086" lon="1.94181">
        <ele>171.27</ele>
        <time>2021-12-12T13:47:22Z</time>
      </trkpt>
      <trkpt lat="48.89085" lon="1.94183">
        <ele>171.38</ele>
        <time>2021-12-12T13:47:37Z</time>
      </trkpt>
      <trkpt lat="48.89077" lon="1.94179">
        <ele>170.64</ele>
        <time>2021-12-12T13:47:51Z</time>
      </trkpt>
      <trkpt lat="48.89065" lon="1.94167">
        <ele>169.48</ele>
        <time>2021-12-12T13:48:06Z</time>
      </trkpt>
      <trkpt lat="48.89053" lon="1.94153">
        <ele>168.33</ele>
        <time>2021-12-12T13:48:22Z</time>
      </trkpt>
      <trkpt lat="48.89052" lon="1.94151">
        <ele>168.35</ele>
        <time>2021-12-12T13:48:23Z</time>
      </trkpt>
      <trkpt lat="48.89038" lon="1.94136">
        <ele>167.34</ele>
        <time>2021-12-12T13:48:39Z</time>
      </trkpt>
      <trkpt lat="48.89026" lon="1.94123">
        <ele>166.09</ele>
        <time>2021-12-12T13:48:54Z</time>
      </trkpt>
      <trkpt lat="48.89017" lon="1.94108">
        <ele>164.24</ele>
        <time>2021-12-12T13:49:07Z</time>
      </trkpt>
      <trkpt lat="48.89009" lon="1.94093">
        <ele>162.38</ele>
        <time>2021-12-12T13:49:23Z</time>
      </trkpt>
      <trkpt lat="48.88999" lon="1.9408">
        <ele>161.74</ele>
        <time>2021-12-12T13:49:37Z</time>
      </trkpt>
      <trkpt lat="48.8899" lon="1.94068">
        <ele>161.33</ele>
        <time>2021-12-12T13:49:49Z</time>
      </trkpt>
      <trkpt lat="48.88982" lon="1.94053">
        <ele>160.18</ele>
        <time>2021-12-12T13:50:01Z</time>
      </trkpt>
      <trkpt lat="48.88972" lon="1.94036">
        <ele>159.46</ele>
        <time>2021-12-12T13:50:15Z</time>
      </trkpt>
      <trkpt lat="48.88969" lon="1.94017">
        <ele>157.84</ele>
        <time>2021-12-12T13:50:30Z</time>
      </trkpt>
      <trkpt lat="48.88962" lon="1.93998">
        <ele>157.2</ele>
        <time>2021-12-12T13:50:47Z</time>
      </trkpt>
      <trkpt lat="48.88956" lon="1.93982">
        <ele>155.07</ele>
        <time>2021-12-12T13:51:03Z</time>
      </trkpt>
      <trkpt lat="48.88952" lon="1.93965">
        <ele>153.42</ele>
        <time>2021-12-12T13:51:16Z</time>
      </trkpt>
      <trkpt lat="48.88946" lon="1.93944">
        <ele>151.23</ele>
        <time>2021-12-12T13:51:32Z</time>
      </trkpt>
      <trkpt lat="48.8894" lon="1.93929">
        <ele>150.49</ele>
        <time>2021-12-12T13:51:43Z</time>
      </trkpt>
      <trkpt lat="48.88934" lon="1.93909">
        <ele>148.1</ele>
        <time>2021-12-12T13:51:58Z</time>
      </trkpt>
      <trkpt lat="48.88933" lon="1.93885">
        <ele>146.35</ele>
        <time>2021-12-12T13:52:12Z</time>
      </trkpt>
      <trkpt lat="48.88931" lon="1.93872">
        <ele>145.78</ele>
        <time>2021-12-12T13:52:28Z</time>
      </trkpt>
      <trkpt lat="48.88928" lon="1.9387">
        <ele>145.41</ele>
        <time>2021-12-12T13:52:46Z</time>
      </trkpt>
      <trkpt lat="48.88928" lon="1.93867">
        <ele>144.91</ele>
        <time>2021-12-12T13:53:07Z</time>
      </trkpt>
      <trkpt lat="48.88926" lon="1.93868">
        <ele>145.05</ele>
        <time>2021-12-12T13:53:30Z</time>
      </trkpt>
      <trkpt lat="48.88927" lon="1.93869">
        <ele>145.13</ele>
        <time>2021-12-12T13:53:53Z</time>
      </trkpt>
      <trkpt lat="48.88929" lon="1.93868">
        <ele>146.03</ele>
        <time>2021-12-12T13:54:10Z</time>
      </trkpt>
      <trkpt lat="48.88934" lon="1.93868">
        <ele>146.05</ele>
        <time>2021-12-12T13:54:34Z</time>
      </trkpt>
      <trkpt lat="48.88934" lon="1.93868">
        <ele>145.38</ele>
        <time>2021-12-12T13:54:59Z</time>
      </trkpt>
      <trkpt lat="48.88934" lon="1.93868">
        <ele>146.47</ele>
        <time>2021-12-12T13:55:18Z</time>
      </trkpt>
      <trkpt lat="48.88934" lon="1.93867">
        <ele>145.75</ele>
        <time>2021-12-12T13:55:39Z</time>
      </trkpt>
      <trkpt lat="48.88934" lon="1.93867">
        <ele>146.47</ele>
        <time>2021-12-12T13:55:59Z</time>
      </trkpt>
      <trkpt lat="48.88935" lon="1.93866">
        <ele>146.42</ele>
        <time>2021-12-12T13:56:23Z</time>
      </trkpt>
      <trkpt lat="48.88938" lon="1.93863">
        <ele>146.27</ele>
        <time>2021-12-12T13:56:45Z</time>
      </trkpt>
      <trkpt lat="48.88941" lon="1.93863">
        <ele>146.57</ele>
        <time>2021-12-12T13:57:06Z</time>
      </trkpt>
      <trkpt lat="48.88935" lon="1.93853">
        <ele>145.3</ele>
        <time>2021-12-12T13:57:19Z</time>
      </trkpt>
      <trkpt lat="48.88928" lon="1.93836">
        <ele>143.81</ele>
        <time>2021-12-12T13:57:32Z</time>
      </trkpt>
      <trkpt lat="48.88922" lon="1.9382">
        <ele>142.64</ele>
        <time>2021-12-12T13:57:45Z</time>
      </trkpt>
      <trkpt lat="48.88917" lon="1.938">
        <ele>141.07</ele>
        <time>2021-12-12T13:57:58Z</time>
      </trkpt>
      <trkpt lat="48.88913" lon="1.93786">
        <ele>139.46</ele>
        <time>2021-12-12T13:58:11Z</time>
      </trkpt>
      <trkpt lat="48.88908" lon="1.93771">
        <ele>137.77</ele>
        <time>2021-12-12T13:58:24Z</time>
      </trkpt>
      <trkpt lat="48.88899" lon="1.93755">
        <ele>136.63</ele>
        <time>2021-12-12T13:58:38Z</time>
      </trkpt>
      <trkpt lat="48.88892" lon="1.93734">
        <ele>134.98</ele>
        <time>2021-12-12T13:58:52Z</time>
      </trkpt>
      <trkpt lat="48.88886" lon="1.93723">
        <ele>134.48</ele>
        <time>2021-12-12T13:59:01Z</time>
      </trkpt>
      <trkpt lat="48.88878" lon="1.93704">
        <ele>132.19</ele>
        <time>2021-12-12T13:59:15Z</time>
      </trkpt>
      <trkpt lat="48.88869" lon="1.93683">
        <ele>130.6</ele>
        <time>2021-12-12T13:59:29Z</time>
      </trkpt>
      <trkpt lat="48.88861" lon="1.93667">
        <ele>129.89</ele>
        <time>2021-12-12T13:59:40Z</time>
      </trkpt>
      <trkpt lat="48.88858" lon="1.93661">
        <ele>129.64</ele>
        <time>2021-12-12T13:59:45Z</time>
      </trkpt>
      <trkpt lat="48.88848" lon="1.93647">
        <ele>128.99</ele>
        <time>2021-12-12T13:59:57Z</time>
      </trkpt>
      <trkpt lat="48.88838" lon="1.93632">
        <ele>128.04</ele>
        <time>2021-12-12T14:00:10Z</time>
      </trkpt>
      <trkpt lat="48.88829" lon="1.93617">
        <ele>127.08</ele>
        <time>2021-12-12T14:00:20Z</time>
      </trkpt>
      <trkpt lat="48.88824" lon="1.93609">
        <ele>126.47</ele>
        <time>2021-12-12T14:00:26Z</time>
      </trkpt>
      <trkpt lat="48.88815" lon="1.93593">
        <ele>125.82</ele>
        <time>2021-12-12T14:00:40Z</time>
      </trkpt>
      <trkpt lat="48.88808" lon="1.93581">
        <ele>124.96</ele>
        <time>2021-12-12T14:00:50Z</time>
      </trkpt>
      <trkpt lat="48.88798" lon="1.93564">
        <ele>123.92</ele>
        <time>2021-12-12T14:01:05Z</time>
      </trkpt>
      <trkpt lat="48.88791" lon="1.9355">
        <ele>123.27</ele>
        <time>2021-12-12T14:01:18Z</time>
      </trkpt>
      <trkpt lat="48.88779" lon="1.93534">
        <ele>122.94</ele>
        <time>2021-12-12T14:01:33Z</time>
      </trkpt>
      <trkpt lat="48.8877" lon="1.93521">
        <ele>121.85</ele>
        <time>2021-12-12T14:01:45Z</time>
      </trkpt>
      <trkpt lat="48.88761" lon="1.93507">
        <ele>121.47</ele>
        <time>2021-12-12T14:01:56Z</time>
      </trkpt>
      <trkpt lat="48.88751" lon="1.93493">
        <ele>120.76</ele>
        <time>2021-12-12T14:02:09Z</time>
      </trkpt>
      <trkpt lat="48.88742" lon="1.93476">
        <ele>120.18</ele>
        <time>2021-12-12T14:02:26Z</time>
      </trkpt>
      <trkpt lat="48.88733" lon="1.93455">
        <ele>118.92</ele>
        <time>2021-12-12T14:02:44Z</time>
      </trkpt>
      <trkpt lat="48.8872" lon="1.93433">
        <ele>117.53</ele>
        <time>2021-12-12T14:03:02Z</time>
      </trkpt>
      <trkpt lat="48.88711" lon="1.9342">
        <ele>117.6</ele>
        <time>2021-12-12T14:03:16Z</time>
      </trkpt>
      <trkpt lat="48.88702" lon="1.93408">
        <ele>116.92</ele>
        <time>2021-12-12T14:03:28Z</time>
      </trkpt>
      <trkpt lat="48.88694" lon="1.93394">
        <ele>116.84</ele>
        <time>2021-12-12T14:03:40Z</time>
      </trkpt>
      <trkpt lat="48.88684" lon="1.93375">
        <ele>115.91</ele>
        <time>2021-12-12T14:03:55Z</time>
      </trkpt>
      <trkpt lat="48.88678" lon="1.93366">
        <ele>115.36</ele>
        <time>2021-12-12T14:04:05Z</time>
      </trkpt>
      <trkpt lat="48.88673" lon="1.93353">
        <ele>114.78</ele>
        <time>2021-12-12T14:04:16Z</time>
      </trkpt>
      <trkpt lat="48.88669" lon="1.93347">
        <ele>114.88</ele>
        <time>2021-12-12T14:04:22Z</time>
      </trkpt>
      <trkpt lat="48.88662" lon="1.93334">
        <ele>113.82</ele>
        <time>2021-12-12T14:04:33Z</time>
      </trkpt>
      <trkpt lat="48.88654" lon="1.93323">
        <ele>113.59</ele>
        <time>2021-12-12T14:04:44Z</time>
      </trkpt>
      <trkpt lat="48.88649" lon="1.93316">
        <ele>113.16</ele>
        <time>2021-12-12T14:04:52Z</time>
      </trkpt>
      <trkpt lat="48.88646" lon="1.9331">
        <ele>112.62</ele>
        <time>2021-12-12T14:04:58Z</time>
      </trkpt>
      <trkpt lat="48.88643" lon="1.93307">
        <ele>112.3</ele>
        <time>2021-12-12T14:05:01Z</time>
      </trkpt>
      <trkpt lat="48.88642" lon="1.93305">
        <ele>112.94</ele>
        <time>2021-12-12T14:05:03Z</time>
      </trkpt>
      <trkpt lat="48.88637" lon="1.93297">
        <ele>111.77</ele>
        <time>2021-12-12T14:05:10Z</time>
      </trkpt>
      <trkpt lat="48.88634" lon="1.93292">
        <ele>111.87</ele>
        <time>2021-12-12T14:05:14Z</time>
      </trkpt>
      <trkpt lat="48.88632" lon="1.93289">
        <ele>112.46</ele>
        <time>2021-12-12T14:05:17Z</time>
      </trkpt>
      <trkpt lat="48.88624" lon="1.93276">
        <ele>111.96</ele>
        <time>2021-12-12T14:05:28Z</time>
      </trkpt>
      <trkpt lat="48.88621" lon="1.93272">
        <ele>111.51</ele>
        <time>2021-12-12T14:05:32Z</time>
      </trkpt>
      <trkpt lat="48.88619" lon="1.93269">
        <ele>111.8</ele>
        <time>2021-12-12T14:05:35Z</time>
      </trkpt>
      <trkpt lat="48.88614" lon="1.93262">
        <ele>111.81</ele>
        <time>2021-12-12T14:05:42Z</time>
      </trkpt>
      <trkpt lat="48.88606" lon="1.93248">
        <ele>111.3</ele>
        <time>2021-12-12T14:05:53Z</time>
      </trkpt>
      <trkpt lat="48.88599" lon="1.93236">
        <ele>110.93</ele>
        <time>2021-12-12T14:06:03Z</time>
      </trkpt>
      <trkpt lat="48.88594" lon="1.93227">
        <ele>110.42</ele>
        <time>2021-12-12T14:06:12Z</time>
      </trkpt>
      <trkpt lat="48.88593" lon="1.93226">
        <ele>110.45</ele>
        <time>2021-12-12T14:06:13Z</time>
      </trkpt>
      <trkpt lat="48.88589" lon="1.9322">
        <ele>109.43</ele>
        <time>2021-12-12T14:06:19Z</time>
      </trkpt>
      <trkpt lat="48.88585" lon="1.93213">
        <ele>110.44</ele>
        <time>2021-12-12T14:06:25Z</time>
      </trkpt>
      <trkpt lat="48.88576" lon="1.93202">
        <ele>110.04</ele>
        <time>2021-12-12T14:06:36Z</time>
      </trkpt>
      <trkpt lat="48.88572" lon="1.93195">
        <ele>109.77</ele>
        <time>2021-12-12T14:06:43Z</time>
      </trkpt>
      <trkpt lat="48.88571" lon="1.93194">
        <ele>109.78</ele>
        <time>2021-12-12T14:06:44Z</time>
      </trkpt>
      <trkpt lat="48.88564" lon="1.93184">
        <ele>109.43</ele>
        <time>2021-12-12T14:06:55Z</time>
      </trkpt>
      <trkpt lat="48.88556" lon="1.93182">
        <ele>109.63</ele>
        <time>2021-12-12T14:07:08Z</time>
      </trkpt>
      <trkpt lat="48.88549" lon="1.93178">
        <ele>109.8</ele>
        <time>2021-12-12T14:07:20Z</time>
      </trkpt>
      <trkpt lat="48.88546" lon="1.93174">
        <ele>109.25</ele>
        <time>2021-12-12T14:07:32Z</time>
      </trkpt>
      <trkpt lat="48.88547" lon="1.93174">
        <ele>109.59</ele>
        <time>2021-12-12T14:07:35Z</time>
      </trkpt>
      <trkpt lat="48.88543" lon="1.93173">
        <ele>109.34</ele>
        <time>2021-12-12T14:07:44Z</time>
      </trkpt>
      <trkpt lat="48.88534" lon="1.93166">
        <ele>109.63</ele>
        <time>2021-12-12T14:07:56Z</time>
      </trkpt>
      <trkpt lat="48.88526" lon="1.93161">
        <ele>109.78</ele>
        <time>2021-12-12T14:08:04Z</time>
      </trkpt>
      <trkpt lat="48.88517" lon="1.93154">
        <ele>109.01</ele>
        <time>2021-12-12T14:08:14Z</time>
      </trkpt>
      <trkpt lat="48.88507" lon="1.93149">
        <ele>109.13</ele>
        <time>2021-12-12T14:08:25Z</time>
      </trkpt>
      <trkpt lat="48.88495" lon="1.93141">
        <ele>109.37</ele>
        <time>2021-12-12T14:08:38Z</time>
      </trkpt>
      <trkpt lat="48.88492" lon="1.93139">
        <ele>109.56</ele>
        <time>2021-12-12T14:08:42Z</time>
      </trkpt>
      <trkpt lat="48.88487" lon="1.93135">
        <ele>109.63</ele>
        <time>2021-12-12T14:08:47Z</time>
      </trkpt>
      <trkpt lat="48.88479" lon="1.93129">
        <ele>109.35</ele>
        <time>2021-12-12T14:08:56Z</time>
      </trkpt>
      <trkpt lat="48.8847" lon="1.93124">
        <ele>109.08</ele>
        <time>2021-12-12T14:09:05Z</time>
      </trkpt>
      <trkpt lat="48.8846" lon="1.93118">
        <ele>109.38</ele>
        <time>2021-12-12T14:09:15Z</time>
      </trkpt>
      <trkpt lat="48.8845" lon="1.9311">
        <ele>108.99</ele>
        <time>2021-12-12T14:09:26Z</time>
      </trkpt>
      <trkpt lat="48.88442" lon="1.93104">
        <ele>109.19</ele>
        <time>2021-12-12T14:09:37Z</time>
      </trkpt>
      <trkpt lat="48.88432" lon="1.93099">
        <ele>108.98</ele>
        <time>2021-12-12T14:09:49Z</time>
      </trkpt>
      <trkpt lat="48.88422" lon="1.93094">
        <ele>108.64</ele>
        <time>2021-12-12T14:10:03Z</time>
      </trkpt>
      <trkpt lat="48.88413" lon="1.93085">
        <ele>108.28</ele>
        <time>2021-12-12T14:10:13Z</time>
      </trkpt>
      <trkpt lat="48.88406" lon="1.93079">
        <ele>108.38</ele>
        <time>2021-12-12T14:10:24Z</time>
      </trkpt>
      <trkpt lat="48.88402" lon="1.93077">
        <ele>108.47</ele>
        <time>2021-12-12T14:10:45Z</time>
      </trkpt>
      <trkpt lat="48.884" lon="1.93078">
        <ele>108.29</ele>
        <time>2021-12-12T14:11:02Z</time>
      </trkpt>
      <trkpt lat="48.88398" lon="1.93076">
        <ele>107.97</ele>
        <time>2021-12-12T14:11:11Z</time>
      </trkpt>
      <trkpt lat="48.88396" lon="1.93074">
        <ele>108.17</ele>
        <time>2021-12-12T14:11:13Z</time>
      </trkpt>
      <trkpt lat="48.88387" lon="1.93076">
        <ele>108.41</ele>
        <time>2021-12-12T14:11:23Z</time>
      </trkpt>
      <trkpt lat="48.88379" lon="1.9309">
        <ele>109.21</ele>
        <time>2021-12-12T14:11:36Z</time>
      </trkpt>
      <trkpt lat="48.88372" lon="1.93101">
        <ele>107.35</ele>
        <time>2021-12-12T14:11:48Z</time>
      </trkpt>
      <trkpt lat="48.88364" lon="1.93117">
        <ele>106.45</ele>
        <time>2021-12-12T14:12:00Z</time>
      </trkpt>
      <trkpt lat="48.88363" lon="1.93118">
        <ele>106.8</ele>
        <time>2021-12-12T14:12:01Z</time>
      </trkpt>
      <trkpt lat="48.88356" lon="1.93132">
        <ele>105.95</ele>
        <time>2021-12-12T14:12:12Z</time>
      </trkpt>
      <trkpt lat="48.88355" lon="1.93132">
        <ele>105.41</ele>
        <time>2021-12-12T14:12:14Z</time>
      </trkpt>
      <trkpt lat="48.88347" lon="1.93127">
        <ele>104.07</ele>
        <time>2021-12-12T14:12:26Z</time>
      </trkpt>
      <trkpt lat="48.88335" lon="1.93115">
        <ele>103.58</ele>
        <time>2021-12-12T14:12:41Z</time>
      </trkpt>
      <trkpt lat="48.88323" lon="1.93105">
        <ele>103.64</ele>
        <time>2021-12-12T14:12:55Z</time>
      </trkpt>
      <trkpt lat="48.88313" lon="1.93093">
        <ele>103.63</ele>
        <time>2021-12-12T14:13:07Z</time>
      </trkpt>
      <trkpt lat="48.88303" lon="1.93082">
        <ele>102.39</ele>
        <time>2021-12-12T14:13:18Z</time>
      </trkpt>
      <trkpt lat="48.88293" lon="1.93069">
        <ele>102.79</ele>
        <time>2021-12-12T14:13:30Z</time>
      </trkpt>
      <trkpt lat="48.88284" lon="1.93053">
        <ele>102.9</ele>
        <time>2021-12-12T14:13:45Z</time>
      </trkpt>
      <trkpt lat="48.88279" lon="1.93032">
        <ele>102.65</ele>
        <time>2021-12-12T14:14:00Z</time>
      </trkpt>
      <trkpt lat="48.88276" lon="1.93016">
        <ele>101.9</ele>
        <time>2021-12-12T14:14:10Z</time>
      </trkpt>
      <trkpt lat="48.88266" lon="1.92998">
        <ele>102.8</ele>
        <time>2021-12-12T14:14:23Z</time>
      </trkpt>
      <trkpt lat="48.88256" lon="1.92986">
        <ele>102.58</ele>
        <time>2021-12-12T14:14:34Z</time>
      </trkpt>
      <trkpt lat="48.88242" lon="1.9297">
        <ele>102.38</ele>
        <time>2021-12-12T14:14:48Z</time>
      </trkpt>
      <trkpt lat="48.88233" lon="1.92955">
        <ele>102.23</ele>
        <time>2021-12-12T14:14:59Z</time>
      </trkpt>
      <trkpt lat="48.88223" lon="1.92945">
        <ele>101.47</ele>
        <time>2021-12-12T14:15:09Z</time>
      </trkpt>
      <trkpt lat="48.8822" lon="1.92939">
        <ele>101.82</ele>
        <time>2021-12-12T14:15:13Z</time>
      </trkpt>
      <trkpt lat="48.8821" lon="1.92928">
        <ele>100.88</ele>
        <time>2021-12-12T14:15:25Z</time>
      </trkpt>
      <trkpt lat="48.88202" lon="1.92923">
        <ele>100.19</ele>
        <time>2021-12-12T14:15:35Z</time>
      </trkpt>
      <trkpt lat="48.88189" lon="1.92912">
        <ele>99.61</ele>
        <time>2021-12-12T14:15:48Z</time>
      </trkpt>
      <trkpt lat="48.88181" lon="1.92902">
        <ele>99.98</ele>
        <time>2021-12-12T14:15:59Z</time>
      </trkpt>
      <trkpt lat="48.8818" lon="1.92901">
        <ele>99.87</ele>
        <time>2021-12-12T14:16:01Z</time>
      </trkpt>
      <trkpt lat="48.88168" lon="1.92885">
        <ele>99.1</ele>
        <time>2021-12-12T14:16:14Z</time>
      </trkpt>
      <trkpt lat="48.88152" lon="1.92871">
        <ele>98.71</ele>
        <time>2021-12-12T14:16:30Z</time>
      </trkpt>
      <trkpt lat="48.88151" lon="1.9287">
        <ele>98.07</ele>
        <time>2021-12-12T14:16:31Z</time>
      </trkpt>
      <trkpt lat="48.88145" lon="1.92866">
        <ele>98.3</ele>
        <time>2021-12-12T14:16:44Z</time>
      </trkpt>
      <trkpt lat="48.8814" lon="1.92852">
        <ele>98.34</ele>
        <time>2021-12-12T14:17:02Z</time>
      </trkpt>
      <trkpt lat="48.88139" lon="1.92851">
        <ele>98.29</ele>
        <time>2021-12-12T14:17:24Z</time>
      </trkpt>
      <trkpt lat="48.88138" lon="1.92851">
        <ele>98.28</ele>
        <time>2021-12-12T14:17:39Z</time>
      </trkpt>
      <trkpt lat="48.88139" lon="1.92851">
        <ele>97.93</ele>
        <time>2021-12-12T14:18:00Z</time>
      </trkpt>
      <trkpt lat="48.88138" lon="1.9285">
        <ele>97.94</ele>
        <time>2021-12-12T14:18:25Z</time>
      </trkpt>
      <trkpt lat="48.88138" lon="1.9285">
        <ele>98.63</ele>
        <time>2021-12-12T14:18:43Z</time>
      </trkpt>
      <trkpt lat="48.88137" lon="1.92853">
        <ele>98.05</ele>
        <time>2021-12-12T14:19:07Z</time>
      </trkpt>
      <trkpt lat="48.88136" lon="1.92854">
        <ele>97.62</ele>
        <time>2021-12-12T14:19:26Z</time>
      </trkpt>
      <trkpt lat="48.88135" lon="1.92853">
        <ele>98.55</ele>
        <time>2021-12-12T14:19:45Z</time>
      </trkpt>
      <trkpt lat="48.88135" lon="1.92854">
        <ele>97.79</ele>
        <time>2021-12-12T14:20:08Z</time>
      </trkpt>
      <trkpt lat="48.88135" lon="1.92857">
        <ele>98.38</ele>
        <time>2021-12-12T14:20:30Z</time>
      </trkpt>
      <trkpt lat="48.88136" lon="1.92857">
        <ele>98.91</ele>
        <time>2021-12-12T14:20:53Z</time>
      </trkpt>
      <trkpt lat="48.88136" lon="1.92852">
        <ele>98.19</ele>
        <time>2021-12-12T14:21:10Z</time>
      </trkpt>
      <trkpt lat="48.88134" lon="1.92851">
        <ele>98.36</ele>
        <time>2021-12-12T14:21:33Z</time>
      </trkpt>
      <trkpt lat="48.88136" lon="1.92855">
        <ele>98.5</ele>
        <time>2021-12-12T14:21:56Z</time>
      </trkpt>
      <trkpt lat="48.88136" lon="1.92854">
        <ele>98.37</ele>
        <time>2021-12-12T14:22:18Z</time>
      </trkpt>
      <trkpt lat="48.88136" lon="1.92853">
        <ele>98.4</ele>
        <time>2021-12-12T14:22:39Z</time>
      </trkpt>
      <trkpt lat="48.88136" lon="1.92854">
        <ele>98.63</ele>
        <time>2021-12-12T14:23:00Z</time>
      </trkpt>
      <trkpt lat="48.88136" lon="1.92854">
        <ele>98.58</ele>
        <time>2021-12-12T14:23:21Z</time>
      </trkpt>
      <trkpt lat="48.88135" lon="1.92854">
        <ele>98.88</ele>
        <time>2021-12-12T14:23:43Z</time>
      </trkpt>
      <trkpt lat="48.88136" lon="1.92854">
        <ele>98.78</ele>
        <time>2021-12-12T14:24:05Z</time>
      </trkpt>
      <trkpt lat="48.88138" lon="1.92851">
        <ele>98.67</ele>
        <time>2021-12-12T14:24:26Z</time>
      </trkpt>
      <trkpt lat="48.88139" lon="1.92848">
        <ele>98.83</ele>
        <time>2021-12-12T14:24:47Z</time>
      </trkpt>
      <trkpt lat="48.88139" lon="1.92846">
        <ele>99.29</ele>
        <time>2021-12-12T14:25:10Z</time>
      </trkpt>
      <trkpt lat="48.88136" lon="1.92849">
        <ele>98.97</ele>
        <time>2021-12-12T14:25:31Z</time>
      </trkpt>
      <trkpt lat="48.88137" lon="1.92848">
        <ele>98.74</ele>
        <time>2021-12-12T14:25:54Z</time>
      </trkpt>
      <trkpt lat="48.88137" lon="1.92849">
        <ele>99.18</ele>
        <time>2021-12-12T14:26:19Z</time>
      </trkpt>
      <trkpt lat="48.88136" lon="1.92846">
        <ele>99.19</ele>
        <time>2021-12-12T14:26:46Z</time>
      </trkpt>
      <trkpt lat="48.88136" lon="1.92848">
        <ele>99.07</ele>
        <time>2021-12-12T14:27:07Z</time>
      </trkpt>
      <trkpt lat="48.88134" lon="1.9285">
        <ele>99.12</ele>
        <time>2021-12-12T14:27:28Z</time>
      </trkpt>
      <trkpt lat="48.88136" lon="1.92851">
        <ele>100.06</ele>
        <time>2021-12-12T14:27:50Z</time>
      </trkpt>
      <trkpt lat="48.88136" lon="1.92851">
        <ele>99.12</ele>
        <time>2021-12-12T14:28:08Z</time>
      </trkpt>
      <trkpt lat="48.88136" lon="1.92851">
        <ele>99.14</ele>
        <time>2021-12-12T14:28:28Z</time>
      </trkpt>
      <trkpt lat="48.88135" lon="1.92847">
        <ele>99.07</ele>
        <time>2021-12-12T14:28:43Z</time>
      </trkpt>
      <trkpt lat="48.8814" lon="1.92833">
        <ele>96.26</ele>
        <time>2021-12-12T14:29:02Z</time>
      </trkpt>
      <trkpt lat="48.88145" lon="1.92817">
        <ele>93.75</ele>
        <time>2021-12-12T14:29:19Z</time>
      </trkpt>
      <trkpt lat="48.88147" lon="1.92791">
        <ele>91.19</ele>
        <time>2021-12-12T14:29:35Z</time>
      </trkpt>
      <trkpt lat="48.88152" lon="1.92769">
        <ele>89.09</ele>
        <time>2021-12-12T14:29:49Z</time>
      </trkpt>
      <trkpt lat="48.88153" lon="1.92766">
        <ele>89.1</ele>
        <time>2021-12-12T14:29:51Z</time>
      </trkpt>
      <trkpt lat="48.8816" lon="1.92745">
        <ele>87.75</ele>
        <time>2021-12-12T14:30:06Z</time>
      </trkpt>
      <trkpt lat="48.88167" lon="1.92725">
        <ele>87.24</ele>
        <time>2021-12-12T14:30:22Z</time>
      </trkpt>
      <trkpt lat="48.88169" lon="1.9271">
        <ele>86.77</ele>
        <time>2021-12-12T14:30:31Z</time>
      </trkpt>
      <trkpt lat="48.8817" lon="1.92693">
        <ele>86.85</ele>
        <time>2021-12-12T14:30:42Z</time>
      </trkpt>
      <trkpt lat="48.8818" lon="1.92671">
        <ele>86.86</ele>
        <time>2021-12-12T14:30:58Z</time>
      </trkpt>
      <trkpt lat="48.88186" lon="1.92647">
        <ele>86.54</ele>
        <time>2021-12-12T14:31:13Z</time>
      </trkpt>
      <trkpt lat="48.88196" lon="1.92632">
        <ele>86.82</ele>
        <time>2021-12-12T14:31:30Z</time>
      </trkpt>
      <trkpt lat="48.88201" lon="1.92629">
        <ele>86.96</ele>
        <time>2021-12-12T14:31:39Z</time>
      </trkpt>
      <trkpt lat="48.88212" lon="1.92629">
        <ele>86.56</ele>
        <time>2021-12-12T14:32:02Z</time>
      </trkpt>
      <trkpt lat="48.88211" lon="1.92628">
        <ele>86.46</ele>
        <time>2021-12-12T14:32:23Z</time>
      </trkpt>
      <trkpt lat="48.88212" lon="1.92629">
        <ele>86.45</ele>
        <time>2021-12-12T14:32:47Z</time>
      </trkpt>
      <trkpt lat="48.88212" lon="1.92626">
        <ele>86.89</ele>
        <time>2021-12-12T14:33:09Z</time>
      </trkpt>
      <trkpt lat="48.8821" lon="1.92611">
        <ele>86.46</ele>
        <time>2021-12-12T14:33:25Z</time>
      </trkpt>
      <trkpt lat="48.88209" lon="1.92598">
        <ele>86.57</ele>
        <time>2021-12-12T14:33:34Z</time>
      </trkpt>
      <trkpt lat="48.88206" lon="1.92582">
        <ele>87.13</ele>
        <time>2021-12-12T14:33:47Z</time>
      </trkpt>
      <trkpt lat="48.88208" lon="1.92578">
        <ele>87.59</ele>
        <time>2021-12-12T14:33:59Z</time>
      </trkpt>
      <trkpt lat="48.8821" lon="1.92576">
        <ele>86.92</ele>
        <time>2021-12-12T14:34:15Z</time>
      </trkpt>
      <trkpt lat="48.88209" lon="1.92573">
        <ele>87.08</ele>
        <time>2021-12-12T14:34:32Z</time>
      </trkpt>
      <trkpt lat="48.88207" lon="1.92571">
        <ele>87.21</ele>
        <time>2021-12-12T14:34:56Z</time>
      </trkpt>
      <trkpt lat="48.88206" lon="1.92571">
        <ele>87.1</ele>
        <time>2021-12-12T14:35:20Z</time>
      </trkpt>
      <trkpt lat="48.88206" lon="1.9257">
        <ele>87.45</ele>
        <time>2021-12-12T14:35:42Z</time>
      </trkpt>
      <trkpt lat="48.88208" lon="1.92569">
        <ele>87.54</ele>
        <time>2021-12-12T14:36:01Z</time>
      </trkpt>
      <trkpt lat="48.88206" lon="1.92568">
        <ele>87.61</ele>
        <time>2021-12-12T14:36:16Z</time>
      </trkpt>
      <trkpt lat="48.88208" lon="1.92567">
        <ele>87.01</ele>
        <time>2021-12-12T14:36:29Z</time>
      </trkpt>
      <trkpt lat="48.88206" lon="1.92568">
        <ele>88.2</ele>
        <time>2021-12-12T14:36:38Z</time>
      </trkpt>
      <trkpt lat="48.88201" lon="1.9256">
        <ele>87.54</ele>
        <time>2021-12-12T14:36:48Z</time>
      </trkpt>
      <trkpt lat="48.88193" lon="1.9254">
        <ele>87.82</ele>
        <time>2021-12-12T14:37:03Z</time>
      </trkpt>
      <trkpt lat="48.88188" lon="1.92531">
        <ele>87.65</ele>
        <time>2021-12-12T14:37:13Z</time>
      </trkpt>
      <trkpt lat="48.88184" lon="1.92519">
        <ele>88.4</ele>
        <time>2021-12-12T14:37:27Z</time>
      </trkpt>
      <trkpt lat="48.88183" lon="1.92501">
        <ele>89.21</ele>
        <time>2021-12-12T14:37:40Z</time>
      </trkpt>
      <trkpt lat="48.88183" lon="1.92491">
        <ele>89.65</ele>
        <time>2021-12-12T14:37:47Z</time>
      </trkpt>
      <trkpt lat="48.88183" lon="1.92486">
        <ele>89.87</ele>
        <time>2021-12-12T14:37:50Z</time>
      </trkpt>
      <trkpt lat="48.88181" lon="1.92473">
        <ele>90.11</ele>
        <time>2021-12-12T14:38:03Z</time>
      </trkpt>
      <trkpt lat="48.88177" lon="1.92458">
        <ele>90.89</ele>
        <time>2021-12-12T14:38:17Z</time>
      </trkpt>
      <trkpt lat="48.88176" lon="1.92451">
        <ele>91.3</ele>
        <time>2021-12-12T14:38:28Z</time>
      </trkpt>
      <trkpt lat="48.88177" lon="1.92442">
        <ele>91.42</ele>
        <time>2021-12-12T14:38:46Z</time>
      </trkpt>
      <trkpt lat="48.88182" lon="1.92427">
        <ele>91.99</ele>
        <time>2021-12-12T14:39:00Z</time>
      </trkpt>
      <trkpt lat="48.88176" lon="1.92411">
        <ele>92.05</ele>
        <time>2021-12-12T14:41:56Z</time>
      </trkpt>
      <trkpt lat="48.88177" lon="1.92406">
        <ele>92.22</ele>
        <time>2021-12-12T14:42:07Z</time>
      </trkpt>
      <trkpt lat="48.88175" lon="1.9239">
        <ele>92.32</ele>
        <time>2021-12-12T14:42:32Z</time>
      </trkpt>
    </trkseg>
  </trk>
</gpx>